Provisional Data: Quittapahilla Creek near Syner, PA


Please select a monitoring station.
Please select start date.
Please select start date.

Toggle Unit: C/F Toggle Unit: C/F
Sample Time Temperature (C) Temperature (F) Specific Conductivity (mS/cm) pH   Turbidity (NTU+) DO (mg/L)
12/23/2021 12:00:00 AM 7.01 44.618 0.669 7.94 2.88 11.42
12/23/2021 12:15:00 AM 6.99 44.582 0.669 7.93 2.5 11.41
12/23/2021 12:30:00 AM 6.97 44.546 0.669 7.93 2.66 11.38
12/23/2021 12:45:00 AM 6.95 44.51 0.669 7.93 2.27 11.35
12/23/2021 1:00:00 AM 6.92 44.456 0.669 7.92 2.16 11.35
12/23/2021 1:15:00 AM 6.9 44.42 0.668 7.92 2.48 11.32
12/23/2021 1:30:00 AM 6.88 44.384 0.669 7.92 2.17 11.31
12/23/2021 1:45:00 AM 6.86 44.348 0.669 7.91 2.49 11.29
12/23/2021 2:00:00 AM 6.84 44.312 0.669 7.91 2.48 11.27
12/23/2021 2:15:00 AM 6.81 44.258 0.669 7.91 2.19 11.26
12/23/2021 2:30:00 AM 6.8 44.24 0.669 7.9 2.31 11.24
12/23/2021 2:45:00 AM 6.78 44.204 0.67 7.9 2.33 11.25
12/23/2021 3:00:00 AM 6.77 44.186 0.67 7.89 2.49 11.24
12/23/2021 3:15:00 AM 6.76 44.168 0.67 7.89 2.31 11.23
12/23/2021 3:30:00 AM 6.76 44.168 0.67 7.89 2.42 11.23
12/23/2021 3:45:00 AM 6.75 44.15 0.67 7.88 6.48 11.23
12/23/2021 4:00:00 AM 6.74 44.132 0.67 7.88 4.2 11.22
12/23/2021 4:15:00 AM 6.73 44.114 0.67 7.88 3.27 11.21
12/23/2021 4:30:00 AM 6.7 44.06 0.67 7.88 3.14 11.22
12/23/2021 4:45:00 AM 6.68 44.024 0.67 7.88 2.47 11.22
12/23/2021 5:00:00 AM 6.66 43.988 0.67 7.88 2.28 11.22
12/23/2021 5:15:00 AM 6.63 43.934 0.67 7.87 2.15 11.22
12/23/2021 5:30:00 AM 6.61 43.898 0.67 7.87 3.04 11.21
12/23/2021 5:45:00 AM 6.59 43.862 0.67 7.87 2.33 11.23
12/23/2021 6:00:00 AM 6.57 43.826 0.67 7.87 2.22 11.22
12/23/2021 6:15:00 AM 6.54 43.772 0.67 7.88 2.36 11.24
12/23/2021 6:30:00 AM 6.52 43.736 0.671 7.87 1.85 11.24
12/23/2021 6:45:00 AM 6.5 43.7 0.671 7.87 2.08 11.24
12/23/2021 7:00:00 AM 6.47 43.646 0.671 7.87 2.18 11.25
12/23/2021 7:15:00 AM 6.44 43.592 0.671 7.87 1.89 11.26
12/23/2021 7:30:00 AM 6.41 43.538 0.671 7.87 2.05 11.28
12/23/2021 7:45:00 AM 6.38 43.484 0.671 7.87 1.93 11.3
12/23/2021 8:00:00 AM 6.35 43.43 0.671 7.87 2.21 11.35
12/23/2021 8:15:00 AM 6.3 43.34 0.672 7.87 2.16 11.4
12/23/2021 8:30:00 AM 6.26 43.268 0.673 7.88 3.08 11.43
12/23/2021 8:45:00 AM 6.2 43.16 0.674 7.88 2.07 11.51
12/23/2021 9:00:00 AM 6.15 43.07 0.675 7.88 2.28 11.61
12/23/2021 9:15:00 AM 6.13 43.034 0.676 7.89 2.85 11.76
12/23/2021 9:30:00 AM 6.14 43.052 0.676 7.9 2.69 11.89
12/23/2021 9:45:00 AM 6.14 43.052 0.676 7.92 2.4 12.12
12/23/2021 10:00:00 AM 6.15 43.07 0.676 7.94 2.32 12.31
12/23/2021 10:15:00 AM 6.17 43.106 0.675 7.95 2.38 12.51
12/23/2021 10:30:00 AM 6.21 43.178 0.675 7.97 2.5 12.77
12/23/2021 10:45:00 AM 6.24 43.232 0.674 7.98 34.22 13
12/23/2021 11:00:00 AM 6.3 43.34 0.674 8 2.23 13.21
12/23/2021 11:15:00 AM 6.37 43.466 0.673 8.02 2.3 13.51
12/23/2021 11:30:00 AM 6.46 43.628 0.672 8.03 2.33 13.82
12/23/2021 11:45:00 AM 6.55 43.79 0.671 8.06 2.07 14.1
12/23/2021 12:00:00 PM 6.62 43.916 0.671 8.08 2.31 14.35
12/23/2021 12:15:00 PM 6.68 44.024 0.67 8.09 2.19 14.55
12/23/2021 12:30:00 PM 6.73 44.114 0.67 8.11 2.13 14.7
12/23/2021 12:45:00 PM 6.76 44.168 0.669 8.13 2.23 14.86
12/23/2021 1:00:00 PM 6.78 44.204 0.669 8.14 1.99 14.96
12/23/2021 1:15:00 PM 6.78 44.204 0.669 8.15 1.71 15.01
12/23/2021 1:30:00 PM 6.8 44.24 0.669 8.15 1.95 15.05
12/23/2021 1:45:00 PM 6.82 44.276 0.668 8.16 1.93 15.09
12/23/2021 2:00:00 PM 6.82 44.276 0.668 8.16 5.08 15.08
12/23/2021 2:15:00 PM 6.81 44.258 0.668 8.17 2.11 15.09
12/23/2021 2:30:00 PM 6.84 44.312 0.668 8.17 4.21 15.08
12/23/2021 2:45:00 PM 6.87 44.366 0.668 8.17 4.29 15.13
12/23/2021 3:00:00 PM 6.89 44.402 0.668 8.17 3.96 15.14
12/23/2021 3:15:00 PM 6.89 44.402 0.668 8.17 4.53 15.07
12/23/2021 3:30:00 PM 6.89 44.402 0.668 8.17 5.07 15
12/23/2021 3:45:00 PM 6.89 44.402 0.668 8.16 4.3 14.84
12/23/2021 4:00:00 PM 6.88 44.384 0.669 8.15 4.16 14.71
12/23/2021 4:15:00 PM 6.86 44.348 0.67 8.14 3.39 14.51
12/23/2021 4:30:00 PM 6.87 44.366 0.669 8.14 3.9 14.28
12/23/2021 4:45:00 PM 6.87 44.366 0.669 8.13 4.19 14.02
12/23/2021 5:00:00 PM 6.83 44.294 0.674 8.12 4.23 13.77
12/23/2021 5:15:00 PM 6.78 44.204 0.681 8.11 3.46 13.54
12/23/2021 5:30:00 PM 6.73 44.114 0.688 8.09 3.65 13.3
12/23/2021 5:45:00 PM 6.71 44.078 0.691 8.08 3.93 13.13
12/23/2021 6:00:00 PM 6.72 44.096 0.689 8.07 4.45 13.03
12/23/2021 6:15:00 PM 6.76 44.168 0.684 8.06 4.58 12.95
12/23/2021 6:30:00 PM 6.8 44.24 0.678 8.04 4.09 12.92
12/23/2021 6:45:00 PM 6.83 44.294 0.674 8.04 4.13 12.85
12/23/2021 7:00:00 PM 6.85 44.33 0.672 8.03 3.99 12.8
12/23/2021 7:15:00 PM 6.86 44.348 0.67 8.02 4.07 12.73
12/23/2021 7:30:00 PM 6.88 44.384 0.669 8.02 4.4 12.66
12/23/2021 7:45:00 PM 6.88 44.384 0.669 8.01 4.73 12.59
12/23/2021 8:00:00 PM 6.9 44.42 0.668 8.01 4.19 12.56
12/23/2021 8:15:00 PM 6.9 44.42 0.668 8 4.6 12.48
12/23/2021 8:30:00 PM 6.9 44.42 0.668 8 5.2 12.45
12/23/2021 8:45:00 PM 6.9 44.42 0.668 8 4.51 12.38
12/23/2021 9:00:00 PM 6.89 44.402 0.668 8 4.23 12.33
12/23/2021 9:15:00 PM 6.88 44.384 0.668 7.99 4.41 12.26
12/23/2021 9:30:00 PM 6.87 44.366 0.668 7.99 4.71 12.2
12/23/2021 9:45:00 PM 6.85 44.33 0.668 7.99 4.11 12.13
12/23/2021 10:00:00 PM 6.83 44.294 0.669 7.98 4.29 12.08
12/23/2021 10:15:00 PM 6.8 44.24 0.67 7.96 4.08 12
12/23/2021 10:30:00 PM 6.79 44.222 0.67 7.95 4.98 11.95
12/23/2021 10:45:00 PM 6.79 44.222 0.671 7.95 4.57 11.88
12/23/2021 11:00:00 PM 6.79 44.222 0.671 7.95 4.11 11.85
12/23/2021 11:15:00 PM 6.8 44.24 0.671 7.95 4.7 11.8
12/23/2021 11:30:00 PM 6.82 44.276 0.67 7.95 5.21 11.76
12/23/2021 11:45:00 PM 6.86 44.348 0.669 7.95 4.75 11.75
12/24/2021 12:00:00 AM 6.89 44.402 0.669 7.95 5.05 11.72
12/24/2021 12:15:00 AM 6.92 44.456 0.668 7.94 4.73 11.7
12/24/2021 12:30:00 AM 6.94 44.492 0.668 7.94 4.59 11.69
12/24/2021 12:45:00 AM 6.95 44.51 0.668 7.94 4.69 11.65
12/24/2021 1:00:00 AM 6.96 44.528 0.668 7.93 4.76 11.62
12/24/2021 1:15:00 AM 6.97 44.546 0.667 7.93 5.58 11.59
12/24/2021 1:30:00 AM 6.98 44.564 0.667 7.92 5.42 11.55
12/24/2021 1:45:00 AM 6.99 44.582 0.668 7.92 4.99 11.52
12/24/2021 2:00:00 AM 7 44.6 0.668 7.92 4.69 11.5
12/24/2021 2:15:00 AM 7 44.6 0.668 7.92 4.53 11.46
12/24/2021 2:30:00 AM 7.01 44.618 0.668 7.91 4.49 11.43
12/24/2021 2:45:00 AM 7.02 44.636 0.668 7.91 4.65 11.43
12/24/2021 3:00:00 AM 7.02 44.636 0.668 7.91 5.02 11.39
12/24/2021 3:15:00 AM 7.03 44.654 0.668 7.9 4.96 11.35
12/24/2021 3:30:00 AM 7.03 44.654 0.668 7.9 5.31 11.35
12/24/2021 3:45:00 AM 7.04 44.672 0.669 7.89 4.85 11.31
12/24/2021 4:00:00 AM 7.05 44.69 0.669 7.89 5.7 11.29
12/24/2021 4:15:00 AM 7.05 44.69 0.669 7.89 5.29 11.29
12/24/2021 4:30:00 AM 7.06 44.708 0.669 7.89 4.91 11.28
12/24/2021 4:45:00 AM 7.06 44.708 0.669 7.88 4.95 11.27
12/24/2021 5:00:00 AM 7.07 44.726 0.669 7.88 4.91 11.25
12/24/2021 5:15:00 AM 7.07 44.726 0.669 7.88 5.74 11.22
12/24/2021 5:30:00 AM 7.08 44.744 0.669 7.88 4.91 11.21
12/24/2021 5:45:00 AM 7.08 44.744 0.669 7.87 5.04 11.2
12/24/2021 6:00:00 AM 7.09 44.762 0.669 7.87 4.4 11.19
12/24/2021 6:15:00 AM 7.08 44.744 0.669 7.87 4.89 11.16
12/24/2021 6:30:00 AM 7.06 44.708 0.669 7.87 4.85 11.17
12/24/2021 6:45:00 AM 7.04 44.672 0.669 7.87 5.18 11.16
12/24/2021 7:00:00 AM 7.02 44.636 0.669 7.87 5.15 11.13
12/24/2021 7:15:00 AM 6.99 44.582 0.669 7.87 4.94 11.13
12/24/2021 7:30:00 AM 6.97 44.546 0.669 7.87 4.99 11.14
12/24/2021 7:45:00 AM 6.95 44.51 0.669 7.86 6.09 11.16
12/24/2021 8:00:00 AM 6.93 44.474 0.669 7.87 5.28 11.21
12/24/2021 8:15:00 AM 6.92 44.456 0.669 7.87 5.15 11.29
12/24/2021 8:30:00 AM 6.9 44.42 0.669 7.88 5.72 11.4
12/24/2021 8:45:00 AM 6.9 44.42 0.669 7.88 5.6 11.54
12/24/2021 9:00:00 AM 6.9 44.42 0.669 7.89 5.13 11.67
12/24/2021 9:15:00 AM 6.92 44.456 0.668 7.9 5.75 11.88
12/24/2021 9:30:00 AM 6.94 44.492 0.668 7.91 4.86 12.1
12/24/2021 9:45:00 AM 6.98 44.564 0.668 7.93 4.85 12.36
12/24/2021 10:00:00 AM 7.02 44.636 0.667 7.95 4.97 12.59
12/24/2021 10:15:00 AM 7.08 44.744 0.667 7.97 4.77 12.88
12/24/2021 10:30:00 AM 7.14 44.852 0.666 7.98 4.68 13.16
12/24/2021 10:45:00 AM 7.21 44.978 0.666 8.01 4.96 13.39
12/24/2021 11:00:00 AM 7.29 45.122 0.665 8.02 4.83 13.62
12/24/2021 11:15:00 AM 7.37 45.266 0.664 8.04 5.64 13.84
12/24/2021 11:30:00 AM 7.46 45.428 0.664 8.06 5.72 14.04
12/24/2021 11:45:00 AM 7.55 45.59 0.663 8.07 5.91 14.21
12/24/2021 12:00:00 PM 7.64 45.752 0.662 8.09 6.31 14.38
12/24/2021 12:15:00 PM 7.71 45.878 0.662 8.11 6.83 14.52
12/24/2021 12:30:00 PM 7.8 46.04 0.661 8.12 7.4 14.63
12/24/2021 12:45:00 PM 7.87 46.166 0.661 8.13 7.82 14.72
12/24/2021 1:00:00 PM 7.93 46.274 0.661 8.14 8.69 14.85
12/24/2021 1:15:00 PM 7.98 46.364 0.661 8.15 9.59 14.9
12/24/2021 1:30:00 PM 8.02 46.436 0.661 8.15 7.65 14.98
12/24/2021 1:45:00 PM 8.05 46.49 0.66 8.16 8.48 15.03
12/24/2021 2:00:00 PM 8.08 46.544 0.66 8.16 5.35 15.04
12/24/2021 2:15:00 PM 8.1 46.58 0.66 8.17 6.42 15.08
12/24/2021 2:30:00 PM 8.1 46.58 0.661 8.17 8.79 15.06
12/24/2021 2:45:00 PM 8.1 46.58 0.661 8.17 14.4 15
12/24/2021 3:00:00 PM 8.1 46.58 0.661 8.17 17.41 14.9
12/24/2021 3:15:00 PM 8.1 46.58 0.661 8.17 15.74 14.83
12/24/2021 3:30:00 PM 8.1 46.58 0.661 8.16 18.54 14.69
12/24/2021 3:45:00 PM 8.09 46.562 0.661 8.15 20.78 14.57
12/24/2021 4:00:00 PM 8.08 46.544 0.662 8.14 20.93 14.38
12/24/2021 4:15:00 PM 8.07 46.526 0.662 8.13 23.61 14.16
12/24/2021 4:30:00 PM 8.06 46.508 0.663 8.12 24.89 13.96
12/24/2021 4:45:00 PM 8.05 46.49 0.663 8.1 26.49 13.7
12/24/2021 5:00:00 PM 8.06 46.508 0.663 8.09 28.54 13.47
12/24/2021 5:15:00 PM 8.06 46.508 0.664 8.07 28.43 13.26
12/24/2021 5:30:00 PM 8.06 46.508 0.664 8.06 5.07 13.07
12/24/2021 5:45:00 PM 8.07 46.526 0.664 8.05 5.31 12.9
12/24/2021 6:00:00 PM 8.07 46.526 0.664 8.03 5.03 12.73
12/24/2021 6:15:00 PM 8.07 46.526 0.664 8.02 5.23 12.61
12/24/2021 6:30:00 PM 8.07 46.526 0.664 8.01 5.28 12.48
12/24/2021 6:45:00 PM 8.08 46.544 0.664 8.01 5.15 12.38
12/24/2021 7:00:00 PM 8.08 46.544 0.664 8 5.47 12.26
12/24/2021 7:15:00 PM 8.08 46.544 0.665 7.99 5.88 12.2
12/24/2021 7:30:00 PM 8.07 46.526 0.664 7.99 5.43 12.14
12/24/2021 7:45:00 PM 8.07 46.526 0.664 7.98 5.34 12.06
12/24/2021 8:00:00 PM 8.06 46.508 0.664 7.98 5.25 12
12/24/2021 8:15:00 PM 8.05 46.49 0.664 7.97 5.72 11.95
12/24/2021 8:30:00 PM 8.03 46.454 0.664 7.97 12.7 11.91
12/24/2021 8:45:00 PM 8.03 46.454 0.664 7.97 6.88 11.85
12/24/2021 9:00:00 PM 8.02 46.436 0.664 7.97 5.51 11.79
12/24/2021 9:15:00 PM 8.02 46.436 0.664 7.96 5.47 11.72
12/24/2021 9:30:00 PM 8.02 46.436 0.664 7.96 5.17 11.7
12/24/2021 9:45:00 PM 8.02 46.436 0.664 7.96 5.39 11.64
12/24/2021 10:00:00 PM 8.02 46.436 0.664 7.96 5.56 11.6
12/24/2021 10:15:00 PM 8.03 46.454 0.664 7.95 5.25 11.55
12/24/2021 10:30:00 PM 8.04 46.472 0.664 7.94 5.21 11.51
12/24/2021 10:45:00 PM 8.05 46.49 0.664 7.94 5.64 11.47
12/24/2021 11:00:00 PM 8.06 46.508 0.664 7.94 5.92 11.43
12/24/2021 11:15:00 PM 8.07 46.526 0.665 7.93 5.88 11.4
12/24/2021 11:30:00 PM 8.08 46.544 0.665 7.93 5.76 11.34
12/24/2021 11:45:00 PM 8.1 46.58 0.665 7.93 6.07 11.3
12/25/2021 12:00:00 AM 8.11 46.598 0.665 7.92 5.79 11.26
12/25/2021 12:15:00 AM 8.12 46.616 0.665 7.92 5.94 11.21
12/25/2021 12:30:00 AM 8.13 46.634 0.665 7.92 6.35 11.17
12/25/2021 12:45:00 AM 8.13 46.634 0.665 7.91 5.81 11.11
12/25/2021 1:00:00 AM 8.13 46.634 0.665 7.91 6.06 11.08
12/25/2021 1:15:00 AM 8.14 46.652 0.666 7.91 5.38 11.02
12/25/2021 1:30:00 AM 8.15 46.67 0.666 7.9 5.5 10.98
12/25/2021 1:45:00 AM 8.15 46.67 0.666 7.9 5.68 10.97
12/25/2021 2:00:00 AM 8.16 46.688 0.666 7.9 5.58 10.94
12/25/2021 2:15:00 AM 8.17 46.706 0.666 7.89 5.71 10.92
12/25/2021 2:30:00 AM 8.18 46.724 0.666 7.89 5.55 10.89
12/25/2021 2:45:00 AM 8.19 46.742 0.666 7.88 5.57 10.86
12/25/2021 3:00:00 AM 8.2 46.76 0.667 7.88 5.26 10.85
12/25/2021 3:15:00 AM 8.2 46.76 0.667 7.88 6.4 10.8
12/25/2021 3:30:00 AM 8.21 46.778 0.667 7.88 5.74 10.78
12/25/2021 3:45:00 AM 8.22 46.796 0.667 7.88 5.88 10.75
12/25/2021 4:00:00 AM 8.23 46.814 0.668 7.88 5.71 10.74
12/25/2021 4:15:00 AM 8.24 46.832 0.668 7.88 5.83 10.72
12/25/2021 4:30:00 AM 8.25 46.85 0.668 7.88 5.64 10.71
12/25/2021 4:45:00 AM 8.26 46.868 0.669 7.87 5.99 10.66
12/25/2021 5:00:00 AM 8.26 46.868 0.669 7.87 6.2 10.65
12/25/2021 5:15:00 AM 8.27 46.886 0.669 7.86 6.16 10.64
12/25/2021 5:30:00 AM 8.28 46.904 0.67 7.86 6.52 10.63
12/25/2021 5:45:00 AM 8.29 46.922 0.67 7.86 5.83 10.6
12/25/2021 6:00:00 AM 8.3 46.94 0.67 7.86 5.47 10.58
12/25/2021 6:15:00 AM 8.3 46.94 0.67 7.86 5.74 10.56
12/25/2021 6:30:00 AM 8.3 46.94 0.67 7.86 5.74 10.57
12/25/2021 6:45:00 AM 8.31 46.958 0.67 7.86 6.36 10.55
12/25/2021 7:00:00 AM 8.31 46.958 0.67 7.86 6 10.55
12/25/2021 7:15:00 AM 8.31 46.958 0.67 7.85 8.42 10.54
12/25/2021 7:30:00 AM 8.32 46.976 0.671 7.85 6.24 10.53
12/25/2021 7:45:00 AM 8.33 46.994 0.671 7.85 5.99 10.52
12/25/2021 8:00:00 AM 8.34 47.012 0.671 7.85 6.27 10.53
12/25/2021 8:15:00 AM 8.34 47.012 0.671 7.85 6.08 10.55
12/25/2021 8:30:00 AM 8.35 47.03 0.671 7.85 5.99 10.55
12/25/2021 8:45:00 AM 8.35 47.03 0.67 7.85 7.78 10.58
12/25/2021 9:00:00 AM 8.37 47.066 0.67 7.86 7.15 10.65
12/25/2021 9:15:00 AM 8.38 47.084 0.67 7.86 6.64 10.74
12/25/2021 9:30:00 AM 8.4 47.12 0.67 7.87 5.79 10.89
12/25/2021 9:45:00 AM 8.43 47.174 0.67 7.88 5.43 11.08
12/25/2021 10:00:00 AM 8.47 47.246 0.67 7.9 5.53 11.33
12/25/2021 10:15:00 AM 8.5 47.3 0.669 7.91 5.61 11.55
12/25/2021 10:30:00 AM 8.52 47.336 0.669 7.93 1555 11.7
12/25/2021 10:45:00 AM 8.55 47.39 0.669 7.93 19.07 11.85
12/25/2021 11:00:00 AM 8.59 47.462 0.669 7.95 8.27 12.08
12/25/2021 11:15:00 AM 8.63 47.534 0.669 7.96 5.88 12.29
12/25/2021 11:30:00 AM 8.67 47.606 0.668 7.98 3479 12.45
12/25/2021 11:45:00 AM 8.7 47.66 0.668 7.99 8.63 12.6
12/25/2021 12:00:00 PM 8.73 47.714 0.668 8 11.17 12.73
12/25/2021 12:15:00 PM 8.77 47.786 0.667 8.03 3437 12.94
12/25/2021 12:30:00 PM 8.82 47.876 0.666 8.04 3.22 13.11
12/25/2021 12:45:00 PM 8.88 47.984 0.666 8.06 1.88 13.37
12/25/2021 1:00:00 PM 8.94 48.092 0.666 8.07 1.63 13.57
12/25/2021 1:15:00 PM 8.98 48.164 0.666 8.08 1.48 13.67
12/25/2021 1:30:00 PM 9.04 48.272 0.667 8.1 1.13 13.76
12/25/2021 1:45:00 PM 9.11 48.398 0.667 8.1 1.15 13.85
12/25/2021 2:00:00 PM 9.16 48.488 0.667 8.11 1.02 13.9
12/25/2021 2:15:00 PM 9.21 48.578 0.667 8.12 1.18 13.88
12/25/2021 2:30:00 PM 9.26 48.668 0.666 8.12 1.31 13.93
12/25/2021 2:45:00 PM 9.3 48.74 0.666 8.13 1.3 13.96
12/25/2021 3:00:00 PM 9.34 48.812 0.666 8.13 1.13 13.92
12/25/2021 3:15:00 PM 9.36 48.848 0.666 8.13 0.92 13.81
12/25/2021 3:30:00 PM 9.35 48.83 0.666 8.12 0.88 13.59
12/25/2021 3:45:00 PM 9.34 48.812 0.666 8.11 1.05 13.29
12/25/2021 4:00:00 PM 9.33 48.794 0.667 8.09 1.15 13.05
12/25/2021 4:15:00 PM 9.33 48.794 0.667 8.08 1.17 12.77
12/25/2021 4:30:00 PM 9.32 48.776 0.667 8.06 1.37 12.5
12/25/2021 4:45:00 PM 9.32 48.776 0.667 8.04 1.27 12.27
12/25/2021 5:00:00 PM 9.32 48.776 0.667 8.03 1.33 12.08
12/25/2021 5:15:00 PM 9.33 48.794 0.667 8.01 0.87 11.88
12/25/2021 5:30:00 PM 9.34 48.812 0.667 8 1.03 11.71
12/25/2021 5:45:00 PM 9.35 48.83 0.667 7.99 1.57 11.58
12/25/2021 6:00:00 PM 9.36 48.848 0.666 7.98 1.21 11.43
12/25/2021 6:15:00 PM 9.37 48.866 0.667 7.97 1.38 11.31
12/25/2021 6:30:00 PM 9.37 48.866 0.666 7.96 1.52 11.21
12/25/2021 6:45:00 PM 9.38 48.884 0.666 7.96 1.45 11.12
12/25/2021 7:00:00 PM 9.38 48.884 0.666 7.95 1.2 11.07
12/25/2021 7:15:00 PM 9.38 48.884 0.666 7.95 1.16 10.97
12/25/2021 7:30:00 PM 9.38 48.884 0.666 7.94 1.37 10.93
12/25/2021 7:45:00 PM 9.38 48.884 0.666 7.94 2.13 10.86
12/25/2021 8:00:00 PM 9.37 48.866 0.666 7.93 1.82 10.79
12/25/2021 8:15:00 PM 9.37 48.866 0.666 7.93 1.31 10.76
12/25/2021 8:30:00 PM 9.37 48.866 0.666 7.93 1.94 10.71
12/25/2021 8:45:00 PM 9.36 48.848 0.666 7.93 1.59 10.65
12/25/2021 9:00:00 PM 9.35 48.83 0.666 7.92 2.8 10.6
12/25/2021 9:15:00 PM 9.33 48.794 0.666 7.92 1.36 10.56
12/25/2021 9:30:00 PM 9.31 48.758 0.666 7.91 1.23 10.53
12/25/2021 9:45:00 PM 9.29 48.722 0.666 7.91 1.46 10.48
12/25/2021 10:00:00 PM 9.29 48.722 0.666 7.9 1.37 10.47
12/25/2021 10:15:00 PM 9.29 48.722 0.666 7.9 1.18 10.43
12/25/2021 10:30:00 PM 9.29 48.722 0.666 7.9 1.72 10.39
12/25/2021 10:45:00 PM 9.28 48.704 0.666 7.9 1.86 10.36
12/25/2021 11:00:00 PM 9.27 48.686 0.666 7.89 1.95 10.33
12/25/2021 11:15:00 PM 9.26 48.668 0.666 7.89 1.84 10.29
12/25/2021 11:30:00 PM 9.25 48.65 0.666 7.89 1.68 10.26
12/25/2021 11:45:00 PM 9.23 48.614 0.666 7.89 1.79 10.21
12/26/2021 12:00:00 AM 9.21 48.578 0.666 7.88 1.95 10.19
12/26/2021 12:15:00 AM 9.19 48.542 0.666 7.88 1.88 10.14
12/26/2021 12:30:00 AM 9.17 48.506 0.667 7.88 1.64 10.11
12/26/2021 12:45:00 AM 9.15 48.47 0.667 7.87 1.83 10.09
12/26/2021 1:00:00 AM 9.14 48.452 0.667 7.87 1.75 10.04
12/26/2021 1:15:00 AM 9.13 48.434 0.667 7.87 1.52 10.03
12/26/2021 1:30:00 AM 9.11 48.398 0.667 7.86 1.92 10.01
12/26/2021 1:45:00 AM 9.09 48.362 0.668 7.86 1.85 9.98
12/26/2021 2:00:00 AM 9.07 48.326 0.668 7.86 1.76 9.97
12/26/2021 2:15:00 AM 9.05 48.29 0.668 7.86 1.63 9.96
12/26/2021 2:30:00 AM 9.03 48.254 0.668 7.86 1.94 9.92
12/26/2021 2:45:00 AM 9.01 48.218 0.668 7.85 1.89 9.93
12/26/2021 3:00:00 AM 8.99 48.182 0.668 7.85 2.14 9.92
12/26/2021 3:15:00 AM 8.97 48.146 0.669 7.85 1.85 9.88
12/26/2021 3:30:00 AM 8.94 48.092 0.669 7.85 2.17 9.88
12/26/2021 3:45:00 AM 8.92 48.056 0.669 7.84 1.96 9.88
12/26/2021 4:00:00 AM 8.9 48.02 0.669 7.84 2.77 9.87
12/26/2021 4:15:00 AM 8.87 47.966 0.669 7.84 1.5 9.85
12/26/2021 4:30:00 AM 8.86 47.948 0.67 7.84 2.52 9.83
12/26/2021 4:45:00 AM 8.86 47.948 0.671 7.84 1.84 9.78
12/26/2021 5:00:00 AM 8.86 47.948 0.672 7.83 1.81 9.74
12/26/2021 5:15:00 AM 8.85 47.93 0.673 7.83 3.77 9.72
12/26/2021 5:30:00 AM 8.85 47.93 0.674 7.83 2.05 9.71
12/26/2021 5:45:00 AM 8.84 47.912 0.674 7.83 2 9.69
12/26/2021 6:00:00 AM 8.81 47.858 0.674 7.83 2.54 9.72
12/26/2021 6:15:00 AM 8.78 47.804 0.674 7.83 2.31 9.74
12/26/2021 6:30:00 AM 8.75 47.75 0.673 7.83 1.62 9.76
12/26/2021 6:45:00 AM 8.73 47.714 0.672 7.84 2.57 9.78
12/26/2021 7:00:00 AM 8.71 47.678 0.673 7.84 1.6 9.81
12/26/2021 7:15:00 AM 8.69 47.642 0.672 7.84 2.24 9.81
12/26/2021 7:30:00 AM 8.67 47.606 0.672 7.84 2.17 9.85
12/26/2021 7:45:00 AM 8.65 47.57 0.673 7.84 2.09 9.86
12/26/2021 8:00:00 AM 8.63 47.534 0.673 7.84 1.84 9.89
12/26/2021 8:15:00 AM 8.62 47.516 0.673 7.84 1.94 9.99
12/26/2021 8:30:00 AM 8.6 47.48 0.673 7.85 2.7 10.08
12/26/2021 8:45:00 AM 8.59 47.462 0.673 7.86 1.9 10.19
12/26/2021 9:00:00 AM 8.59 47.462 0.673 7.86 1.75 10.33
12/26/2021 9:15:00 AM 8.6 47.48 0.673 7.87 1.67 10.47
12/26/2021 9:30:00 AM 8.62 47.516 0.673 7.89 1.89 10.68
12/26/2021 9:45:00 AM 8.65 47.57 0.673 7.9 1.79 10.92
12/26/2021 10:00:00 AM 8.69 47.642 0.673 7.92 1.73 11.2
12/26/2021 10:15:00 AM 8.74 47.732 0.673 7.94 4.22 11.52
12/26/2021 10:30:00 AM 8.8 47.84 0.672 7.96 2.39 11.83
12/26/2021 10:45:00 AM 8.87 47.966 0.672 7.99 1.65 12.13
12/26/2021 11:00:00 AM 8.94 48.092 0.672 8 1.52 12.4
12/26/2021 11:15:00 AM 9.02 48.236 0.671 8.03 1.69 12.68
12/26/2021 11:30:00 AM 9.1 48.38 0.671 8.04 1.37 12.9
12/26/2021 11:45:00 AM 9.19 48.542 0.671 8.07 1.52 13.17
12/26/2021 12:00:00 PM 9.27 48.686 0.671 8.09 1.43 13.37
12/26/2021 12:15:00 PM 9.35 48.83 0.67 8.11 1.63 13.56
12/26/2021 12:30:00 PM 9.42 48.956 0.67 8.12 2.71 13.74
12/26/2021 12:45:00 PM 9.48 49.064 0.67 8.13 4.45 13.88
12/26/2021 1:00:00 PM 9.53 49.154 0.67 8.14 2.75 13.97
12/26/2021 1:15:00 PM 9.57 49.226 0.67 8.15 3.54 14.06
12/26/2021 1:30:00 PM 9.6 49.28 0.669 8.16 2.91 14.11
12/26/2021 1:45:00 PM 9.62 49.316 0.669 8.16 2.8 14.17
12/26/2021 2:00:00 PM 9.63 49.334 0.669 8.16 2.46 14.12
12/26/2021 2:15:00 PM 9.62 49.316 0.668 8.17 2.09 14.09
12/26/2021 2:30:00 PM 9.6 49.28 0.667 8.17 1.88 14.09
12/26/2021 2:45:00 PM 9.57 49.226 0.666 8.17 2.43 14.01
12/26/2021 3:00:00 PM 9.53 49.154 0.665 8.17 1.95 14
12/26/2021 3:15:00 PM 9.48 49.064 0.664 8.16 2.1 13.96
12/26/2021 3:30:00 PM 9.43 48.974 0.664 8.16 1.9 13.87
12/26/2021 3:45:00 PM 9.38 48.884 0.664 8.15 1.98 13.77
12/26/2021 4:00:00 PM 9.33 48.794 0.665 8.14 2.29 13.57
12/26/2021 4:15:00 PM 9.29 48.722 0.665 8.12 2.12 13.36
12/26/2021 4:30:00 PM 9.25 48.65 0.665 8.11 2.02 13.17
12/26/2021 4:45:00 PM 9.21 48.578 0.665 8.09 2.12 12.96
12/26/2021 5:00:00 PM 9.18 48.524 0.666 8.12 2.29 12.74
12/26/2021 5:15:00 PM 9.15 48.47 0.666 8.1 1.87 12.55
12/26/2021 5:30:00 PM 9.13 48.434 0.666 8.09 2.63 12.36
12/26/2021 5:45:00 PM 9.1 48.38 0.666 8.08 2.05 12.19
12/26/2021 6:00:00 PM 9.07 48.326 0.667 8.07 2.02 12.09
12/26/2021 6:15:00 PM 9.04 48.272 0.666 8.06 2.27 11.96
12/26/2021 6:30:00 PM 9.01 48.218 0.667 8.06 2.22 11.88
12/26/2021 6:45:00 PM 8.98 48.164 0.667 8.05 2.65 11.82
12/26/2021 7:00:00 PM 8.95 48.11 0.667 8.04 2.78 11.76
12/26/2021 7:15:00 PM 8.91 48.038 0.667 8.04 2.23 11.72
12/26/2021 7:30:00 PM 8.88 47.984 0.666 8.04 2.14 11.65
12/26/2021 7:45:00 PM 8.85 47.93 0.666 8.04 2.16 11.61
12/26/2021 8:00:00 PM 8.82 47.876 0.666 8.03 2.36 11.57
12/26/2021 8:15:00 PM 8.79 47.822 0.666 8.02 2.44 11.52
12/26/2021 8:30:00 PM 8.76 47.768 0.665 8.02 2.1 11.48
12/26/2021 8:45:00 PM 8.73 47.714 0.665 8.02 2.88 11.43
12/26/2021 9:00:00 PM 8.69 47.642 0.665 8.01 2 11.41
12/26/2021 9:15:00 PM 8.66 47.588 0.665 8.01 2.43 11.37
12/26/2021 9:30:00 PM 8.63 47.534 0.664 8.01 2.65 11.31
12/26/2021 9:45:00 PM 8.59 47.462 0.664 8 2.91 11.29
12/26/2021 10:00:00 PM 8.56 47.408 0.664 8 2.23 11.25
12/26/2021 10:15:00 PM 8.52 47.336 0.664 7.99 2.82 11.21
12/26/2021 10:30:00 PM 8.49 47.282 0.664 7.99 2.26 11.2
12/26/2021 10:45:00 PM 8.45 47.21 0.664 7.99 2.81 11.15
12/26/2021 11:00:00 PM 8.41 47.138 0.664 7.98 2.89 11.14
12/26/2021 11:15:00 PM 8.38 47.084 0.665 7.98 2.88 11.12
12/26/2021 11:30:00 PM 8.35 47.03 0.665 7.98 2.59 11.08
12/26/2021 11:45:00 PM 8.32 46.976 0.665 7.98 3.73 11.07
12/27/2021 12:00:00 AM 8.29 46.922 0.665 7.98 2.57 11.04
12/27/2021 12:15:00 AM 8.26 46.868 0.665 7.97 2.82 11.01
12/27/2021 12:30:00 AM 8.23 46.814 0.665 7.96 3.14 10.99
12/27/2021 12:45:00 AM 8.19 46.742 0.665 7.96 2.92 10.95
12/27/2021 1:00:00 AM 8.16 46.688 0.665 7.96 2.63 10.94
12/27/2021 1:15:00 AM 8.14 46.652 0.665 7.96 2.47 10.93
12/27/2021 1:30:00 AM 8.11 46.598 0.666 7.95 2.04 10.9
12/27/2021 1:45:00 AM 8.08 46.544 0.666 7.95 2.71 10.9
12/27/2021 2:00:00 AM 8.05 46.49 0.665 7.95 3.02 10.9
12/27/2021 2:15:00 AM 8.02 46.436 0.666 7.95 3.35 10.89
12/27/2021 2:30:00 AM 7.99 46.382 0.666 7.94 3.13 10.86
12/27/2021 2:45:00 AM 7.98 46.364 0.666 7.94 3.7 10.86
12/27/2021 3:00:00 AM 7.96 46.328 0.666 7.94 3.12 10.85
12/27/2021 3:15:00 AM 7.95 46.31 0.666 7.94 2.96 10.87
12/27/2021 3:30:00 AM 7.94 46.292 0.666 7.92 4.16 10.85
12/27/2021 3:45:00 AM 7.93 46.274 0.667 7.93 4.35 10.85
12/27/2021 4:00:00 AM 7.92 46.256 0.667 7.92 3.39 10.83
12/27/2021 4:15:00 AM 7.91 46.238 0.667 7.92 3 10.83
12/27/2021 4:30:00 AM 7.9 46.22 0.668 7.92 3.87 10.82
12/27/2021 4:45:00 AM 7.89 46.202 0.668 7.91 2.4 10.83
12/27/2021 5:00:00 AM 7.88 46.184 0.669 7.91 2.64 10.81
12/27/2021 5:15:00 AM 7.88 46.184 0.669 7.91 2.92 10.81
12/27/2021 5:30:00 AM 7.88 46.184 0.669 7.91 2.59 10.8
12/27/2021 5:45:00 AM 7.88 46.184 0.67 7.91 3.1 10.79
12/27/2021 6:00:00 AM 7.87 46.166 0.67 7.91 3.16 10.78
12/27/2021 6:15:00 AM 7.87 46.166 0.671 7.9 2.73 10.79
12/27/2021 6:30:00 AM 7.86 46.148 0.671 7.9 2.57 10.8
12/27/2021 6:45:00 AM 7.85 46.13 0.672 7.9 2.59 10.79
12/27/2021 7:00:00 AM 7.85 46.13 0.672 7.9 4.41 10.8
12/27/2021 7:15:00 AM 7.85 46.13 0.673 7.9 3.08 10.78
12/27/2021 7:30:00 AM 7.84 46.112 0.674 7.89 2.94 10.78
12/27/2021 7:45:00 AM 7.84 46.112 0.674 7.89 2.62 10.8
12/27/2021 8:00:00 AM 7.83 46.094 0.675 7.89 2.81 10.81
12/27/2021 8:15:00 AM 7.83 46.094 0.675 7.89 2.58 10.85
12/27/2021 8:30:00 AM 7.84 46.112 0.675 7.89 2.67 10.9
12/27/2021 8:45:00 AM 7.83 46.094 0.676 7.9 2.11 10.93
12/27/2021 9:00:00 AM 7.83 46.094 0.676 7.9 2.28 10.99
12/27/2021 9:15:00 AM 7.85 46.13 0.676 7.91 2.18 11.11
12/27/2021 9:30:00 AM 7.85 46.13 0.677 7.91 2.27 11.27
12/27/2021 9:45:00 AM 7.87 46.166 0.677 7.92 2.62 11.46
12/27/2021 10:00:00 AM 7.87 46.166 0.677 7.93 2.91 11.57
12/27/2021 10:15:00 AM 7.87 46.166 0.677 7.94 2.44 11.65
12/27/2021 10:30:00 AM 7.88 46.184 0.677 7.94 2.73 11.67
12/27/2021 10:45:00 AM 7.89 46.202 0.677 7.94 2.16 11.72
12/27/2021 11:00:00 AM 7.87 46.166 0.677 7.95 2.37 11.78
12/27/2021 11:15:00 AM 7.84 46.112 0.677 7.96 3.5 11.92
12/27/2021 11:30:00 AM 7.82 46.076 0.676 7.97 2.75 12.09
12/27/2021 11:45:00 AM 7.81 46.058 0.676 7.98 2.37 12.23
12/27/2021 12:00:00 PM 7.78 46.004 0.675 7.99 2.68 12.36
12/27/2021 12:15:00 PM 7.74 45.932 0.674 8 2.28 12.53
12/27/2021 12:30:00 PM 7.73 45.914 0.674 8.02 2.32 12.64
12/27/2021 12:45:00 PM 7.74 45.932 0.673 8.03 2.32 12.75
12/27/2021 1:00:00 PM 7.75 45.95 0.673 8.03 2.28 12.86
12/27/2021 1:15:00 PM 7.77 45.986 0.673 8.04 2.38 12.97
12/27/2021 1:30:00 PM 7.78 46.004 0.673 8.05 2.41 13.03
12/27/2021 1:45:00 PM 7.8 46.04 0.673 8.06 2.23 13.08
12/27/2021 2:00:00 PM 7.81 46.058 0.673 8.07 2.63 13.15
12/27/2021 2:15:00 PM 7.82 46.076 0.673 8.07 2.42 13.14
12/27/2021 2:30:00 PM 7.83 46.094 0.673 8.07 2.33 13.12
12/27/2021 2:45:00 PM 7.84 46.112 0.673 8.07 2.5 13.08
12/27/2021 3:00:00 PM 7.85 46.13 0.674 8.06 2.42 13.02
12/27/2021 3:15:00 PM 7.86 46.148 0.674 8.05 2.24 12.97
12/27/2021 3:30:00 PM 7.87 46.166 0.674 8.05 2.28 12.84
12/27/2021 3:45:00 PM 7.87 46.166 0.675 8.04 2.34 12.75
12/27/2021 4:00:00 PM 7.87 46.166 0.675 8.04 2.49 12.63
12/27/2021 4:15:00 PM 7.87 46.166 0.675 8.03 3.49 12.48
12/27/2021 4:30:00 PM 7.87 46.166 0.675 8.02 2.66 12.35
12/27/2021 4:45:00 PM 7.87 46.166 0.675 8.01 2.49 12.24
12/27/2021 5:00:00 PM 7.87 46.166 0.675 8 2.43 12.11
12/27/2021 5:15:00 PM 7.87 46.166 0.676 7.99 2.44 11.98
12/27/2021 5:30:00 PM 7.87 46.166 0.676 7.98 2.49 11.93
12/27/2021 5:45:00 PM 7.87 46.166 0.676 7.97 2.46 11.81
12/27/2021 6:00:00 PM 7.88 46.184 0.676 7.97 2.57 11.75
12/27/2021 6:15:00 PM 7.88 46.184 0.676 7.97 2.76 11.69
12/27/2021 6:30:00 PM 7.88 46.184 0.676 7.96 2.94 11.62
12/27/2021 6:45:00 PM 7.89 46.202 0.675 7.95 2.55 11.59
12/27/2021 7:00:00 PM 7.89 46.202 0.675 7.95 2.53 11.55
12/27/2021 7:15:00 PM 7.89 46.202 0.675 7.95 3.16 11.52
12/27/2021 7:30:00 PM 7.89 46.202 0.674 7.95 2.95 11.48
12/27/2021 7:45:00 PM 7.89 46.202 0.674 7.95 2.55 11.47
12/27/2021 8:00:00 PM 7.88 46.184 0.673 7.94 2.61 11.45
12/27/2021 8:15:00 PM 7.88 46.184 0.673 7.94 2.68 11.43
12/27/2021 8:30:00 PM 7.87 46.166 0.672 7.94 3.12 11.42
12/27/2021 8:45:00 PM 7.87 46.166 0.671 7.94 2.72 11.4
12/27/2021 9:00:00 PM 7.87 46.166 0.671 7.94 2.57 11.38
12/27/2021 9:15:00 PM 7.86 46.148 0.67 7.94 2.72 11.35
12/27/2021 9:30:00 PM 7.87 46.166 0.67 7.94 2.82 11.34
12/27/2021 9:45:00 PM 7.86 46.148 0.67 7.93 2.68 11.31
12/27/2021 10:00:00 PM 7.86 46.148 0.67 7.93 2.56 11.29
12/27/2021 10:15:00 PM 7.87 46.166 0.67 7.93 3.11 11.28
12/27/2021 10:30:00 PM 7.86 46.148 0.669 7.92 2.62 11.26
12/27/2021 10:45:00 PM 7.86 46.148 0.669 7.93 3.52 11.23
12/27/2021 11:00:00 PM 7.86 46.148 0.669 7.93 2.54 11.23
12/27/2021 11:15:00 PM 7.86 46.148 0.669 7.93 2.75 11.18
12/27/2021 11:30:00 PM 7.86 46.148 0.669 7.93 2.56 11.16
12/27/2021 11:45:00 PM 7.86 46.148 0.669 7.93 2.68 11.15
12/28/2021 12:00:00 AM 7.85 46.13 0.669 7.92 2.92 11.12
12/28/2021 12:15:00 AM 7.85 46.13 0.669 7.92 3.05 11.1
12/28/2021 12:30:00 AM 7.85 46.13 0.67 7.92 3.05 11.07
12/28/2021 12:45:00 AM 7.85 46.13 0.67 7.92 2.93 11.08
12/28/2021 1:00:00 AM 7.85 46.13 0.67 7.92 3.26 11.05
12/28/2021 1:15:00 AM 7.85 46.13 0.67 7.91 2.9 11.04
12/28/2021 1:30:00 AM 7.85 46.13 0.67 7.92 2.77 11.02
12/28/2021 1:45:00 AM 7.85 46.13 0.67 7.92 6.17 10.99
12/28/2021 2:00:00 AM 7.84 46.112 0.671 7.92 3.89 11.01
12/28/2021 2:15:00 AM 7.84 46.112 0.671 7.91 3.31 11
12/28/2021 2:30:00 AM 7.84 46.112 0.671 7.91 2.97 10.98
12/28/2021 2:45:00 AM 7.85 46.13 0.671 7.91 3.16 10.97
12/28/2021 3:00:00 AM 7.85 46.13 0.671 7.91 3.08 10.97
12/28/2021 3:15:00 AM 7.85 46.13 0.67 7.91 2.94 10.98
12/28/2021 3:30:00 AM 7.86 46.148 0.67 7.9 3.13 10.96
12/28/2021 3:45:00 AM 7.86 46.148 0.671 7.9 2.69 10.97
12/28/2021 4:00:00 AM 7.86 46.148 0.671 7.9 2.7 10.96
12/28/2021 4:15:00 AM 7.85 46.13 0.671 7.9 3.3 10.95
12/28/2021 4:30:00 AM 7.85 46.13 0.671 7.9 3.3 10.95
12/28/2021 4:45:00 AM 7.85 46.13 0.672 7.9 3.22 10.93
12/28/2021 5:00:00 AM 7.84 46.112 0.672 7.9 3.71 10.91
12/28/2021 5:15:00 AM 7.83 46.094 0.672 7.9 3.82 10.9
12/28/2021 5:30:00 AM 7.82 46.076 0.673 7.89 4.19 10.91
12/28/2021 5:45:00 AM 7.81 46.058 0.673 7.89 2.97 10.92
12/28/2021 6:00:00 AM 7.81 46.058 0.674 7.89 3.25 10.89
12/28/2021 6:15:00 AM 7.81 46.058 0.674 7.89 2.69 10.89
12/28/2021 6:30:00 AM 7.8 46.04 0.674 7.89 3.08 10.88
12/28/2021 6:45:00 AM 7.79 46.022 0.675 7.89 4.19 10.87
12/28/2021 7:00:00 AM 7.78 46.004 0.675 7.89 2.89 10.85
12/28/2021 7:15:00 AM 7.75 45.95 0.677 7.88 3.53 10.79
12/28/2021 7:30:00 AM 7.72 45.896 0.678 7.88 3.12 10.77
12/28/2021 7:45:00 AM 7.69 45.842 0.679 7.87 2.73 10.73
12/28/2021 8:00:00 AM 7.67 45.806 0.68 7.87 2.75 10.73
12/28/2021 8:15:00 AM 7.66 45.788 0.68 7.87 2.75 10.75
12/28/2021 8:30:00 AM 7.65 45.77 0.68 7.87 2.71 10.84
12/28/2021 8:45:00 AM 7.64 45.752 0.68 7.88 3.25 10.94
12/28/2021 9:00:00 AM 7.65 45.77 0.679 7.89 2.79 11.09
12/28/2021 9:15:00 AM 7.68 45.824 0.678 7.9 2.7 11.32
12/28/2021 9:30:00 AM 7.71 45.878 0.678 7.92 2.55 11.54
12/28/2021 9:45:00 AM 7.75 45.95 0.677 7.93 2.78 11.81
12/28/2021 10:00:00 AM 7.82 46.076 0.676 7.95 2.81 12.15
12/28/2021 10:15:00 AM 7.9 46.22 0.676 7.98 2.84 12.47
12/28/2021 10:30:00 AM 7.97 46.346 0.675 8 2.73 12.75
12/28/2021 10:45:00 AM 8.04 46.472 0.675 8.02 2.88 12.97
12/28/2021 11:00:00 AM 8.09 46.562 0.674 8.03 2.59 13.15
12/28/2021 11:15:00 AM 8.13 46.634 0.674 8.05 2.77 13.23
12/28/2021 11:30:00 AM 8.15 46.67 0.674 8.06 2.57 13.27
12/28/2021 11:45:00 AM 8.17 46.706 0.674 8.07 2.6 13.31
12/28/2021 12:00:00 PM 8.19 46.742 0.674 8.07 2.98 13.3
12/28/2021 12:15:00 PM 8.21 46.778 0.674 8.07 2.77 13.31
12/28/2021 12:30:00 PM 8.23 46.814 0.673 8.07 3.08 13.33
12/28/2021 12:45:00 PM 8.26 46.868 0.673 8.08 3.38 13.32
12/28/2021 1:00:00 PM 8.29 46.922 0.673 8.08 3.01 13.37
12/28/2021 1:15:00 PM 8.31 46.958 0.672 8.08 2.96 13.44
12/28/2021 1:30:00 PM 8.34 47.012 0.672 8.09 3.14 13.52
12/28/2021 1:45:00 PM 8.37 47.066 0.672 8.1 3.51 13.55
12/28/2021 2:00:00 PM 8.4 47.12 0.671 8.1 2.98 13.54
12/28/2021 2:15:00 PM 8.42 47.156 0.671 8.1 2.74 13.49
12/28/2021 2:30:00 PM 8.44 47.192 0.671 8.1 2.86 13.41
12/28/2021 2:45:00 PM 8.45 47.21 0.671 8.09 3.23 13.41
12/28/2021 3:00:00 PM 8.47 47.246 0.67 8.09 3.2 13.35
12/28/2021 3:15:00 PM 8.47 47.246 0.67 8.09 3.13 13.27
12/28/2021 3:30:00 PM 8.47 47.246 0.67 8.09 3.79 13.17
12/28/2021 3:45:00 PM 8.48 47.264 0.67 8.08 5.32 13.1
12/28/2021 4:00:00 PM 8.48 47.264 0.67 8.07 4.09 12.99
12/28/2021 4:15:00 PM 8.47 47.246 0.671 8.06 4.24 12.8
12/28/2021 4:30:00 PM 8.46 47.228 0.671 8.05 3.86 12.6
12/28/2021 4:45:00 PM 8.45 47.21 0.672 8.04 3.63 12.46
12/28/2021 5:00:00 PM 8.43 47.174 0.673 8.02 3.77 12.26
12/28/2021 5:15:00 PM 8.41 47.138 0.675 8.01 3.47 12.09
12/28/2021 5:30:00 PM 8.4 47.12 0.676 8 3.1 11.91
12/28/2021 5:45:00 PM 8.39 47.102 0.677 7.98 3.94 11.75
12/28/2021 6:00:00 PM 8.39 47.102 0.678 7.98 4.79 11.59
12/28/2021 6:15:00 PM 8.39 47.102 0.678 7.97 3.38 11.47
12/28/2021 6:30:00 PM 8.39 47.102 0.679 7.96 4.11 11.33
12/28/2021 6:45:00 PM 8.4 47.12 0.679 7.96 4.73 11.25
12/28/2021 7:00:00 PM 8.4 47.12 0.678 7.95 3.47 11.16
12/28/2021 7:15:00 PM 8.41 47.138 0.678 7.94 4.94 11.1
12/28/2021 7:30:00 PM 8.41 47.138 0.678 7.94 4.83 11.02
12/28/2021 7:45:00 PM 8.42 47.156 0.678 7.94 4.25 10.97
12/28/2021 8:00:00 PM 8.42 47.156 0.677 7.94 3.9 10.91
12/28/2021 8:15:00 PM 8.43 47.174 0.677 7.93 3.71 10.87
12/28/2021 8:30:00 PM 8.43 47.174 0.677 7.93 4.11 10.84
12/28/2021 8:45:00 PM 8.43 47.174 0.677 7.93 3.83 10.78
12/28/2021 9:00:00 PM 8.43 47.174 0.676 7.93 5.06 10.75
12/28/2021 9:15:00 PM 8.44 47.192 0.676 7.92 6.56 10.72
12/28/2021 9:30:00 PM 8.44 47.192 0.676 7.92 4.74 10.68
12/28/2021 9:45:00 PM 8.43 47.174 0.675 7.92 5.14 10.66
12/28/2021 10:00:00 PM 8.42 47.156 0.674 7.92 4.35 10.63
12/28/2021 10:15:00 PM 8.42 47.156 0.674 7.92 5.84 10.59
12/28/2021 10:30:00 PM 8.42 47.156 0.674 7.92 4.37 10.56
12/28/2021 10:45:00 PM 8.42 47.156 0.674 7.92 4.9 10.53
12/28/2021 11:00:00 PM 8.43 47.174 0.674 7.91 3.71 10.49
12/28/2021 11:15:00 PM 8.43 47.174 0.674 7.91 4.5 10.49
12/28/2021 11:30:00 PM 8.43 47.174 0.674 7.9 5.26 10.45
12/28/2021 11:45:00 PM 8.43 47.174 0.674 7.9 3.89 10.41
12/29/2021 12:00:00 AM 8.43 47.174 0.674 7.89 3.68 10.38
12/29/2021 12:15:00 AM 8.43 47.174 0.674 7.9 4.32 10.33
12/29/2021 12:30:00 AM 8.44 47.192 0.674 7.89 5.96 10.31
12/29/2021 12:45:00 AM 8.44 47.192 0.675 7.89 4.24 10.29
12/29/2021 1:00:00 AM 8.45 47.21 0.675 7.89 4.16 10.24
12/29/2021 1:15:00 AM 8.45 47.21 0.675 7.88 3.97 10.22
12/29/2021 1:30:00 AM 8.42 47.156 0.672 7.88 4.54 10.24
12/29/2021 1:45:00 AM 8.41 47.138 0.671 7.88 5.43 10.24
12/29/2021 2:00:00 AM 8.4 47.12 0.67 7.88 4.46 10.25
12/29/2021 2:15:00 AM 8.4 47.12 0.67 7.87 3.9 10.21
12/29/2021 2:30:00 AM 8.41 47.138 0.67 7.87 4.95 10.18
12/29/2021 2:45:00 AM 8.41 47.138 0.669 7.87 5.67 10.17
12/29/2021 3:00:00 AM 8.42 47.156 0.67 7.87 4.45 10.15
12/29/2021 3:15:00 AM 8.42 47.156 0.669 7.87 5.71 10.15
12/29/2021 3:30:00 AM 8.42 47.156 0.669 7.87 5.94 10.14
12/29/2021 3:45:00 AM 8.42 47.156 0.669 7.86 4.2 10.09
12/29/2021 4:00:00 AM 8.42 47.156 0.67 7.86 5.37 10.09
12/29/2021 4:15:00 AM 8.42 47.156 0.67 7.87 4.12 10.08
12/29/2021 4:30:00 AM 8.42 47.156 0.67 7.86 5.24 10.09
12/29/2021 4:45:00 AM 8.42 47.156 0.67 7.86 4.72 10.07
12/29/2021 5:00:00 AM 8.43 47.174 0.67 7.86 5.06 10.04
12/29/2021 5:15:00 AM 8.43 47.174 0.671 7.86 3.98 10.05
12/29/2021 5:30:00 AM 8.43 47.174 0.672 7.85 6.26 10.05
12/29/2021 5:45:00 AM 8.43 47.174 0.672 7.85 5.41 10.03
12/29/2021 6:00:00 AM 8.44 47.192 0.673 7.85 5.3 10
12/29/2021 6:15:00 AM 8.45 47.21 0.673 7.85 5.03 10.02
12/29/2021 6:30:00 AM 8.45 47.21 0.673 7.85 5.12 10
12/29/2021 6:45:00 AM 8.46 47.228 0.673 7.85 6.01 9.98
12/29/2021 7:00:00 AM 8.47 47.246 0.673 7.85 4.83 9.97
12/29/2021 7:15:00 AM 8.47 47.246 0.673 7.85 6.22 9.99
12/29/2021 7:30:00 AM 8.48 47.264 0.673 7.84 5.24 9.97
12/29/2021 7:45:00 AM 8.49 47.282 0.673 7.84 6.42 9.99
12/29/2021 8:00:00 AM 8.5 47.3 0.673 7.84 4.95 9.99
12/29/2021 8:15:00 AM 8.52 47.336 0.673 7.84 4.18 10.04
12/29/2021 8:30:00 AM 8.53 47.354 0.673 7.84 4.83 10.07
12/29/2021 8:45:00 AM 8.56 47.408 0.674 7.85 5.29 10.19
12/29/2021 9:00:00 AM 8.59 47.462 0.673 7.85 3.49 10.34
12/29/2021 9:15:00 AM 8.61 47.498 0.673 7.86 3.44 10.47
12/29/2021 9:30:00 AM 8.63 47.534 0.671 7.87 3.94 10.61
12/29/2021 9:45:00 AM 8.66 47.588 0.669 7.88 4.22 10.78
12/29/2021 10:00:00 AM 8.68 47.624 0.667 7.89 3.58 10.98
12/29/2021 10:15:00 AM 8.71 47.678 0.666 7.9 3.54 11.15
12/29/2021 10:30:00 AM 8.74 47.732 0.667 7.91 4.53 11.35
12/29/2021 10:45:00 AM 8.79 47.822 0.667 7.92 3.94 11.57
12/29/2021 11:00:00 AM 8.84 47.912 0.668 7.94 3.89 11.79
12/29/2021 11:15:00 AM 8.9 48.02 0.67 7.95 4.12 12.07
12/29/2021 11:30:00 AM 8.98 48.164 0.671 7.98 4.35 12.35
12/29/2021 11:45:00 AM 9.07 48.326 0.672 8 3.4 12.66
12/29/2021 12:00:00 PM 9.14 48.452 0.673 8.02 5.08 12.91
12/29/2021 12:15:00 PM 9.21 48.578 0.674 8.04 5.02 13.1
12/29/2021 12:30:00 PM 9.28 48.704 0.674 8.06 8.49 13.34
12/29/2021 12:45:00 PM 9.33 48.794 0.674 8.08 6.9 13.49
12/29/2021 1:00:00 PM 9.4 48.92 0.674 8.1 8.36 13.66
12/29/2021 1:15:00 PM 9.47 49.046 0.674 8.11 8.78 13.79
12/29/2021 1:30:00 PM 9.57 49.226 0.673 8.13 7.58 14.02
12/29/2021 1:45:00 PM 9.63 49.334 0.673 8.15 7.83 14.12
12/29/2021 2:00:00 PM 9.69 49.442 0.673 8.16 8.66 14.27
12/29/2021 2:15:00 PM 9.73 49.514 0.673 8.17 8.51 14.29
12/29/2021 2:30:00 PM 9.76 49.568 0.673 8.18 10.35 14.33
12/29/2021 2:45:00 PM 9.78 49.604 0.673 8.18 9.13 14.31
12/29/2021 3:00:00 PM 9.79 49.622 0.673 8.18 10.68 14.26
12/29/2021 3:15:00 PM 9.77 49.586 0.672 8.19 9.36 14.17
12/29/2021 3:30:00 PM 9.72 49.496 0.671 8.18 11.53 13.93
12/29/2021 3:45:00 PM 9.68 49.424 0.671 8.17 11.86 13.72
12/29/2021 4:00:00 PM 9.64 49.352 0.67 8.15 12.21 13.49
12/29/2021 4:15:00 PM 9.59 49.262 0.67 8.13 12.34 13.23
12/29/2021 4:30:00 PM 9.55 49.19 0.67 8.11 12.75 12.94
12/29/2021 4:45:00 PM 9.52 49.136 0.67 8.09 12.86 12.7
12/29/2021 5:00:00 PM 9.5 49.1 0.67 8.07 13.21 12.47
12/29/2021 5:15:00 PM 9.49 49.082 0.671 8.05 12.07 12.23
12/29/2021 5:30:00 PM 9.48 49.064 0.67 8.04 9.73 12
12/29/2021 5:45:00 PM 9.46 49.028 0.669 8.03 9.96 11.87
12/29/2021 6:00:00 PM 9.43 48.974 0.669 8.02 7.93 11.76
12/29/2021 6:15:00 PM 9.41 48.938 0.668 8 6.47 11.72
12/29/2021 6:30:00 PM 9.39 48.902 0.668 7.99 6.97 11.71
12/29/2021 6:45:00 PM 9.37 48.866 0.668 7.99 7.03 11.68
12/29/2021 7:00:00 PM 9.36 48.848 0.667 7.99 6.38 11.61
12/29/2021 7:15:00 PM 9.35 48.83 0.666 7.98 5.53 11.56
12/29/2021 7:30:00 PM 9.34 48.812 0.666 7.97 6.53 11.49
12/29/2021 7:45:00 PM 9.33 48.794 0.665 7.97 5.44 11.42
12/29/2021 8:00:00 PM 9.32 48.776 0.665 7.97 6.83 11.37
12/29/2021 8:15:00 PM 9.31 48.758 0.666 7.97 5.91 11.31
12/29/2021 8:30:00 PM 9.3 48.74 0.665 7.97 6.28 11.27
12/29/2021 8:45:00 PM 9.29 48.722 0.664 7.96 5.76 11.22
12/29/2021 9:00:00 PM 9.29 48.722 0.663 7.96 6.54 11.18
12/29/2021 9:15:00 PM 9.28 48.704 0.662 7.96 5.98 11.14
12/29/2021 9:30:00 PM 9.27 48.686 0.66 7.95 5.13 11.12
12/29/2021 9:45:00 PM 9.27 48.686 0.658 7.94 5.52 11.07
12/29/2021 10:00:00 PM 9.27 48.686 0.655 7.93 6.55 11.01
12/29/2021 10:15:00 PM 9.27 48.686 0.652 7.93 5.38 10.99
12/29/2021 10:30:00 PM 9.27 48.686 0.648 7.92 8.35 10.96
12/29/2021 10:45:00 PM 9.27 48.686 0.645 7.92 5.54 10.91
12/29/2021 11:00:00 PM 9.28 48.704 0.642 7.92 5.47 10.87
12/29/2021 11:15:00 PM 9.28 48.704 0.639 7.91 5.33 10.8
12/29/2021 11:30:00 PM 9.27 48.686 0.636 7.9 5.34 10.77
12/29/2021 11:45:00 PM 9.27 48.686 0.633 7.9 6.95 10.75
12/30/2021 12:00:00 AM 9.27 48.686 0.631 7.89 4.67 10.7
12/30/2021 12:15:00 AM 9.27 48.686 0.629 7.89 5.06 10.64
12/30/2021 12:30:00 AM 9.27 48.686 0.628 7.88 4.14 10.62
12/30/2021 12:45:00 AM 9.27 48.686 0.627 7.88 4.89 10.6
12/30/2021 1:00:00 AM 9.27 48.686 0.627 7.87 6.19 10.56
12/30/2021 1:15:00 AM 9.27 48.686 0.626 7.87 5.77 10.53
12/30/2021 1:30:00 AM 9.27 48.686 0.626 7.86 7.12 10.49
12/30/2021 1:45:00 AM 9.28 48.704 0.627 7.86 5.65 10.47
12/30/2021 2:00:00 AM 9.28 48.704 0.627 7.86 6.03 10.43
12/30/2021 2:15:00 AM 9.28 48.704 0.628 7.86 7.24 10.43
12/30/2021 2:30:00 AM 9.28 48.704 0.628 7.86 6.02 10.41
12/30/2021 2:45:00 AM 9.29 48.722 0.63 7.85 5.62 10.39
12/30/2021 3:00:00 AM 9.29 48.722 0.631 7.85 7.8 10.38
12/30/2021 3:15:00 AM 9.3 48.74 0.633 7.84 4.23 10.35
12/30/2021 3:30:00 AM 9.31 48.758 0.635 7.84 4 10.35
12/30/2021 3:45:00 AM 9.31 48.758 0.637 7.84 5.1 10.33
12/30/2021 4:00:00 AM 9.32 48.776 0.639 7.84 5.17 10.33
12/30/2021 4:15:00 AM 9.33 48.794 0.641 7.84 4.78 10.32
12/30/2021 4:30:00 AM 9.34 48.812 0.642 7.84 4.15 10.31
12/30/2021 4:45:00 AM 9.35 48.83 0.644 7.84 4.7 10.3
12/30/2021 5:00:00 AM 9.35 48.83 0.645 7.84 6.07 10.29
12/30/2021 5:15:00 AM 9.36 48.848 0.647 7.84 5.49 10.29
12/30/2021 5:30:00 AM 9.37 48.866 0.648 7.84 4.51 10.27
12/30/2021 5:45:00 AM 9.37 48.866 0.65 7.84 3.74 10.25
12/30/2021 6:00:00 AM 9.38 48.884 0.651 7.84 8.59 10.26
12/30/2021 6:15:00 AM 9.39 48.902 0.652 7.84 4.92 10.27
12/30/2021 6:30:00 AM 9.39 48.902 0.653 7.84 4.23 10.24
12/30/2021 6:45:00 AM 9.4 48.92 0.654 7.84 3.96 10.24
12/30/2021 7:00:00 AM 9.41 48.938 0.654 7.84 4.38 10.21
12/30/2021 7:15:00 AM 9.42 48.956 0.655 7.83 4.72 10.24
12/30/2021 7:30:00 AM 9.42 48.956 0.656 7.84 4.79 10.2
12/30/2021 7:45:00 AM 9.43 48.974 0.656 7.84 4.09 10.22
12/30/2021 8:00:00 AM 9.44 48.992 0.657 7.84 4.03 10.23
12/30/2021 8:15:00 AM 9.44 48.992 0.657 7.84 3.39 10.24
12/30/2021 8:30:00 AM 9.45 49.01 0.658 7.84 3.33 10.26
12/30/2021 8:45:00 AM 9.46 49.028 0.658 7.84 4.17 10.32
12/30/2021 9:00:00 AM 9.47 49.046 0.659 7.85 3.61 10.35
12/30/2021 9:15:00 AM 9.48 49.064 0.659 7.85 4.57 10.39
12/30/2021 9:30:00 AM 9.49 49.082 0.66 7.86 4.78 10.45
12/30/2021 9:45:00 AM 9.5 49.1 0.66 7.86 4.4 10.5
12/30/2021 10:00:00 AM 9.52 49.136 0.661 7.86 4.6 10.53
12/30/2021 10:15:00 AM 9.55 49.19 0.662 7.86 3.49 10.54
12/30/2021 10:30:00 AM 9.57 49.226 0.663 7.87 2.91 10.63
12/30/2021 10:45:00 AM 9.6 49.28 0.664 7.87 3.06 10.71
12/30/2021 11:00:00 AM 9.62 49.316 0.664 7.88 4.64 10.77
12/30/2021 11:15:00 AM 9.65 49.37 0.665 7.89 5.39 10.89
12/30/2021 11:30:00 AM 9.67 49.406 0.665 7.9 2.97 11.01
12/30/2021 11:45:00 AM 9.69 49.442 0.665 7.91 2.98 11.2
12/30/2021 12:00:00 PM 9.71 49.478 0.664 7.92 2.8 11.38
12/30/2021 12:15:00 PM 9.73 49.514 0.664 7.94 3.04 11.51
12/30/2021 12:30:00 PM 9.76 49.568 0.664 7.95 3.82 11.66
12/30/2021 12:45:00 PM 9.78 49.604 0.664 7.96 2.82 11.81
12/30/2021 1:00:00 PM 9.8 49.64 0.665 7.97 4.04 11.85
12/30/2021 1:15:00 PM 9.82 49.676 0.665 7.98 3.09 11.87
12/30/2021 1:30:00 PM 9.84 49.712 0.665 7.98 2.71 11.96
12/30/2021 1:45:00 PM 9.87 49.766 0.665 7.99 3.84 12.05
12/30/2021 2:00:00 PM 9.89 49.802 0.665 8 4.79 12.08
12/30/2021 2:15:00 PM 9.9 49.82 0.666 8 5.12 12.08
12/30/2021 2:30:00 PM 9.93 49.874 0.667 8.01 5.43 12.04
12/30/2021 2:45:00 PM 9.95 49.91 0.668 8.01 2.84 11.99
12/30/2021 3:00:00 PM 9.98 49.964 0.668 8 5.95 11.93
12/30/2021 3:15:00 PM 10 50 0.669 8 9.96 11.87
12/30/2021 3:30:00 PM 10.01 50.018 0.669 8 4.58 11.81
12/30/2021 3:45:00 PM 10.03 50.054 0.669 7.99 6.01 11.72
12/30/2021 4:00:00 PM 10.03 50.054 0.67 7.99 6.96 11.63
12/30/2021 4:15:00 PM 10.04 50.072 0.67 7.98 3.27 11.52
12/30/2021 4:30:00 PM 10.05 50.09 0.67 7.98 4.55 11.41
12/30/2021 4:45:00 PM 10.04 50.072 0.67 7.97 5.6 11.29
12/30/2021 5:00:00 PM 10.03 50.054 0.669 7.96 7.34 11.2
12/30/2021 5:15:00 PM 10.02 50.036 0.668 7.96 7.1 11.14
12/30/2021 5:30:00 PM 10.02 50.036 0.668 7.96 3.66 11.07
12/30/2021 5:45:00 PM 10.01 50.018 0.668 7.95 3.29 10.98
12/30/2021 6:00:00 PM 10.01 50.018 0.668 7.95 2.8 10.9
12/30/2021 6:15:00 PM 10.03 50.054 0.669 7.94 2.92 10.79
12/30/2021 6:30:00 PM 10.05 50.09 0.671 7.93 3.15 10.7
12/30/2021 6:45:00 PM 10.06 50.108 0.671 7.93 3.46 10.6
12/30/2021 7:00:00 PM 10.07 50.126 0.672 7.92 2.73 10.5
12/30/2021 7:15:00 PM 10.08 50.144 0.673 7.92 3.04 10.38
12/30/2021 7:30:00 PM 10.09 50.162 0.673 7.91 4.6 10.3
12/30/2021 7:45:00 PM 10.1 50.18 0.673 7.91 3.55 10.2
12/30/2021 8:00:00 PM 10.1 50.18 0.673 7.91 3.6 10.17
12/30/2021 8:15:00 PM 10.11 50.198 0.674 7.91 3.61 10.13
12/30/2021 8:30:00 PM 10.11 50.198 0.674 7.9 4.43 10.11
12/30/2021 8:45:00 PM 10.11 50.198 0.674 7.9 4.47 10.06
12/30/2021 9:00:00 PM 10.12 50.216 0.674 7.9 4.29 10.04
12/30/2021 9:15:00 PM 10.12 50.216 0.673 7.9 4.41 10.02
12/30/2021 9:30:00 PM 10.12 50.216 0.673 7.9 3.35 9.99
12/30/2021 9:45:00 PM 10.13 50.234 0.673 7.9 3.25 9.97
12/30/2021 10:00:00 PM 10.13 50.234 0.673 7.89 4.12 9.95
12/30/2021 10:15:00 PM 10.13 50.234 0.673 7.89 3.46 9.94
12/30/2021 10:30:00 PM 10.13 50.234 0.673 7.89 4.33 9.91
12/30/2021 10:45:00 PM 10.13 50.234 0.673 7.89 3.85 9.88
12/30/2021 11:00:00 PM 10.13 50.234 0.672 7.89 3.86 9.87
12/30/2021 11:15:00 PM 10.13 50.234 0.672 7.89 4.53 9.86
12/30/2021 11:30:00 PM 10.14 50.252 0.672 7.88 4.13 9.84
12/30/2021 11:45:00 PM 10.14 50.252 0.672 7.88 4.13 9.81
12/31/2021 12:00:00 AM 10.14 50.252 0.672 7.88 3.28 9.81
12/31/2021 12:15:00 AM 10.14 50.252 0.672 7.88 3.04 9.77
12/31/2021 12:30:00 AM 10.14 50.252 0.672 7.88 4.92 9.75
12/31/2021 12:45:00 AM 10.14 50.252 0.672 7.87 4.53 9.75
12/31/2021 1:00:00 AM 10.13 50.234 0.672 7.87 3.53 9.73
12/31/2021 1:15:00 AM 10.13 50.234 0.671 7.87 3.04 9.73
12/31/2021 1:30:00 AM 10.13 50.234 0.671 7.88 4.48 9.71
12/31/2021 1:45:00 AM 10.13 50.234 0.67 7.87 3.37 9.69
12/31/2021 2:00:00 AM 10.14 50.252 0.669 7.87 3.22 9.68
12/31/2021 2:15:00 AM 10.14 50.252 0.669 7.87 4.29 9.66
12/31/2021 2:30:00 AM 10.14 50.252 0.669 7.87 4.19 9.64
12/31/2021 2:45:00 AM 10.14 50.252 0.668 7.87 3.96 9.66
12/31/2021 3:00:00 AM 10.15 50.27 0.667 7.87 3.48 9.64
12/31/2021 3:15:00 AM 10.15 50.27 0.667 7.86 3.32 9.64
12/31/2021 3:30:00 AM 10.15 50.27 0.666 7.86 3.59 9.63
12/31/2021 3:45:00 AM 10.16 50.288 0.665 7.86 8.8 9.6
12/31/2021 4:00:00 AM 10.16 50.288 0.665 7.86 12.04 9.62
12/31/2021 4:15:00 AM 10.16 50.288 0.664 7.85 13.53 9.6
12/31/2021 4:30:00 AM 10.17 50.306 0.663 7.85 8.09 9.59
12/31/2021 4:45:00 AM 10.17 50.306 0.663 7.85 6.18 9.58
12/31/2021 5:00:00 AM 10.17 50.306 0.662 7.85 5.46 9.58
12/31/2021 5:15:00 AM 10.18 50.324 0.662 7.85 6.35 9.57
12/31/2021 5:30:00 AM 10.18 50.324 0.661 7.85 8.43 9.57
12/31/2021 5:45:00 AM 10.19 50.342 0.661 7.84 7.04 9.55
12/31/2021 6:00:00 AM 10.2 50.36 0.661 7.85 6.92 9.55
12/31/2021 6:15:00 AM 10.2 50.36 0.661 7.85 8.86 9.52
12/31/2021 6:30:00 AM 10.21 50.378 0.661 7.84 8.36 9.52
12/31/2021 6:45:00 AM 10.22 50.396 0.661 7.85 9.21 9.53
12/31/2021 7:00:00 AM 10.22 50.396 0.662 7.85 8.55 9.54
12/31/2021 7:15:00 AM 10.23 50.414 0.662 7.85 9.78 9.52
12/31/2021 7:30:00 AM 10.24 50.432 0.663 7.84 8.58 9.53
12/31/2021 7:45:00 AM 10.24 50.432 0.664 7.85 8.21 9.52
12/31/2021 8:00:00 AM 10.25 50.45 0.664 7.85 8.59 9.54
12/31/2021 8:15:00 AM 10.26 50.468 0.665 7.85 7.84 9.56
12/31/2021 8:30:00 AM 10.27 50.486 0.665 7.85 6.67 9.59
12/31/2021 8:45:00 AM 10.27 50.486 0.666 7.85 7.25 9.65
12/31/2021 9:00:00 AM 10.28 50.504 0.666 7.86 7.04 9.73
12/31/2021 9:15:00 AM 10.29 50.522 0.667 7.86 7.29 9.8
12/31/2021 9:30:00 AM 10.31 50.558 0.667 7.87 6.12 9.9
12/31/2021 9:45:00 AM 10.32 50.576 0.668 7.88 6.8 10.02
12/31/2021 10:00:00 AM 10.33 50.594 0.668 7.88 5.65 10.1
12/31/2021 10:15:00 AM 10.35 50.63 0.668 7.89 5.8 10.22
12/31/2021 10:30:00 AM 10.37 50.666 0.669 7.9 5.56 10.34
12/31/2021 10:45:00 AM 10.38 50.684 0.669 7.9 4.89 10.48
12/31/2021 11:00:00 AM 10.39 50.702 0.668 7.92 5.58 10.65
12/31/2021 11:15:00 AM 10.39 50.702 0.667 7.93 5.89 10.87
12/31/2021 11:30:00 AM 10.39 50.702 0.666 7.95 6.23 11.13
12/31/2021 11:45:00 AM 10.4 50.72 0.665 7.97 6.01 11.38
12/31/2021 12:00:00 PM 10.41 50.738 0.665 7.98 6.55 11.6
12/31/2021 12:15:00 PM 10.43 50.774 0.664 7.99 5.6 11.79
12/31/2021 12:30:00 PM 10.45 50.81 0.664 8 5.84 11.92
12/31/2021 12:45:00 PM 10.46 50.828 0.664 8.01 5.64 11.97
12/31/2021 1:00:00 PM 10.47 50.846 0.664 8.01 5.8 11.98
12/31/2021 1:15:00 PM 10.48 50.864 0.664 8.01 6.41 11.99
12/31/2021 1:30:00 PM 10.51 50.918 0.663 8.02 6.16 12.07
12/31/2021 1:45:00 PM 10.53 50.954 0.663 8.04 6.4 12.18
12/31/2021 2:00:00 PM 10.55 50.99 0.663 8.04 6.36 12.25
12/31/2021 2:15:00 PM 10.56 51.008 0.663 8.05 5.73 12.27
12/31/2021 2:30:00 PM 10.57 51.026 0.663 8.05 5.98 12.23
12/31/2021 2:45:00 PM 10.58 51.044 0.663 8.05 6.74 12.21
12/31/2021 3:00:00 PM 10.6 51.08 0.663 8.05 3.05 12.24
12/31/2021 3:15:00 PM 10.62 51.116 0.663 8.05 3.03 12.28
12/31/2021 3:30:00 PM 10.63 51.134 0.663 8.06 3.58 12.32
12/31/2021 3:45:00 PM 10.63 51.134 0.663 8.06 2.79 12.33
12/31/2021 4:00:00 PM 10.63 51.134 0.663 8.07 3.45 12.34
12/31/2021 4:15:00 PM 10.63 51.134 0.663 8.07 3.99 12.27
12/31/2021 4:30:00 PM 10.62 51.116 0.663 8.06 4.21 12.1
12/31/2021 4:45:00 PM 10.61 51.098 0.663 8.06 3.68 11.99
12/31/2021 5:00:00 PM 10.6 51.08 0.664 8.04 3.67 11.81
12/31/2021 5:15:00 PM 10.59 51.062 0.664 8.02 3.78 11.64
12/31/2021 5:30:00 PM 10.59 51.062 0.665 8.01 3.78 11.46
12/31/2021 5:45:00 PM 10.58 51.044 0.665 8 3.88 11.34
12/31/2021 6:00:00 PM 10.58 51.044 0.665 7.98 3.5 11.18
12/31/2021 6:15:00 PM 10.57 51.026 0.665 7.98 3.89 11.1
12/31/2021 6:30:00 PM 10.57 51.026 0.665 7.97 3.91 10.99
12/31/2021 6:45:00 PM 10.56 51.008 0.665 7.96 4.19 10.92
12/31/2021 7:00:00 PM 10.56 51.008 0.665 7.96 3.63 10.82
12/31/2021 7:15:00 PM 10.55 50.99 0.665 7.95 3.58 10.77
12/31/2021 7:30:00 PM 10.55 50.99 0.666 7.94 3.83 10.75
12/31/2021 7:45:00 PM 10.54 50.972 0.666 7.93 4.07 10.71
12/31/2021 8:00:00 PM 10.53 50.954 0.666 7.93 4.39 10.66
12/31/2021 8:15:00 PM 10.53 50.954 0.666 7.93 4.05 10.66
12/31/2021 8:30:00 PM 10.53 50.954 0.665 7.92 3.97 10.64
12/31/2021 8:45:00 PM 10.53 50.954 0.665 7.92 4.39 10.6
12/31/2021 9:00:00 PM 10.53 50.954 0.665 7.93 10.04 10.59
12/31/2021 9:15:00 PM 10.53 50.954 0.665 7.92 7.27 10.55
12/31/2021 9:30:00 PM 10.52 50.936 0.665 7.92 6.4 10.54
12/31/2021 9:45:00 PM 10.52 50.936 0.665 7.92 6.68 10.5
12/31/2021 10:00:00 PM 10.52 50.936 0.665 7.92 6.45 10.46
12/31/2021 10:15:00 PM 10.52 50.936 0.665 7.92 6.74 10.46
12/31/2021 10:30:00 PM 10.53 50.954 0.665 7.92 6.68 10.42
12/31/2021 10:45:00 PM 10.53 50.954 0.665 7.92 6.04 10.42
12/31/2021 11:00:00 PM 10.53 50.954 0.665 7.92 6.39 10.39
12/31/2021 11:15:00 PM 10.53 50.954 0.665 7.91 6.35 10.38
12/31/2021 11:30:00 PM 10.53 50.954 0.665 7.91 6.33 10.33
12/31/2021 11:45:00 PM 10.53 50.954 0.665 7.91 5.61 10.33
1/1/2022 12:00:00 AM 10.54 50.972 0.665 7.91 6.25 10.3
1/1/2022 12:15:00 AM 10.53 50.954 0.665 7.91 4.94 10.28
1/1/2022 12:30:00 AM 10.53 50.954 0.665 7.91 4.95 10.27
1/1/2022 12:45:00 AM 10.53 50.954 0.666 7.9 5.92 10.25
1/1/2022 1:00:00 AM 10.53 50.954 0.666 7.9 5.81 10.23
1/1/2022 1:15:00 AM 10.53 50.954 0.666 7.9 5.89 10.2
1/1/2022 1:30:00 AM 10.53 50.954 0.666 7.9 5.76 10.2
1/1/2022 1:45:00 AM 10.53 50.954 0.666 7.9 4.72 10.17
1/1/2022 2:00:00 AM 10.54 50.972 0.666 7.9 4.37 10.16
1/1/2022 2:15:00 AM 10.54 50.972 0.667 7.9 4.78 10.15
1/1/2022 2:30:00 AM 10.54 50.972 0.667 7.89 4.24 10.13
1/1/2022 2:45:00 AM 10.54 50.972 0.667 7.89 5.68 10.1
1/1/2022 3:00:00 AM 10.54 50.972 0.667 7.89 4.57 10.11
1/1/2022 3:15:00 AM 10.54 50.972 0.667 7.89 3.6 10.09
1/1/2022 3:30:00 AM 10.54 50.972 0.667 7.89 4.21 10.1
1/1/2022 3:45:00 AM 10.54 50.972 0.666 7.89 3.47 10.08
1/1/2022 4:00:00 AM 10.54 50.972 0.666 7.88 4.61 10.08
1/1/2022 4:15:00 AM 10.55 50.99 0.666 7.89 3.9 10.07
1/1/2022 4:30:00 AM 10.55 50.99 0.666 7.88 3.89 10.06
1/1/2022 4:45:00 AM 10.55 50.99 0.666 7.88 3.94 10.05
1/1/2022 5:00:00 AM 10.55 50.99 0.666 7.88 3.88 10.04
1/1/2022 5:15:00 AM 10.55 50.99 0.667 7.87 4.66 10.03
1/1/2022 5:30:00 AM 10.56 51.008 0.667 7.87 3.81 10.01
1/1/2022 5:45:00 AM 10.56 51.008 0.667 7.87 3.93 10
1/1/2022 6:00:00 AM 10.57 51.026 0.667 7.87 4 10.01
1/1/2022 6:15:00 AM 10.58 51.044 0.668 7.87 4.1 9.98
1/1/2022 6:30:00 AM 10.58 51.044 0.668 7.87 4.55 9.99
1/1/2022 6:45:00 AM 10.58 51.044 0.668 7.87 4.39 9.98
1/1/2022 7:00:00 AM 10.59 51.062 0.668 7.87 4.42 9.98
1/1/2022 7:15:00 AM 10.59 51.062 0.668 7.87 6.49 9.96
1/1/2022 7:30:00 AM 10.59 51.062 0.668 7.87 5.29 9.96
1/1/2022 7:45:00 AM 10.59 51.062 0.668 7.87 5.56 9.97
1/1/2022 8:00:00 AM 10.6 51.08 0.668 7.87 3.6 9.96
1/1/2022 8:15:00 AM 10.6 51.08 0.668 7.87 5.94 9.98
1/1/2022 8:30:00 AM 10.6 51.08 0.668 7.87 3.86 9.99
1/1/2022 8:45:00 AM 10.6 51.08 0.667 7.87 3.62 10.03
1/1/2022 9:00:00 AM 10.61 51.098 0.667 7.87 5.35 10.04
1/1/2022 9:15:00 AM 10.62 51.116 0.666 7.87 3.49 10.15
1/1/2022 9:30:00 AM 10.63 51.134 0.666 7.88 6.47 10.2
1/1/2022 9:45:00 AM 10.64 51.152 0.666 7.88 3.7 10.25
1/1/2022 10:00:00 AM 10.65 51.17 0.666 7.89 5.7 10.34
1/1/2022 10:15:00 AM 10.67 51.206 0.665 7.89 4.63 10.46
1/1/2022 10:30:00 AM 10.68 51.224 0.665 7.9 6.12 10.55
1/1/2022 10:45:00 AM 10.7 51.26 0.665 7.9 3.91 10.62
1/1/2022 11:00:00 AM 10.71 51.278 0.665 7.91 4.82 10.7
1/1/2022 11:15:00 AM 10.73 51.314 0.664 7.91 4.2 10.77
1/1/2022 11:30:00 AM 10.74 51.332 0.664 7.92 5.31 10.84
1/1/2022 11:45:00 AM 10.76 51.368 0.663 7.93 4.18 10.9
1/1/2022 12:00:00 PM 10.78 51.404 0.663 7.93 3.04 11
1/1/2022 12:15:00 PM 10.8 51.44 0.663 7.94 3.44 11.14
1/1/2022 12:30:00 PM 10.83 51.494 0.662 7.95 2.95 11.26
1/1/2022 12:45:00 PM 10.85 51.53 0.662 7.96 6.74 11.4
1/1/2022 1:00:00 PM 10.88 51.584 0.661 7.98 2.97 11.5
1/1/2022 1:15:00 PM 10.91 51.638 0.661 7.99 4.86 11.65
1/1/2022 1:30:00 PM 10.93 51.674 0.66 8 3.22 11.72
1/1/2022 1:45:00 PM 10.96 51.728 0.66 8.01 8.05 11.84
1/1/2022 2:00:00 PM 10.99 51.782 0.66 8.02 5.72 11.96
1/1/2022 2:15:00 PM 11.02 51.836 0.66 8.03 7.18 12.11
1/1/2022 2:30:00 PM 11.04 51.872 0.66 8.04 9.91 12.11
1/1/2022 2:45:00 PM 11.07 51.926 0.661 8.05 10.82 12.07
1/1/2022 3:00:00 PM 11.11 51.998 0.662 8.05 7.81 11.99
1/1/2022 3:15:00 PM 11.14 52.052 0.663 8.04 10.65 11.85
1/1/2022 3:30:00 PM 11.16 52.088 0.663 8.03 10.36 11.65
1/1/2022 3:45:00 PM 11.17 52.106 0.664 8.02 9.44 11.44
1/1/2022 4:00:00 PM 11.18 52.124 0.663 8.02 6.03 11.26
1/1/2022 4:15:00 PM 11.19 52.142 0.663 8 13.1 11.09
1/1/2022 4:30:00 PM 11.21 52.178 0.663 7.99 2.94 10.87
1/1/2022 4:45:00 PM 11.24 52.232 0.663 7.98 14.24 10.68
1/1/2022 5:00:00 PM 11.26 52.268 0.663 7.97 4.81 10.54
1/1/2022 5:15:00 PM 11.27 52.286 0.663 7.96 7.59 10.4
1/1/2022 5:30:00 PM 11.28 52.304 0.663 7.95 10.72 10.26
1/1/2022 5:45:00 PM 11.29 52.322 0.663 7.94 17.18 10.17
1/1/2022 6:00:00 PM 11.28 52.304 0.662 7.93 20.03 10.12
1/1/2022 6:15:00 PM 11.26 52.268 0.66 7.92 16.88 10.05
1/1/2022 6:30:00 PM 11.23 52.214 0.658 7.92 21.12 10.01
1/1/2022 6:45:00 PM 11.21 52.178 0.657 7.92 56.98 9.97
1/1/2022 7:00:00 PM 11.2 52.16 0.655 7.91 20.15 9.91
1/1/2022 7:15:00 PM 11.19 52.142 0.652 7.91 3480 9.9
1/1/2022 7:30:00 PM 11.18 52.124 0.648 7.91 18.36 9.89
1/1/2022 7:45:00 PM 11.18 52.124 0.645 7.91 1211 9.87
1/1/2022 8:00:00 PM 11.17 52.106 0.642 7.91 10.42 9.83
1/1/2022 8:15:00 PM 11.16 52.088 0.64 7.91 22.78 9.84
1/1/2022 8:30:00 PM 11.16 52.088 0.637 7.9 17.8 9.8
1/1/2022 8:45:00 PM 11.15 52.07 0.635 7.9 9.1 9.76
1/1/2022 9:00:00 PM 11.13 52.034 0.633 7.89 12.58 9.74
1/1/2022 9:15:00 PM 11.12 52.016 0.631 7.88 25.11 9.7
1/1/2022 9:30:00 PM 11.11 51.998 0.629 7.88 21.05 9.67
1/1/2022 9:45:00 PM 11.09 51.962 0.627 7.88 16.82 9.66
1/1/2022 10:00:00 PM 11.08 51.944 0.626 7.87 15.77 9.61
1/1/2022 10:15:00 PM 11.08 51.944 0.626 7.86 13.73 9.59
1/1/2022 10:30:00 PM 11.08 51.944 0.627 7.86 12.1 9.55
1/1/2022 10:45:00 PM 11.08 51.944 0.627 7.85 11.57 9.52
1/1/2022 11:00:00 PM 11.08 51.944 0.626 7.85 15.51 9.48
1/1/2022 11:15:00 PM 11.08 51.944 0.624 7.84 13.23 9.44
1/1/2022 11:30:00 PM 11.09 51.962 0.621 7.84 14.02 9.4
1/1/2022 11:45:00 PM 11.11 51.998 0.619 7.83 10.95 9.39
1/2/2022 12:00:00 AM 11.13 52.034 0.618 7.82 21.94 9.36
1/2/2022 12:15:00 AM 11.15 52.07 0.618 7.82 17.03 9.34
1/2/2022 12:30:00 AM 11.17 52.106 0.617 7.81 14.59 9.31
1/2/2022 12:45:00 AM 11.2 52.16 0.608 7.81 30.98 9.28
1/2/2022 1:00:00 AM 11.23 52.214 0.596 7.8 20.98 9.26
1/2/2022 1:15:00 AM 11.26 52.268 0.591 7.79 40.41 9.2
1/2/2022 1:30:00 AM 11.32 52.376 0.595 7.78 25.42 9.15
1/2/2022 1:45:00 AM 11.37 52.466 0.602 7.78 26.85 9.09
1/2/2022 2:00:00 AM 11.43 52.574 0.603 7.78 22.42 9.04
1/2/2022 2:15:00 AM 11.47 52.646 0.597 7.77 23.08 9.01
1/2/2022 2:30:00 AM 11.5 52.7 0.586 7.77 23.73 9.02
1/2/2022 2:45:00 AM 11.5 52.7 0.572 7.77 34.9 9
1/2/2022 3:00:00 AM 11.47 52.646 0.555 7.77 23.7 9.02
1/2/2022 3:15:00 AM 11.42 52.556 0.537 7.77 30.57 9.02
1/2/2022 3:30:00 AM 11.37 52.466 0.519 7.76 26.39 9.02
1/2/2022 4:00:00 AM 11.24 52.232 0.486 7.75 28.12 9.04
1/2/2022 4:15:00 AM 11.17 52.106 0.43 7.74 29.35 9.05
1/2/2022 4:30:00 AM 11.12 52.016 0.46 7.74 25.76 9.04
1/2/2022 4:45:00 AM 11.07 51.926 0.449 7.73 24.67 9.03
1/2/2022 5:00:00 AM 11.03 51.854 0.441 7.72 34.96 9.04
1/2/2022 5:15:00 AM 11 51.8 0.433 7.71 23.12 9.04
1/2/2022 5:30:00 AM 10.96 51.728 0.428 7.7 29.39 9.05
1/2/2022 5:45:00 AM 10.93 51.674 0.422 7.7 24.76 9.04
1/2/2022 6:00:00 AM 10.91 51.638 0.419 7.69 21.83 9.04
1/2/2022 6:15:00 AM 10.89 51.602 0.416 7.68 39.34 9.04
1/2/2022 6:30:00 AM 10.88 51.584 0.414 7.68 20.68 9.05
1/2/2022 6:45:00 AM 10.86 51.548 0.414 7.68 173.2 9.05
1/2/2022 7:00:00 AM 10.85 51.53 0.416 7.67 107.6 9.05
1/2/2022 7:15:00 AM 10.84 51.512 0.417 7.67 21.19 9.07
1/2/2022 7:30:00 AM 10.84 51.512 0.417 7.67 45.62 9.05
1/2/2022 7:45:00 AM 10.85 51.53 0.417 7.66 22.2 9.05
1/2/2022 8:00:00 AM 10.86 51.548 0.418 7.65 24.83 9.04
1/2/2022 8:15:00 AM 10.88 51.584 0.419 7.66 18.85 9.05
1/2/2022 8:30:00 AM 10.89 51.602 0.419 7.65 86.79 9.08
1/2/2022 8:45:00 AM 10.9 51.62 0.42 7.65 514.8 9.1
1/2/2022 9:00:00 AM 10.9 51.62 0.424 7.65 168.1 9.12
1/2/2022 9:15:00 AM 10.9 51.62 0.427 7.65 207.4 9.17
1/2/2022 9:30:00 AM 10.92 51.656 0.432 7.65 103.8 9.2
1/2/2022 9:45:00 AM 10.95 51.71 0.439 7.66 28.77 9.29
1/2/2022 10:00:00 AM 10.98 51.764 0.445 7.66 17.7 9.39
1/2/2022 10:15:00 AM 11.03 51.854 0.449 7.68 16.97 9.52
1/2/2022 10:30:00 AM 11.07 51.926 0.451 7.68 18 9.62
1/2/2022 10:45:00 AM 11.11 51.998 0.453 7.69 18.98 9.74
1/2/2022 11:00:00 AM 11.15 52.07 0.456 7.7 199.3 9.84
1/2/2022 11:15:00 AM 11.2 52.16 0.459 7.71 14.47 9.93
1/2/2022 11:30:00 AM 11.24 52.232 0.463 7.72 39.27 10.04
1/2/2022 11:45:00 AM 11.29 52.322 0.467 7.74 114.5 10.16
1/2/2022 12:00:00 PM 11.32 52.376 0.47 7.75 14.53 10.27
1/2/2022 12:15:00 PM 11.37 52.466 0.474 7.76 12.74 10.38
1/2/2022 12:30:00 PM 11.41 52.538 0.477 7.77 14.44 10.44
1/2/2022 12:45:00 PM 11.44 52.592 0.48 7.78 17.72 10.49
1/2/2022 1:00:00 PM 11.49 52.682 0.483 7.79 13.65 10.57
1/2/2022 1:15:00 PM 11.51 52.718 0.486 7.8 30.11 10.54
1/2/2022 1:30:00 PM 11.53 52.754 0.489 7.8 12.46 10.58
1/2/2022 1:45:00 PM 11.54 52.772 0.493 7.81 17.73 10.58
1/2/2022 2:00:00 PM 11.56 52.808 0.497 7.81 13.38 10.65
1/2/2022 2:15:00 PM 11.57 52.826 0.501 7.82 15.21 10.68
1/2/2022 2:30:00 PM 11.58 52.844 0.506 7.83 12.48 10.71
1/2/2022 2:45:00 PM 11.59 52.862 0.512 7.83 11.97 10.68
1/2/2022 3:00:00 PM 11.6 52.88 0.518 7.84 12.27 10.64
1/2/2022 3:15:00 PM 11.59 52.862 0.525 7.84 11.93 10.62
1/2/2022 3:30:00 PM 11.58 52.844 0.533 7.84 11.37 10.64
1/2/2022 3:45:00 PM 11.55 52.79 0.541 7.85 12.63 10.66
1/2/2022 4:00:00 PM 11.52 52.736 0.547 7.85 11.44 10.76
1/2/2022 4:15:00 PM 11.49 52.682 0.551 7.85 10.49 10.81
1/2/2022 4:30:00 PM 11.45 52.61 0.555 7.85 15.1 10.76
1/2/2022 4:45:00 PM 11.41 52.538 0.559 7.85 12.56 10.7
1/2/2022 5:00:00 PM 11.38 52.484 0.561 7.85 14.14 10.61
1/2/2022 5:15:00 PM 11.34 52.412 0.563 7.84 12.01 10.49
1/2/2022 5:30:00 PM 11.3 52.34 0.565 7.84 12.61 10.43
1/2/2022 5:45:00 PM 11.25 52.25 0.566 7.83 11.54 10.37
1/2/2022 6:00:00 PM 11.2 52.16 0.568 7.83 14.85 10.3
1/2/2022 6:15:00 PM 11.16 52.088 0.569 7.83 13.79 10.26
1/2/2022 6:30:00 PM 11.13 52.034 0.57 7.83 11.27 10.21
1/2/2022 6:45:00 PM 11.08 51.944 0.571 7.82 12.62 10.17
1/2/2022 7:00:00 PM 11.05 51.89 0.572 7.82 12.81 10.14
1/2/2022 7:15:00 PM 11 51.8 0.572 7.81 13.72 10.13
1/2/2022 7:30:00 PM 10.95 51.71 0.573 7.81 18.37 10.09
1/2/2022 7:45:00 PM 10.9 51.62 0.574 7.81 41.35 10.09
1/2/2022 8:00:00 PM 10.85 51.53 0.575 7.81 12.3 10.08
1/2/2022 8:15:00 PM 10.8 51.44 0.576 7.81 63.41 10.05
1/2/2022 8:30:00 PM 10.75 51.35 0.576 7.81 65.75 10.04
1/2/2022 8:45:00 PM 10.69 51.242 0.577 7.81 13.68 10.03
1/2/2022 9:00:00 PM 10.64 51.152 0.577 7.81 44.02 10.01
1/2/2022 9:15:00 PM 10.6 51.08 0.578 7.81 16.08 10.02
1/2/2022 9:30:00 PM 10.54 50.972 0.579 7.81 14.95 10.01
1/2/2022 9:45:00 PM 10.49 50.882 0.58 7.81 14.14 10.02
1/2/2022 10:00:00 PM 10.45 50.81 0.58 7.81 15.64 9.99
1/2/2022 10:15:00 PM 10.4 50.72 0.582 7.81 13.85 9.98
1/2/2022 10:30:00 PM 10.35 50.63 0.583 7.8 13.45 9.99
1/2/2022 10:45:00 PM 10.31 50.558 0.585 7.8 13.9 9.96
1/2/2022 11:00:00 PM 10.26 50.468 0.587 7.8 16.35 9.97
1/2/2022 11:15:00 PM 10.22 50.396 0.589 7.8 12.71 9.96
1/2/2022 11:30:00 PM 10.18 50.324 0.591 7.8 11.79 9.96
1/2/2022 11:45:00 PM 10.15 50.27 0.593 7.8 13.9 9.95
1/3/2022 12:00:00 AM 10.11 50.198 0.595 7.8 11.98 9.94
1/3/2022 12:15:00 AM 10.08 50.144 0.598 7.8 13.68 9.95
1/3/2022 12:30:00 AM 10.05 50.09 0.599 7.8 12 9.95
1/3/2022 12:45:00 AM 10.02 50.036 0.601 7.8 22.48 9.94
1/3/2022 1:00:00 AM 9.98 49.964 0.603 7.8 19.55 9.95
1/3/2022 1:15:00 AM 9.95 49.91 0.605 7.8 23.49 9.97
1/3/2022 1:30:00 AM 9.92 49.856 0.606 7.8 12.96 9.97
1/3/2022 1:45:00 AM 9.89 49.802 0.607 7.8 15.2 9.98
1/3/2022 2:00:00 AM 9.86 49.748 0.521 7.8 27.43 10
1/3/2022 2:15:00 AM 9.83 49.694 0.61 7.8 26.75 10
1/3/2022 2:30:00 AM 9.8 49.64 0.611 7.81 25.87 10.01
1/3/2022 2:45:00 AM 9.77 49.586 0.612 7.81 18.33 10.01
1/3/2022 3:00:00 AM 9.73 49.514 0.612 7.81 18.1 10.04
1/3/2022 3:15:00 AM 9.7 49.46 0.613 7.8 26.69 10.05
1/3/2022 3:30:00 AM 9.66 49.388 0.614 7.81 21.37 10.08
1/3/2022 3:45:00 AM 9.62 49.316 0.615 7.81 31.57 10.08
1/3/2022 4:00:00 AM 9.58 49.244 0.616 7.81 25.73 10.11
1/3/2022 4:15:00 AM 9.54 49.172 0.618 7.81 32.26 10.1
1/3/2022 4:30:00 AM 9.5 49.1 0.619 7.81 27.16 10.12
1/3/2022 4:45:00 AM 9.47 49.046 0.62 7.81 20.77 10.13
1/3/2022 5:00:00 AM 9.43 48.974 0.621 7.81 21.11 10.15
1/3/2022 5:15:00 AM 9.39 48.902 0.622 7.81 18.62 10.15
1/3/2022 5:30:00 AM 9.35 48.83 0.623 7.81 24.43 10.16
1/3/2022 5:45:00 AM 9.32 48.776 0.624 7.81 19.13 10.18
1/3/2022 6:00:00 AM 9.29 48.722 0.625 7.82 28.08 10.18
1/3/2022 6:15:00 AM 9.26 48.668 0.626 7.81 47.11 10.18
1/3/2022 6:30:00 AM 9.23 48.614 0.627 7.81 18.89 10.22
1/3/2022 6:45:00 AM 9.18 48.524 0.628 7.81 25.21 10.22
1/3/2022 7:00:00 AM 9.14 48.452 0.628 7.82 27.72 10.24
1/3/2022 7:15:00 AM 9.1 48.38 0.628 7.82 26.87 10.25
1/3/2022 7:30:00 AM 9.06 48.308 0.628 7.82 27.21 10.28
1/3/2022 7:45:00 AM 9.01 48.218 0.629 7.82 42.55 10.29
1/3/2022 8:00:00 AM 8.96 48.128 0.629 7.82 51.46 10.31
1/3/2022 8:15:00 AM 8.9 48.02 0.63 7.82 50.7 10.35
1/3/2022 8:30:00 AM 8.85 47.93 0.63 7.83 57.21 10.37
1/3/2022 8:45:00 AM 8.81 47.858 0.631 7.83 47.98 10.39
1/3/2022 9:00:00 AM 8.76 47.768 0.632 7.83 78.65 10.46
1/3/2022 9:15:00 AM 8.72 47.696 0.632 7.83 40.7 10.5
1/3/2022 9:30:00 AM 8.68 47.624 0.633 7.83 62.99 10.56
1/3/2022 9:45:00 AM 8.64 47.552 0.633 7.84 28.13 10.64
1/3/2022 10:00:00 AM 8.6 47.48 0.634 7.84 14.24 10.71
1/3/2022 10:15:00 AM 8.57 47.426 0.634 7.84 14.98 10.76
1/3/2022 10:30:00 AM 8.54 47.372 0.634 7.85 15.04 10.87
1/3/2022 10:45:00 AM 8.49 47.282 0.635 7.86 11.34 10.95
1/3/2022 11:00:00 AM 8.46 47.228 0.635 7.86 20.58 11.05
1/3/2022 11:15:00 AM 8.44 47.192 0.635 7.87 58.94 11.16
1/3/2022 11:30:00 AM 8.42 47.156 0.635 7.87 13.35 11.27
1/3/2022 11:45:00 AM 8.4 47.12 0.636 7.88 11.08 11.35
1/3/2022 12:00:00 PM 8.38 47.084 0.636 7.89 33.05 11.42
1/3/2022 12:15:00 PM 8.34 47.012 0.636 7.89 17.22 11.5
1/3/2022 12:30:00 PM 8.3 46.94 0.637 7.9 21.91 11.55
1/3/2022 12:45:00 PM 8.28 46.904 0.637 7.91 32.37 11.58
1/3/2022 1:00:00 PM 8.26 46.868 0.637 7.91 12.05 11.64
1/3/2022 1:15:00 PM 8.23 46.814 0.638 7.92 35.45 11.73
1/3/2022 1:30:00 PM 8.21 46.778 0.638 7.92 22.04 11.81
1/3/2022 1:45:00 PM 8.19 46.742 0.639 7.93 81.02 11.89
1/3/2022 2:00:00 PM 8.18 46.724 0.639 7.94 11.95 12.02
1/3/2022 2:15:00 PM 8.17 46.706 0.639 7.94 16.99 12.14
1/3/2022 2:30:00 PM 8.16 46.688 0.639 7.95 14.09 12.24
1/3/2022 2:45:00 PM 8.14 46.652 0.639 7.95 147.3 12.32
1/3/2022 3:00:00 PM 8.12 46.616 0.639 7.96 72.56 12.37
1/3/2022 3:15:00 PM 8.11 46.598 0.639 7.96 30.58 12.4
1/3/2022 3:30:00 PM 8.09 46.562 0.639 7.96 106.9 12.43
1/3/2022 3:45:00 PM 8.07 46.526 0.639 7.97 46.52 12.46
1/3/2022 4:00:00 PM 8.04 46.472 0.639 7.97 10.51 12.51
1/3/2022 4:15:00 PM 8 46.4 0.639 7.98 11.63 12.5
1/3/2022 4:30:00 PM 7.94 46.292 0.639 7.98 22.87 12.41
1/3/2022 4:45:00 PM 7.89 46.202 0.639 7.97 12.73 12.35
1/3/2022 5:00:00 PM 7.83 46.094 0.639 7.97 13.72 12.25
1/3/2022 5:15:00 PM 7.77 45.986 0.639 7.96 9.91 12.14
1/3/2022 5:30:00 PM 7.72 45.896 0.639 7.96 46.52 12.04
1/3/2022 5:45:00 PM 7.67 45.806 0.639 7.95 15.01 11.95
1/3/2022 6:00:00 PM 7.62 45.716 0.639 7.94 32.93 11.87
1/3/2022 6:15:00 PM 7.56 45.608 0.639 7.94 31.68 11.83
1/3/2022 6:30:00 PM 7.52 45.536 0.64 7.93 58.94 11.78
1/3/2022 6:45:00 PM 7.47 45.446 0.64 7.93 132.8 11.75
1/3/2022 7:00:00 PM 7.43 45.374 0.64 7.92 16.18 11.7
1/3/2022 7:15:00 PM 7.39 45.302 0.64 7.92 25.93 11.67
1/3/2022 7:30:00 PM 7.36 45.248 0.64 7.92 67.61 11.65
1/3/2022 7:45:00 PM 7.33 45.194 0.64 7.92 91.21 11.63
1/3/2022 8:00:00 PM 7.3 45.14 0.64 7.92 90.02 11.64
1/3/2022 8:15:00 PM 7.26 45.068 0.641 7.91 51.12 11.61
1/3/2022 8:30:00 PM 7.24 45.032 0.641 7.91 60.71 11.6
1/3/2022 8:45:00 PM 7.2 44.96 0.641 7.91 57.39 11.6
1/3/2022 9:00:00 PM 7.16 44.888 0.642 7.91 51.03 11.57
1/3/2022 9:15:00 PM 7.14 44.852 0.642 7.91 50.53 11.56
1/3/2022 9:30:00 PM 7.11 44.798 0.642 7.9 48.28 11.58
1/3/2022 9:45:00 PM 7.08 44.744 0.643 7.9 35.57 11.54
1/3/2022 10:00:00 PM 7.05 44.69 0.643 7.9 44.5 11.55
1/3/2022 10:15:00 PM 7.03 44.654 0.644 7.91 19 11.54
1/3/2022 10:30:00 PM 7.01 44.618 0.645 7.9 39.52 11.53
1/3/2022 10:45:00 PM 6.98 44.564 0.645 7.91 33.93 11.53
1/3/2022 11:00:00 PM 6.95 44.51 0.646 7.9 44.67 11.5
1/3/2022 11:15:00 PM 6.91 44.438 0.646 7.9 43.14 11.5
1/3/2022 11:30:00 PM 6.86 44.348 0.647 7.9 45.3 11.49
1/3/2022 11:45:00 PM 6.8 44.24 0.647 7.9 39.24 11.44
1/4/2022 12:00:00 AM 6.73 44.114 0.648 7.9 34.3 11.4
1/4/2022 12:15:00 AM 6.67 44.006 0.649 7.88 61.58 11.38
1/4/2022 12:30:00 AM 6.62 43.916 0.649 7.89 57.2 11.34
1/4/2022 12:45:00 AM 6.58 43.844 0.65 7.88 84.44 11.32
1/4/2022 1:00:00 AM 6.55 43.79 0.65 7.88 51.38 11.3
1/4/2022 1:15:00 AM 6.53 43.754 0.651 7.88 27.04 11.3
1/4/2022 1:30:00 AM 6.54 43.772 0.651 7.88 27.76 11.32
1/4/2022 1:45:00 AM 6.56 43.808 0.651 7.88 37.57 11.34
1/4/2022 2:00:00 AM 6.59 43.862 0.651 7.88 33.25 11.4
1/4/2022 2:15:00 AM 6.59 43.862 0.651 7.88 39.48 11.39
1/4/2022 2:30:00 AM 6.59 43.862 0.651 7.88 36.34 11.43
1/4/2022 2:45:00 AM 6.57 43.826 0.651 7.87 76.73 11.45
1/4/2022 3:00:00 AM 6.55 43.79 0.651 7.88 16.28 11.44
1/4/2022 3:15:00 AM 6.54 43.772 0.652 7.88 13.75 11.46
1/4/2022 3:30:00 AM 6.52 43.736 0.652 7.88 13.1 11.47
1/4/2022 3:45:00 AM 6.5 43.7 0.652 7.88 14.92 11.47
1/4/2022 4:00:00 AM 6.48 43.664 0.652 7.87 14.88 11.49
1/4/2022 4:15:00 AM 6.46 43.628 0.652 7.87 63.77 11.46
1/4/2022 4:30:00 AM 6.43 43.574 0.653 7.87 40.32 11.5
1/4/2022 4:45:00 AM 6.41 43.538 0.653 7.87 14.23 11.5
1/4/2022 5:00:00 AM 6.39 43.502 0.653 7.87 75.59 11.53
1/4/2022 5:15:00 AM 6.37 43.466 0.653 7.88 49.28 11.52
1/4/2022 5:30:00 AM 6.35 43.43 0.653 7.88 57.31 11.54
1/4/2022 5:45:00 AM 6.34 43.412 0.654 7.88 66.47 11.54
1/4/2022 6:00:00 AM 6.31 43.358 0.654 7.88 16.69 11.56
1/4/2022 6:15:00 AM 6.29 43.322 0.654 7.88 58.87 11.56
1/4/2022 6:30:00 AM 6.27 43.286 0.654 7.88 74.6 11.55
1/4/2022 6:45:00 AM 6.24 43.232 0.654 7.87 71.34 11.57
1/4/2022 7:00:00 AM 6.22 43.196 0.655 7.88 38.25 11.57
1/4/2022 7:15:00 AM 6.19 43.142 0.655 7.88 58.98 11.59
1/4/2022 7:30:00 AM 6.17 43.106 0.655 7.88 54.45 11.6
1/4/2022 7:45:00 AM 6.15 43.07 0.655 7.88 48.45 11.63
1/4/2022 8:00:00 AM 6.13 43.034 0.656 7.88 51.55 11.66
1/4/2022 8:15:00 AM 6.12 43.016 0.656 7.88 82.29 11.71
1/4/2022 8:30:00 AM 6.11 42.998 0.656 7.88 107.8 11.8
1/4/2022 8:45:00 AM 6.11 42.998 0.656 7.89 92.34 11.85
1/4/2022 9:00:00 AM 6.12 43.016 0.656 7.9 76.64 11.94
1/4/2022 9:15:00 AM 6.15 43.07 0.656 7.9 37.25 12.08
1/4/2022 9:30:00 AM 6.21 43.178 0.656 7.91 110.2 12.22
1/4/2022 9:45:00 AM 6.29 43.322 0.656 7.92 97.81 12.39
1/4/2022 10:00:00 AM 6.35 43.43 0.658 7.93 121.8 12.55
1/4/2022 10:15:00 AM 6.38 43.484 0.665 7.95 93.41 12.73
1/4/2022 10:30:00 AM 6.4 43.52 0.671 7.95 84.02 12.85
1/4/2022 10:45:00 AM 6.43 43.574 0.672 7.97 40.27 13
1/4/2022 11:00:00 AM 6.49 43.682 0.67 7.98 55.65 13.13
1/4/2022 11:15:00 AM 6.57 43.826 0.665 7.99 123.1 13.25
1/4/2022 11:30:00 AM 6.66 43.988 0.662 7.99 57.22 13.37
1/4/2022 11:45:00 AM 6.77 44.186 0.659 8.01 66.95 13.47
1/4/2022 12:00:00 PM 6.86 44.348 0.659 8.02 54.82 13.58
1/4/2022 12:15:00 PM 6.92 44.456 0.659 8.02 21.68 13.64
1/4/2022 12:30:00 PM 6.97 44.546 0.659 8.03 51.63 13.71
1/4/2022 12:45:00 PM 7.02 44.636 0.658 8.04 44.27 13.79
1/4/2022 1:00:00 PM 7.07 44.726 0.657 8.05 88.14 13.85
1/4/2022 1:15:00 PM 7.12 44.816 0.657 8.05 41.7 13.86
1/4/2022 1:30:00 PM 7.16 44.888 0.656 8.06 84.63 13.91
1/4/2022 1:45:00 PM 7.18 44.924 0.656 8.06 117.9 13.95
1/4/2022 2:00:00 PM 7.2 44.96 0.655 8.07 112.5 13.95
1/4/2022 2:15:00 PM 7.22 44.996 0.655 8.07 57.95 13.94
1/4/2022 2:30:00 PM 7.22 44.996 0.655 8.07 80.64 13.97
1/4/2022 2:45:00 PM 7.22 44.996 0.655 8.07 54.39 13.95
1/4/2022 3:00:00 PM 7.21 44.978 0.655 8.07 132.9 13.91
1/4/2022 3:15:00 PM 7.2 44.96 0.655 8.07 134 13.85
1/4/2022 3:30:00 PM 7.19 44.942 0.655 8.06 43.2 13.78
1/4/2022 3:45:00 PM 7.17 44.906 0.655 8.06 56.65 13.68
1/4/2022 4:00:00 PM 7.15 44.87 0.655 8.05 45.84 13.61
1/4/2022 4:15:00 PM 7.13 44.834 0.655 8.05 49.97 13.47
1/4/2022 4:30:00 PM 7.1 44.78 0.655 8.04 92.35 13.38
1/4/2022 4:45:00 PM 7.07 44.726 0.655 8.04 110 13.23
1/4/2022 5:00:00 PM 7.05 44.69 0.655 8.03 145.2 13.11
1/4/2022 5:15:00 PM 7.02 44.636 0.655 8.02 159.1 13.02
1/4/2022 5:30:00 PM 6.99 44.582 0.655 8.02 45.86 12.89
1/4/2022 5:45:00 PM 6.94 44.492 0.655 8.01 61.74 12.8
1/4/2022 6:00:00 PM 6.87 44.366 0.655 8 33.51 12.68
1/4/2022 6:15:00 PM 6.79 44.222 0.656 8 58.74 12.6
1/4/2022 6:30:00 PM 6.72 44.096 0.656 7.99 34.27 12.52
1/4/2022 6:45:00 PM 6.66 43.988 0.656 7.99 90.37 12.43
1/4/2022 7:00:00 PM 6.62 43.916 0.657 7.98 103.1 12.32
1/4/2022 7:15:00 PM 6.58 43.844 0.657 7.98 58.2 12.2
1/4/2022 7:30:00 PM 6.56 43.808 0.657 7.98 52.6 12.14
1/4/2022 7:45:00 PM 6.53 43.754 0.657 7.97 132.5 12.06
1/4/2022 8:00:00 PM 6.51 43.718 0.657 7.97 94.18 11.99
1/4/2022 8:15:00 PM 6.49 43.682 0.657 7.96 32.4 11.93
1/4/2022 8:30:00 PM 6.47 43.646 0.658 7.96 83.06 11.88
1/4/2022 8:45:00 PM 6.45 43.61 0.658 7.96 122.6 11.83
1/4/2022 9:00:00 PM 6.43 43.574 0.658 7.95 67.44 11.77
1/4/2022 9:15:00 PM 6.4 43.52 0.658 7.95 142.2 11.74
1/4/2022 9:30:00 PM 6.38 43.484 0.658 7.94 54.01 11.69
1/4/2022 9:45:00 PM 6.36 43.448 0.658 7.94 73.36 11.66
1/4/2022 10:00:00 PM 6.35 43.43 0.658 7.94 74.67 11.64
1/4/2022 10:15:00 PM 6.34 43.412 0.658 7.93 86.1 11.61
1/4/2022 10:30:00 PM 6.33 43.394 0.658 7.93 99.44 11.58
1/4/2022 10:45:00 PM 6.32 43.376 0.658 7.93 106.6 11.53
1/4/2022 11:00:00 PM 6.31 43.358 0.659 7.92 94.86 11.52
1/4/2022 11:15:00 PM 6.3 43.34 0.659 7.92 120.4 11.47
1/4/2022 11:30:00 PM 6.29 43.322 0.659 7.92 88.92 11.45
1/4/2022 11:45:00 PM 6.29 43.322 0.66 7.92 71.66 11.42
1/5/2022 12:00:00 AM 6.28 43.304 0.66 7.91 64.79 11.39
1/5/2022 12:15:00 AM 6.28 43.304 0.661 7.9 94.18 11.36
1/5/2022 12:30:00 AM 6.27 43.286 0.661 7.9 79.24 11.33
1/5/2022 12:45:00 AM 6.27 43.286 0.661 7.9 48 11.31
1/5/2022 1:00:00 AM 6.26 43.268 0.661 7.9 81.13 11.28
1/5/2022 1:15:00 AM 6.25 43.25 0.662 7.89 83.17 11.26
1/5/2022 1:30:00 AM 6.25 43.25 0.662 7.89 74.67 11.22
1/5/2022 1:45:00 AM 6.24 43.232 0.663 7.89 70.51 11.2
1/5/2022 2:00:00 AM 6.24 43.232 0.663 7.89 46.83 11.2
1/5/2022 2:15:00 AM 6.23 43.214 0.663 7.88 48.03 11.16
1/5/2022 2:30:00 AM 6.22 43.196 0.664 7.88 66.6 11.16
1/5/2022 2:45:00 AM 6.21 43.178 0.664 7.88 54.51 11.14
1/5/2022 3:00:00 AM 6.19 43.142 0.664 7.87 95.04 11.15
1/5/2022 3:15:00 AM 6.18 43.124 0.664 7.87 18.11 11.14
1/5/2022 3:30:00 AM 6.16 43.088 0.664 7.87 31.7 11.14
1/5/2022 3:45:00 AM 6.15 43.07 0.664 7.87 41.84 11.13
1/5/2022 4:00:00 AM 6.13 43.034 0.664 7.86 32.25 11.13
1/5/2022 4:15:00 AM 6.12 43.016 0.664 7.86 38.49 11.13
1/5/2022 4:30:00 AM 6.11 42.998 0.665 7.86 26.13 11.12
1/5/2022 4:45:00 AM 6.09 42.962 0.665 7.86 97.52 11.1
1/5/2022 5:00:00 AM 6.08 42.944 0.665 7.86 47.08 11.12
1/5/2022 5:15:00 AM 6.07 42.926 0.665 7.86 38.18 11.09
1/5/2022 5:30:00 AM 6.06 42.908 0.666 7.86 38.79 11.11
1/5/2022 5:45:00 AM 6.05 42.89 0.666 7.86 10.93 11.12
1/5/2022 6:00:00 AM 6.04 42.872 0.666 7.87 21.2 11.12
1/5/2022 6:15:00 AM 6.03 42.854 0.666 7.86 12.72 11.1
1/5/2022 6:30:00 AM 6.03 42.854 0.666 7.86 17.19 11.1
1/5/2022 6:45:00 AM 6.02 42.836 0.667 7.86 9.77 11.1
1/5/2022 7:00:00 AM 6.02 42.836 0.667 7.86 29.03 11.11
1/5/2022 7:15:00 AM 6.02 42.836 0.667 7.86 21.12 11.07
1/5/2022 7:30:00 AM 6.01 42.818 0.668 7.86 50.1 11.09
1/5/2022 7:45:00 AM 6.01 42.818 0.668 7.85 37.78 11.11
1/5/2022 8:00:00 AM 6.01 42.818 0.668 7.85 26.28 11.12
1/5/2022 8:15:00 AM 6.01 42.818 0.669 7.86 26.82 11.15
1/5/2022 8:30:00 AM 6.02 42.836 0.669 7.86 22.48 11.26
1/5/2022 8:45:00 AM 6.03 42.854 0.669 7.87 19.27 11.34
1/5/2022 9:00:00 AM 6.07 42.926 0.67 7.87 73.14 11.47
1/5/2022 9:15:00 AM 6.11 42.998 0.67 7.88 22.87 11.62
1/5/2022 9:30:00 AM 6.15 43.07 0.67 7.89 30.02 11.75
1/5/2022 9:45:00 AM 6.19 43.142 0.671 7.9 14.54 11.91
1/5/2022 10:00:00 AM 6.24 43.232 0.671 7.91 13.38 12.08
1/5/2022 10:15:00 AM 6.32 43.376 0.671 7.92 28.31 12.2
1/5/2022 10:30:00 AM 6.39 43.502 0.672 7.94 27.49 12.4
1/5/2022 10:45:00 AM 6.45 43.61 0.673 7.94 12.17 12.57
1/5/2022 11:00:00 AM 6.51 43.718 0.674 7.96 17.76 12.71
1/5/2022 11:15:00 AM 6.58 43.844 0.675 7.98 22.87 12.89
1/5/2022 11:30:00 AM 6.67 44.006 0.675 7.98 24.51 13.03
1/5/2022 11:45:00 AM 6.74 44.132 0.674 8 18.78 13.16
1/5/2022 12:00:00 PM 6.83 44.294 0.674 8.01 18.57 13.25
1/5/2022 12:15:00 PM 6.9 44.42 0.673 8.02 14.73 13.4
1/5/2022 12:30:00 PM 6.97 44.546 0.673 8.03 21.01 13.48
1/5/2022 12:45:00 PM 7.03 44.654 0.672 8.03 10.9 13.52
1/5/2022 1:00:00 PM 7.09 44.762 0.671 8.04 19.69 13.59
1/5/2022 1:15:00 PM 7.14 44.852 0.67 8.05 59.37 13.61
1/5/2022 1:30:00 PM 7.18 44.924 0.67 8.06 43.17 13.65
1/5/2022 1:45:00 PM 7.23 45.014 0.669 8.07 21.56 13.66
1/5/2022 2:00:00 PM 7.31 45.158 0.668 8.07 35.87 13.67
1/5/2022 2:15:00 PM 7.37 45.266 0.669 8.07 75.67 13.64
1/5/2022 2:30:00 PM 7.39 45.302 0.675 8.07 46.38 13.57
1/5/2022 2:45:00 PM 7.4 45.32 0.683 8.08 24.98 13.55
1/5/2022 3:00:00 PM 7.41 45.338 0.69 8.07 105.8 13.51
1/5/2022 3:15:00 PM 7.42 45.356 0.694 8.07 29.32 13.45
1/5/2022 3:30:00 PM 7.43 45.374 0.697 8.07 46.56 13.37
1/5/2022 3:45:00 PM 7.44 45.392 0.698 8.07 32.21 13.33
1/5/2022 4:00:00 PM 7.45 45.41 0.699 8.07 11.1 13.26
1/5/2022 4:15:00 PM 7.45 45.41 0.7 8.06 10.89 13.17
1/5/2022 4:30:00 PM 7.45 45.41 0.7 8.06 16.56 13.03
1/5/2022 4:45:00 PM 7.45 45.41 0.701 8.05 10.03 12.88
1/5/2022 5:00:00 PM 7.46 45.428 0.701 8.05 75.18 12.72
1/5/2022 5:15:00 PM 7.47 45.446 0.699 8.04 54.37 12.63
1/5/2022 5:30:00 PM 7.46 45.428 0.695 8.03 17.36 12.59
1/5/2022 5:45:00 PM 7.44 45.392 0.691 8.02 29.68 12.53
1/5/2022 6:00:00 PM 7.42 45.356 0.685 8.01 45.3 12.48
1/5/2022 6:15:00 PM 7.41 45.338 0.678 8.01 67.45 12.4
1/5/2022 6:30:00 PM 7.41 45.338 0.673 8 50.36 12.3
1/5/2022 6:45:00 PM 7.41 45.338 0.669 8 41.13 12.19
1/5/2022 7:00:00 PM 7.4 45.32 0.666 7.99 25.14 12.14
1/5/2022 7:15:00 PM 7.38 45.284 0.665 7.99 18.07 12.07
1/5/2022 7:30:00 PM 7.37 45.266 0.664 7.98 49.71 12
1/5/2022 7:45:00 PM 7.35 45.23 0.663 7.98 36.95 11.94
1/5/2022 8:00:00 PM 7.33 45.194 0.663 7.97 19.61 11.89
1/5/2022 8:15:00 PM 7.32 45.176 0.662 7.97 11.66 11.84
1/5/2022 8:30:00 PM 7.3 45.14 0.662 7.97 12.73 11.8
1/5/2022 8:45:00 PM 7.29 45.122 0.662 7.96 13.29 11.75
1/5/2022 9:00:00 PM 7.27 45.086 0.662 7.96 16.82 11.73
1/5/2022 9:15:00 PM 7.26 45.068 0.662 7.96 15.47 11.67
1/5/2022 9:30:00 PM 7.25 45.05 0.662 7.95 16.81 11.65
1/5/2022 9:45:00 PM 7.24 45.032 0.661 7.95 22.82 11.62
1/5/2022 10:00:00 PM 7.24 45.032 0.662 7.95 13.53 11.58
1/5/2022 10:15:00 PM 7.22 44.996 0.662 7.94 10.82 11.55
1/5/2022 10:30:00 PM 7.21 44.978 0.662 7.94 18.24 11.51
1/5/2022 10:45:00 PM 7.19 44.942 0.662 7.93 16.05 11.47
1/5/2022 11:00:00 PM 7.16 44.888 0.662 7.94 12.22 11.43
1/5/2022 11:15:00 PM 7.11 44.798 0.663 7.93 9.58 11.34
1/5/2022 11:30:00 PM 7.08 44.744 0.664 7.93 10.92 11.31
1/5/2022 11:45:00 PM 7.05 44.69 0.665 7.92 11.6 11.27
1/6/2022 12:00:00 AM 7.03 44.654 0.665 7.91 15.62 11.23
1/6/2022 12:15:00 AM 7.02 44.636 0.666 7.91 58.11 11.18
1/6/2022 12:30:00 AM 7.01 44.618 0.666 7.9 19.54 11.16
1/6/2022 12:45:00 AM 7.02 44.636 0.665 7.91 15.46 11.15
1/6/2022 1:00:00 AM 7.04 44.672 0.665 7.9 16.34 11.16
1/6/2022 1:15:00 AM 7.05 44.69 0.665 7.9 44.32 11.15
1/6/2022 1:30:00 AM 7.05 44.69 0.665 7.89 21.9 11.19
1/6/2022 1:45:00 AM 7.04 44.672 0.665 7.9 13.74 11.19
1/6/2022 2:00:00 AM 7.04 44.672 0.665 7.89 16.46 11.16
1/6/2022 2:15:00 AM 7.02 44.636 0.665 7.89 21.04 11.15
1/6/2022 2:30:00 AM 7.01 44.618 0.665 7.89 34.32 11.15
1/6/2022 2:45:00 AM 7 44.6 0.666 7.88 17.27 11.11
1/6/2022 3:00:00 AM 6.98 44.564 0.665 7.88 16.67 11.11
1/6/2022 3:15:00 AM 6.96 44.528 0.665 7.88 17.34 11.11
1/6/2022 3:30:00 AM 6.95 44.51 0.665 7.88 11.14 11.1
1/6/2022 3:45:00 AM 6.92 44.456 0.665 7.88 20.18 11.12
1/6/2022 4:00:00 AM 6.91 44.438 0.665 7.88 16.41 11.12
1/6/2022 4:15:00 AM 6.89 44.402 0.665 7.88 16.89 11.12
1/6/2022 4:30:00 AM 6.87 44.366 0.666 7.88 10.24 11.1
1/6/2022 4:45:00 AM 6.86 44.348 0.666 7.88 11.88 11.11
1/6/2022 5:00:00 AM 6.85 44.33 0.666 7.88 12.97 11.12
1/6/2022 5:15:00 AM 6.83 44.294 0.666 7.87 13.03 11.12
1/6/2022 5:30:00 AM 6.81 44.258 0.666 7.87 23.99 11.12
1/6/2022 5:45:00 AM 6.8 44.24 0.666 7.87 32.31 11.12
1/6/2022 6:00:00 AM 6.79 44.222 0.666 7.88 14.7 11.13
1/6/2022 6:15:00 AM 6.78 44.204 0.666 7.87 13.72 11.12
1/6/2022 6:30:00 AM 6.77 44.186 0.666 7.87 28.65 11.12
1/6/2022 6:45:00 AM 6.76 44.168 0.667 7.87 21.25 11.12
1/6/2022 7:00:00 AM 6.75 44.15 0.666 7.87 24.99 11.13
1/6/2022 7:15:00 AM 6.74 44.132 0.666 7.87 10.42 11.14
1/6/2022 7:30:00 AM 6.74 44.132 0.666 7.87 10.88 11.15
1/6/2022 7:45:00 AM 6.74 44.132 0.666 7.87 11.36 11.15
1/6/2022 8:00:00 AM 6.74 44.132 0.666 7.87 10.06 11.18
1/6/2022 8:15:00 AM 6.74 44.132 0.666 7.87 44.67 11.25
1/6/2022 8:30:00 AM 6.74 44.132 0.666 7.87 20.42 11.31
1/6/2022 8:45:00 AM 6.75 44.15 0.666 7.88 21.16 11.41
1/6/2022 9:00:00 AM 6.75 44.15 0.666 7.88 12.83 11.48
1/6/2022 9:15:00 AM 6.76 44.168 0.666 7.89 11.42 11.57
1/6/2022 9:30:00 AM 6.77 44.186 0.667 7.89 11.68 11.66
1/6/2022 9:45:00 AM 6.78 44.204 0.667 7.9 30.26 11.79
1/6/2022 10:00:00 AM 6.81 44.258 0.666 7.91 15.79 11.94
1/6/2022 10:15:00 AM 6.85 44.33 0.666 7.92 17 12.12
1/6/2022 10:30:00 AM 6.9 44.42 0.666 7.93 38.37 12.31
1/6/2022 10:45:00 AM 6.94 44.492 0.665 7.94 9.72 12.51
1/6/2022 11:00:00 AM 6.97 44.546 0.665 7.96 16.08 12.7
1/6/2022 11:15:00 AM 6.99 44.582 0.665 7.97 11.33 12.89
1/6/2022 11:30:00 AM 7.03 44.654 0.665 7.99 16.8 13.04
1/6/2022 11:45:00 AM 7.07 44.726 0.664 8 14.73 13.18
1/6/2022 12:00:00 PM 7.11 44.798 0.664 8.01 13.6 13.35
1/6/2022 12:15:00 PM 7.16 44.888 0.664 8.02 29.66 13.48
1/6/2022 12:30:00 PM 7.2 44.96 0.663 8.03 27.1 13.61
1/6/2022 12:45:00 PM 7.25 45.05 0.663 8.05 27.61 13.74
1/6/2022 1:00:00 PM 7.32 45.176 0.663 8.06 38.54 13.85
1/6/2022 1:15:00 PM 7.36 45.248 0.663 8.07 35.77 13.95
1/6/2022 1:30:00 PM 7.38 45.284 0.663 8.08 34.34 13.98
1/6/2022 1:45:00 PM 7.43 45.374 0.663 8.09 138.2 14.07
1/6/2022 2:00:00 PM 7.46 45.428 0.662 8.1 90.9 14.11
1/6/2022 2:15:00 PM 7.46 45.428 0.662 8.1 86.8 14.12
1/6/2022 2:30:00 PM 7.48 45.464 0.663 8.11 92.57 14.12
1/6/2022 2:45:00 PM 7.5 45.5 0.663 8.11 55.41 14.11
1/6/2022 3:00:00 PM 7.49 45.482 0.663 8.11 119.9 14.1
1/6/2022 3:15:00 PM 7.48 45.464 0.663 8.11 40.99 14.04
1/6/2022 3:30:00 PM 7.47 45.446 0.663 8.11 17.59 13.92
1/6/2022 3:45:00 PM 7.47 45.446 0.664 8.1 31.37 13.84
1/6/2022 4:00:00 PM 7.46 45.428 0.664 8.09 39.19 13.72
1/6/2022 4:15:00 PM 7.45 45.41 0.664 8.09 14.94 13.6
1/6/2022 4:30:00 PM 7.44 45.392 0.664 8.08 11.04 13.44
1/6/2022 4:45:00 PM 7.44 45.392 0.664 8.08 9.11 13.29
1/6/2022 5:00:00 PM 7.43 45.374 0.664 8.07 19.95 13.15
1/6/2022 5:15:00 PM 7.42 45.356 0.664 8.06 11.47 13
1/6/2022 5:30:00 PM 7.42 45.356 0.664 8.05 10.32 12.84
1/6/2022 5:45:00 PM 7.41 45.338 0.664 8.04 11.13 12.71
1/6/2022 6:00:00 PM 7.4 45.32 0.664 8.03 12.13 12.59
1/6/2022 6:15:00 PM 7.4 45.32 0.664 8.02 11.28 12.51
1/6/2022 6:30:00 PM 7.39 45.302 0.664 8.01 10.42 12.42
1/6/2022 6:45:00 PM 7.39 45.302 0.664 8 13.01 12.35
1/6/2022 7:00:00 PM 7.39 45.302 0.663 8 10.04 12.29
1/6/2022 7:15:00 PM 7.38 45.284 0.663 8 10.25 12.22
1/6/2022 7:30:00 PM 7.37 45.266 0.663 7.99 10.22 12.16
1/6/2022 7:45:00 PM 7.34 45.212 0.663 7.98 9.54 12.14
1/6/2022 8:00:00 PM 7.31 45.158 0.662 7.99 10.25 12.08
1/6/2022 8:15:00 PM 7.28 45.104 0.662 7.98 10.66 12.01
1/6/2022 8:30:00 PM 7.24 45.032 0.662 7.98 9.41 12
1/6/2022 8:45:00 PM 7.2 44.96 0.662 7.98 8.26 11.94
1/6/2022 9:00:00 PM 7.15 44.87 0.661 7.98 12.25 11.91
1/6/2022 9:15:00 PM 7.12 44.816 0.661 7.97 7.99 11.84
1/6/2022 9:30:00 PM 7.09 44.762 0.661 7.96 7.73 11.8
1/6/2022 9:45:00 PM 7.06 44.708 0.66 7.96 7.85 11.75
1/6/2022 10:00:00 PM 7 44.6 0.66 7.96 8.24 11.72
1/6/2022 10:15:00 PM 6.94 44.492 0.66 7.96 8.57 11.67
1/6/2022 10:30:00 PM 6.87 44.366 0.659 7.96 9.31 11.62
1/6/2022 10:45:00 PM 6.8 44.24 0.659 7.96 7.99 11.57
1/6/2022 11:00:00 PM 6.75 44.15 0.659 7.95 8.21 11.54
1/6/2022 11:15:00 PM 6.72 44.096 0.658 7.95 8.53 11.5
1/6/2022 11:30:00 PM 6.69 44.042 0.658 7.95 9 11.5
1/6/2022 11:45:00 PM 6.66 43.988 0.658 7.94 7.74 11.47
1/7/2022 12:00:00 AM 6.61 43.898 0.658 7.94 9.06 11.45
1/7/2022 12:15:00 AM 6.53 43.754 0.658 7.94 9.59 11.4
1/7/2022 12:30:00 AM 6.47 43.646 0.658 7.94 8.44 11.41
1/7/2022 12:45:00 AM 6.42 43.556 0.658 7.94 8.64 11.37
1/7/2022 1:00:00 AM 6.37 43.466 0.658 7.94 8.91 11.34
1/7/2022 1:15:00 AM 6.32 43.376 0.658 7.94 8.76 11.34
1/7/2022 1:30:00 AM 6.29 43.322 0.658 7.93 9.17 11.33
1/7/2022 1:45:00 AM 6.26 43.268 0.658 7.93 8.33 11.32
1/7/2022 2:00:00 AM 6.25 43.25 0.658 7.92 8.01 11.28
1/7/2022 2:15:00 AM 6.25 43.25 0.659 7.92 8.18 11.29
1/7/2022 2:30:00 AM 6.24 43.232 0.659 7.92 7.86 11.26
1/7/2022 2:45:00 AM 6.25 43.25 0.659 7.91 9.39 11.25
1/7/2022 3:00:00 AM 6.26 43.268 0.66 7.91 8.92 11.22
1/7/2022 3:15:00 AM 6.27 43.286 0.66 7.91 8.32 11.23
1/7/2022 3:30:00 AM 6.28 43.304 0.661 7.9 8.45 11.19
1/7/2022 3:45:00 AM 6.3 43.34 0.661 7.9 9.19 11.18
1/7/2022 4:00:00 AM 6.32 43.376 0.661 7.9 8.97 11.22
1/7/2022 4:15:00 AM 6.33 43.394 0.662 7.9 8.46 11.21
1/7/2022 4:30:00 AM 6.34 43.412 0.662 7.89 8.63 11.2
1/7/2022 4:45:00 AM 6.35 43.43 0.663 7.9 8.87 11.22
1/7/2022 5:00:00 AM 6.35 43.43 0.663 7.89 8.96 11.23
1/7/2022 5:15:00 AM 6.35 43.43 0.663 7.89 8.48 11.21
1/7/2022 5:30:00 AM 6.35 43.43 0.663 7.89 8.2 11.23
1/7/2022 5:45:00 AM 6.35 43.43 0.663 7.89 13.88 11.22
1/7/2022 6:00:00 AM 6.34 43.412 0.663 7.89 15.66 11.21
1/7/2022 6:15:00 AM 6.33 43.394 0.662 7.89 9.51 11.23
1/7/2022 6:30:00 AM 6.31 43.358 0.662 7.89 8.82 11.24
1/7/2022 6:45:00 AM 6.29 43.322 0.661 7.88 8.29 11.26
1/7/2022 7:00:00 AM 6.28 43.304 0.661 7.88 7.93 11.29
1/7/2022 7:15:00 AM 6.25 43.25 0.661 7.88 8.34 11.33
1/7/2022 7:30:00 AM 6.22 43.196 0.661 7.89 9.19 11.31
1/7/2022 7:45:00 AM 6.2 43.16 0.661 7.88 7.99 11.38
1/7/2022 8:00:00 AM 6.19 43.142 0.661 7.89 8.07 11.42
1/7/2022 8:15:00 AM 6.2 43.16 0.661 7.89 7.83 11.55
1/7/2022 8:30:00 AM 6.19 43.142 0.661 7.9 7.83 11.68
1/7/2022 8:45:00 AM 6.2 43.16 0.661 7.91 7.65 11.85
1/7/2022 9:00:00 AM 6.2 43.16 0.661 7.92 5.76 12.06
1/7/2022 9:15:00 AM 6.17 43.106 0.661 7.93 6.19 12.24
1/7/2022 9:30:00 AM 6.15 43.07 0.66 7.95 5.33 12.38
1/7/2022 9:45:00 AM 6.14 43.052 0.66 7.96 5.76 12.57
1/7/2022 10:00:00 AM 6.13 43.034 0.66 7.97 6.02 12.72
1/7/2022 10:15:00 AM 6.14 43.052 0.66 7.98 7 12.91
1/7/2022 10:30:00 AM 6.17 43.106 0.66 8 6.84 13.12
1/7/2022 10:45:00 AM 6.21 43.178 0.66 8.01 7.41 13.35
1/7/2022 11:00:00 AM 6.22 43.196 0.66 8.03 7.94 13.56
1/7/2022 11:15:00 AM 6.23 43.214 0.66 8.04 7.59 13.67
1/7/2022 11:30:00 AM 6.22 43.196 0.66 8.06 7.46 13.74
1/7/2022 11:45:00 AM 6.2 43.16 0.661 8.07 7.7 13.83
1/7/2022 12:00:00 PM 6.22 43.196 0.659 8.07 7.94 13.91
1/7/2022 12:15:00 PM 6.23 43.214 0.66 8.08 32.24 13.99
1/7/2022 12:30:00 PM 6.26 43.268 0.66 8.09 7.51 14.03
1/7/2022 12:45:00 PM 6.31 43.358 0.66 8.1 7.59 14.09
1/7/2022 1:00:00 PM 6.35 43.43 0.66 8.11 7.7 14.15
1/7/2022 1:15:00 PM 6.38 43.484 0.66 8.12 7.18 14.22
1/7/2022 1:30:00 PM 6.4 43.52 0.66 8.13 7.43 14.23
1/7/2022 1:45:00 PM 6.43 43.574 0.66 8.13 8.2 14.36
1/7/2022 2:00:00 PM 6.44 43.592 0.66 8.14 7.81 14.4
1/7/2022 2:15:00 PM 6.43 43.574 0.66 8.15 7.79 14.42
1/7/2022 2:30:00 PM 6.39 43.502 0.661 8.16 7.8 14.46
1/7/2022 2:45:00 PM 6.36 43.448 0.662 8.15 7.93 14.45
1/7/2022 3:00:00 PM 6.33 43.394 0.662 8.15 7.94 14.43
1/7/2022 3:15:00 PM 6.32 43.376 0.662 8.15 7.82 14.46
1/7/2022 3:30:00 PM 6.3 43.34 0.662 8.15 7.39 14.42
1/7/2022 3:45:00 PM 6.27 43.286 0.662 8.15 8.42 14.35
1/7/2022 4:00:00 PM 6.23 43.214 0.663 8.15 7.81 14.25
1/7/2022 4:15:00 PM 6.2 43.16 0.663 8.14 7.71 14.12
1/7/2022 4:30:00 PM 6.17 43.106 0.663 8.13 8.12 13.99
1/7/2022 4:45:00 PM 6.15 43.07 0.663 8.13 7.87 13.81
1/7/2022 5:00:00 PM 6.12 43.016 0.663 8.12 8.04 13.63
1/7/2022 5:15:00 PM 6.08 42.944 0.663 8.11 7.59 13.51
1/7/2022 5:30:00 PM 6.03 42.854 0.663 8.1 7.79 13.33
1/7/2022 5:45:00 PM 5.98 42.764 0.664 8.09 9.06 13.2
1/7/2022 6:00:00 PM 5.92 42.656 0.664 8.08 8.99 13.04
1/7/2022 6:15:00 PM 5.86 42.548 0.665 8.07 8.09 12.97
1/7/2022 6:30:00 PM 5.8 42.44 0.667 8.06 8.3 12.86
1/7/2022 6:45:00 PM 5.73 42.314 0.668 8.06 8.69 12.8
1/7/2022 7:00:00 PM 5.65 42.17 0.67 8.05 8.37 12.7
1/7/2022 7:15:00 PM 5.59 42.062 0.673 8.05 9.28 12.63
1/7/2022 7:30:00 PM 5.52 41.936 0.675 8.04 8.25 12.57
1/7/2022 7:45:00 PM 5.47 41.846 0.678 8.04 9.13 12.51
1/7/2022 8:00:00 PM 5.42 41.756 0.682 8.03 8.79 12.48
1/7/2022 8:15:00 PM 5.38 41.684 0.686 8.02 8.67 12.41
1/7/2022 8:30:00 PM 5.33 41.594 0.692 8.02 10.26 12.38
1/7/2022 8:45:00 PM 5.3 41.54 0.696 8.01 9.18 12.33
1/7/2022 9:00:00 PM 5.26 41.468 0.7 8.01 8.8 12.3
1/7/2022 9:15:00 PM 5.23 41.414 0.704 8 8.73 12.25
1/7/2022 9:30:00 PM 5.2 41.36 0.707 8 8.82 12.2
1/7/2022 9:45:00 PM 5.17 41.306 0.709 7.99 9.23 12.19
1/7/2022 10:00:00 PM 5.14 41.252 0.711 7.99 9.23 12.14
1/7/2022 10:15:00 PM 5.11 41.198 0.712 7.98 8.49 12.09
1/7/2022 10:30:00 PM 5.07 41.126 0.712 7.98 9.14 12.09
1/7/2022 10:45:00 PM 5.04 41.072 0.712 7.97 8.5 12.06
1/7/2022 11:00:00 PM 5.01 41.018 0.711 7.97 8.35 12.04
1/7/2022 11:15:00 PM 4.98 40.964 0.71 7.97 8.69 12
1/7/2022 11:30:00 PM 4.96 40.928 0.708 7.96 8.7 11.98
1/7/2022 11:45:00 PM 4.95 40.91 0.706 7.95 9.3 11.96
1/8/2022 12:00:00 AM 4.92 40.856 0.703 7.95 8.85 11.93
1/8/2022 12:15:00 AM 4.91 40.838 0.7 7.95 9.85 11.89
1/8/2022 12:30:00 AM 4.89 40.802 0.697 7.94 8.37 11.88
1/8/2022 12:45:00 AM 4.87 40.766 0.694 7.94 9.35 11.85
1/8/2022 1:00:00 AM 4.85 40.73 0.692 7.94 11.93 11.85
1/8/2022 1:15:00 AM 4.83 40.694 0.689 7.94 17.12 11.83
1/8/2022 1:30:00 AM 4.81 40.658 0.687 7.93 10.58 11.79
1/8/2022 1:45:00 AM 4.79 40.622 0.685 7.93 10.38 11.81
1/8/2022 2:00:00 AM 4.77 40.586 0.683 7.93 10.48 11.77
1/8/2022 2:15:00 AM 4.74 40.532 0.682 7.93 8.46 11.78
1/8/2022 2:30:00 AM 4.71 40.478 0.681 7.93 9.78 11.78
1/8/2022 2:45:00 AM 4.7 40.46 0.68 7.93 9.94 11.77
1/8/2022 3:00:00 AM 4.68 40.424 0.679 7.93 17.5 11.77
1/8/2022 3:15:00 AM 4.66 40.388 0.678 7.92 10.85 11.74
1/8/2022 3:30:00 AM 4.64 40.352 0.677 7.92 10.28 11.76
1/8/2022 3:45:00 AM 4.63 40.334 0.677 7.92 8.98 11.77
1/8/2022 4:00:00 AM 4.6 40.28 0.676 7.92 10.97 11.75
1/8/2022 4:15:00 AM 4.57 40.226 0.675 7.92 11.87 11.76
1/8/2022 4:30:00 AM 4.54 40.172 0.675 7.91 10.15 11.77
1/8/2022 4:45:00 AM 4.51 40.118 0.675 7.91 9.59 11.77
1/8/2022 5:00:00 AM 4.48 40.064 0.674 7.91 9.66 11.78
1/8/2022 5:15:00 AM 4.45 40.01 0.674 7.91 10.43 11.78
1/8/2022 5:30:00 AM 4.41 39.938 0.674 7.91 10.14 11.79
1/8/2022 5:45:00 AM 4.37 39.866 0.674 7.91 9.8 11.8
1/8/2022 6:00:00 AM 4.34 39.812 0.674 7.91 9.37 11.79
1/8/2022 6:15:00 AM 4.3 39.74 0.674 7.91 10.02 11.83
1/8/2022 6:30:00 AM 4.27 39.686 0.675 7.91 8.88 11.84
1/8/2022 6:45:00 AM 4.23 39.614 0.676 7.9 9.39 11.84
1/8/2022 7:00:00 AM 4.21 39.578 0.678 7.91 10.35 11.85
1/8/2022 7:15:00 AM 4.17 39.506 0.68 7.9 9.56 11.85
1/8/2022 7:30:00 AM 4.13 39.434 0.683 7.9 10.52 11.88
1/8/2022 7:45:00 AM 4.1 39.38 0.686 7.9 9.07 11.92
1/8/2022 8:00:00 AM 4.07 39.326 0.69 7.9 10.27 11.96
1/8/2022 8:15:00 AM 4.04 39.272 0.694 7.91 8.78 12.01
1/8/2022 8:30:00 AM 4.02 39.236 0.7 7.91 8.5 12.06
1/8/2022 8:45:00 AM 4.01 39.218 0.705 7.91 8.48 12.18
1/8/2022 9:00:00 AM 4.01 39.218 0.712 7.92 8 12.3
1/8/2022 9:15:00 AM 4.04 39.272 0.718 7.93 8.39 12.42
1/8/2022 9:30:00 AM 4.07 39.326 0.725 7.93 8.48 12.55
1/8/2022 9:45:00 AM 4.1 39.38 0.731 7.94 9.13 12.71
1/8/2022 10:00:00 AM 4.17 39.506 0.738 7.95 8.9 12.87
1/8/2022 10:15:00 AM 4.24 39.632 0.744 7.96 8.5 13.06
1/8/2022 10:30:00 AM 4.31 39.758 0.75 7.97 9.36 13.23
1/8/2022 10:45:00 AM 4.4 39.92 0.755 7.98 9.2 13.38
1/8/2022 11:00:00 AM 4.49 40.082 0.76 8 8.96 13.56
1/8/2022 11:15:00 AM 4.6 40.28 0.763 8 9.31 13.71
1/8/2022 11:30:00 AM 4.7 40.46 0.767 8.02 8.8 13.83
1/8/2022 11:45:00 AM 4.81 40.658 0.769 8.02 8.55 13.95
1/8/2022 12:00:00 PM 4.91 40.838 0.771 8.03 8.77 14.08
1/8/2022 12:15:00 PM 5.02 41.036 0.772 8.05 8.46 14.15
1/8/2022 12:30:00 PM 5.12 41.216 0.772 8.05 8.57 14.26
1/8/2022 12:45:00 PM 5.23 41.414 0.77 8.07 8.12 14.35
1/8/2022 1:00:00 PM 5.33 41.594 0.767 8.08 8.18 14.44
1/8/2022 1:15:00 PM 5.41 41.738 0.765 8.09 8.5 14.55
1/8/2022 1:30:00 PM 5.47 41.846 0.763 8.1 8.46 14.66
1/8/2022 1:45:00 PM 5.53 41.954 0.761 8.1 9.85 14.73
1/8/2022 2:00:00 PM 5.58 42.044 0.757 8.11 8.95 14.81
1/8/2022 2:15:00 PM 5.65 42.17 0.752 8.12 9.14 14.84
1/8/2022 2:30:00 PM 5.71 42.278 0.747 8.12 11.91 14.85
1/8/2022 2:45:00 PM 5.74 42.332 0.743 8.12 11.17 14.81
1/8/2022 3:00:00 PM 5.75 42.35 0.74 8.12 11.02 14.78
1/8/2022 3:15:00 PM 5.74 42.332 0.737 8.12 11.53 14.71
1/8/2022 3:30:00 PM 5.73 42.314 0.734 8.12 12.95 14.67
1/8/2022 3:45:00 PM 5.7 42.26 0.732 8.11 12.69 14.55
1/8/2022 4:00:00 PM 5.68 42.224 0.729 8.11 12.35 14.48
1/8/2022 4:15:00 PM 5.65 42.17 0.726 8.1 12.4 14.36
1/8/2022 4:30:00 PM 5.62 42.116 0.724 8.09 12.88 14.26
1/8/2022 4:45:00 PM 5.59 42.062 0.722 8.08 11.99 14.13
1/8/2022 5:00:00 PM 5.56 42.008 0.719 8.07 11.65 13.98
1/8/2022 5:15:00 PM 5.54 41.972 0.717 8.07 11.08 13.85
1/8/2022 5:30:00 PM 5.52 41.936 0.715 8.05 11.26 13.72
1/8/2022 5:45:00 PM 5.5 41.9 0.714 8.04 11.29 13.61
1/8/2022 6:00:00 PM 5.49 41.882 0.712 8.03 11.21 13.5
1/8/2022 6:15:00 PM 5.47 41.846 0.711 8.03 11.69 13.42
1/8/2022 6:30:00 PM 5.46 41.828 0.709 8.02 12.26 13.35
1/8/2022 6:45:00 PM 5.44 41.792 0.708 8.02 11.14 13.27
1/8/2022 7:00:00 PM 5.42 41.756 0.706 8.02 11.99 13.22
1/8/2022 7:15:00 PM 5.41 41.738 0.705 8.01 13.75 13.17
1/8/2022 7:30:00 PM 5.39 41.702 0.703 8.01 13.4 13.11
1/8/2022 7:45:00 PM 5.37 41.666 0.702 8.01 12.96 13.07
1/8/2022 8:00:00 PM 5.35 41.63 0.7 8 12.81 13.01
1/8/2022 8:15:00 PM 5.33 41.594 0.699 7.99 13.49 12.95
1/8/2022 8:30:00 PM 5.3 41.54 0.698 7.99 15.3 12.92
1/8/2022 8:45:00 PM 5.28 41.504 0.696 7.99 15.19 12.89
1/8/2022 9:00:00 PM 5.25 41.45 0.695 7.99 17.02 12.86
1/8/2022 9:15:00 PM 5.23 41.414 0.694 7.98 14.57 12.82
1/8/2022 9:30:00 PM 5.2 41.36 0.692 7.98 14.17 12.76
1/8/2022 9:45:00 PM 5.18 41.324 0.691 7.98 13.1 12.73
1/8/2022 10:00:00 PM 5.15 41.27 0.69 7.97 16.43 12.72
1/8/2022 10:15:00 PM 5.13 41.234 0.689 7.97 13.6 12.67
1/8/2022 10:30:00 PM 5.11 41.198 0.688 7.96 14.03 12.66
1/8/2022 10:45:00 PM 5.09 41.162 0.687 7.96 14.17 12.6
1/8/2022 11:00:00 PM 5.07 41.126 0.687 7.96 13.37 12.6
1/8/2022 11:15:00 PM 5.06 41.108 0.686 7.96 12.37 12.56
1/8/2022 11:30:00 PM 5.05 41.09 0.686 7.96 13.49 12.55
1/8/2022 11:45:00 PM 5.03 41.054 0.686 7.95 12.96 12.53
1/9/2022 12:00:00 AM 5.03 41.054 0.686 7.95 11.95 12.5
1/9/2022 12:15:00 AM 5.03 41.054 0.686 7.94 12.49 12.45
1/9/2022 12:30:00 AM 5.05 41.09 0.686 7.94 81.67 12.42
1/9/2022 12:45:00 AM 5.06 41.108 0.686 7.93 75.09 12.38
1/9/2022 1:00:00 AM 5.09 41.162 0.686 7.93 68.55 12.37
1/9/2022 1:15:00 AM 5.11 41.198 0.686 7.92 71.46 12.35
1/9/2022 1:30:00 AM 5.13 41.234 0.686 7.93 65.36 12.33
1/9/2022 1:45:00 AM 5.15 41.27 0.686 7.93 63.92 12.3
1/9/2022 2:00:00 AM 5.18 41.324 0.686 7.92 61.03 12.27
1/9/2022 2:15:00 AM 5.21 41.378 0.686 7.92 57.07 12.26
1/9/2022 2:30:00 AM 5.23 41.414 0.686 7.92 58.8 12.22
1/9/2022 2:45:00 AM 5.25 41.45 0.687 7.92 55.55 12.22
1/9/2022 3:00:00 AM 5.28 41.504 0.687 7.92 53.29 12.21
1/9/2022 3:15:00 AM 5.31 41.558 0.688 7.92 47.12 12.17
1/9/2022 3:30:00 AM 5.34 41.612 0.688 7.91 42.27 12.15
1/9/2022 3:45:00 AM 5.36 41.648 0.689 7.91 44.36 12.13
1/9/2022 4:00:00 AM 5.39 41.702 0.689 7.91 45.61 12.12
1/9/2022 4:15:00 AM 5.41 41.738 0.69 7.92 49.94 12.08
1/9/2022 4:30:00 AM 5.44 41.792 0.69 7.91 52.8 12.08
1/9/2022 4:45:00 AM 5.47 41.846 0.691 7.91 41.17 12.04
1/9/2022 5:00:00 AM 5.5 41.9 0.691 7.9 45.58 12.03
1/9/2022 5:15:00 AM 5.53 41.954 0.692 7.9 42.1 11.99
1/9/2022 5:30:00 AM 5.55 41.99 0.692 7.9 12.66 11.96
1/9/2022 5:45:00 AM 5.58 42.044 0.692 7.89 12.3 11.95
1/9/2022 6:00:00 AM 5.61 42.098 0.692 7.89 11.96 11.94
1/9/2022 6:15:00 AM 5.63 42.134 0.692 7.89 12.6 11.93
1/9/2022 6:30:00 AM 5.65 42.17 0.692 7.89 12.97 11.92
1/9/2022 6:45:00 AM 5.68 42.224 0.692 7.89 12.27 11.91
1/9/2022 7:00:00 AM 5.7 42.26 0.692 7.89 12.76 11.88
1/9/2022 7:15:00 AM 5.72 42.296 0.692 7.89 12.96 11.88
1/9/2022 7:30:00 AM 5.73 42.314 0.692 7.89 13.21 11.85
1/9/2022 7:45:00 AM 5.75 42.35 0.692 7.89 13.3 11.88
1/9/2022 8:00:00 AM 5.76 42.368 0.691 7.89 15.47 11.89
1/9/2022 8:15:00 AM 5.78 42.404 0.691 7.9 13.65 11.88
1/9/2022 8:30:00 AM 5.8 42.44 0.691 7.89 12.65 11.92
1/9/2022 8:45:00 AM 5.83 42.494 0.691 7.9 14.63 11.95
1/9/2022 9:00:00 AM 5.86 42.548 0.691 7.9 13.25 12
1/9/2022 9:15:00 AM 5.88 42.584 0.69 7.91 15.16 12.1
1/9/2022 9:30:00 AM 5.88 42.584 0.689 7.92 12.92 12.17
1/9/2022 9:45:00 AM 5.91 42.638 0.688 7.93 12.91 12.26
1/9/2022 10:00:00 AM 5.93 42.674 0.687 7.93 12.94 12.35
1/9/2022 10:15:00 AM 5.96 42.728 0.686 7.94 13.19 12.49
1/9/2022 10:30:00 AM 6 42.8 0.686 7.95 13.19 12.63
1/9/2022 10:45:00 AM 6.03 42.854 0.685 7.96 13.83 12.77
1/9/2022 11:00:00 AM 6.05 42.89 0.685 7.97 13.4 12.89
1/9/2022 11:15:00 AM 6.08 42.944 0.684 7.98 13.22 12.98
1/9/2022 11:30:00 AM 6.11 42.998 0.685 7.99 12.87 13.06
1/9/2022 11:45:00 AM 6.13 43.034 0.684 8 12.21 13.14
1/9/2022 12:00:00 PM 6.16 43.088 0.684 8.01 13.03 13.21
1/9/2022 12:15:00 PM 6.2 43.16 0.683 8.02 12.22 13.3
1/9/2022 12:30:00 PM 6.24 43.232 0.682 8.02 12.26 13.43
1/9/2022 12:45:00 PM 6.27 43.286 0.682 8.04 12.48 13.56
1/9/2022 1:00:00 PM 6.3 43.34 0.682 8.05 11.91 13.61
1/9/2022 1:15:00 PM 6.31 43.358 0.682 8.05 13.13 13.69
1/9/2022 1:30:00 PM 6.32 43.376 0.684 8.06 11.5 13.74
1/9/2022 1:45:00 PM 6.31 43.358 0.685 8.06 12.33 13.72
1/9/2022 2:00:00 PM 6.32 43.376 0.686 8.06 12.73 13.72
1/9/2022 2:15:00 PM 6.33 43.394 0.688 8.06 12.38 13.66
1/9/2022 2:30:00 PM 6.34 43.412 0.69 8.06 12.08 13.57
1/9/2022 2:45:00 PM 6.36 43.448 0.691 8.06 10.49 13.5
1/9/2022 3:00:00 PM 6.38 43.484 0.692 8.06 11.32 13.39
1/9/2022 3:15:00 PM 6.4 43.52 0.693 8.06 12.49 13.33
1/9/2022 3:30:00 PM 6.42 43.556 0.694 8.05 12.28 13.26
1/9/2022 3:45:00 PM 6.44 43.592 0.695 8.05 12.01 13.13
1/9/2022 4:00:00 PM 6.45 43.61 0.696 8.04 13.46 13
1/9/2022 4:15:00 PM 6.47 43.646 0.696 8.03 12.74 12.92
1/9/2022 4:30:00 PM 6.48 43.664 0.697 8.03 16.03 12.82
1/9/2022 4:45:00 PM 6.49 43.682 0.701 8.03 14.54 12.7
1/9/2022 5:00:00 PM 6.5 43.7 0.71 8.01 13.24 12.59
1/9/2022 5:15:00 PM 6.51 43.718 0.727 8 12.03 12.46
1/9/2022 5:30:00 PM 6.52 43.736 0.746 7.99 14.34 12.38
1/9/2022 5:45:00 PM 6.52 43.736 0.763 7.98 10.9 12.27
1/9/2022 6:00:00 PM 6.53 43.754 0.774 7.98 11.29 12.18
1/9/2022 6:15:00 PM 6.54 43.772 0.78 7.97 12.35 12.08
1/9/2022 6:30:00 PM 6.55 43.79 0.78 7.96 11.52 12
1/9/2022 6:45:00 PM 6.55 43.79 0.776 7.95 13.44 11.94
1/9/2022 7:00:00 PM 6.56 43.808 0.768 7.95 13.42 11.89
1/9/2022 7:15:00 PM 6.57 43.826 0.76 7.95 13.8 11.83
1/9/2022 7:30:00 PM 6.58 43.844 0.75 7.94 14.72 11.76
1/9/2022 7:45:00 PM 6.6 43.88 0.74 7.94 14.28 11.72
1/9/2022 8:00:00 PM 6.61 43.898 0.731 7.94 14.89 11.65
1/9/2022 8:15:00 PM 6.63 43.934 0.723 7.93 14.04 11.65
1/9/2022 8:30:00 PM 6.65 43.97 0.716 7.93 14.19 11.59
1/9/2022 8:45:00 PM 6.66 43.988 0.711 7.93 16.6 11.57
1/9/2022 9:00:00 PM 6.67 44.006 0.706 7.93 15.13 11.53
1/9/2022 9:15:00 PM 6.69 44.042 0.702 7.92 15.48 11.48
1/9/2022 9:30:00 PM 6.7 44.06 0.698 7.92 14.34 11.43
1/9/2022 9:45:00 PM 6.71 44.078 0.696 7.92 14.12 11.4
1/9/2022 10:00:00 PM 6.71 44.078 0.693 7.92 13.66 11.39
1/9/2022 10:15:00 PM 6.71 44.078 0.692 7.92 14.95 11.35
1/9/2022 10:30:00 PM 6.71 44.078 0.691 7.92 15.06 11.3
1/9/2022 10:45:00 PM 6.7 44.06 0.69 7.91 14.28 11.28
1/9/2022 11:00:00 PM 6.7 44.06 0.689 7.91 13.16 11.26
1/9/2022 11:15:00 PM 6.69 44.042 0.689 7.9 13.25 11.22
1/9/2022 11:30:00 PM 6.68 44.024 0.69 7.91 12.69 11.18
1/9/2022 11:45:00 PM 6.66 43.988 0.69 7.9 13.08 11.15
1/10/2022 12:00:00 AM 6.65 43.97 0.692 7.91 12.1 11.13
1/10/2022 12:15:00 AM 6.63 43.934 0.694 7.9 13.19 11.13
1/10/2022 12:30:00 AM 6.61 43.898 0.696 7.9 15.72 11.11
1/10/2022 12:45:00 AM 6.59 43.862 0.698 7.89 12.87 11.11
1/10/2022 1:00:00 AM 6.56 43.808 0.7 7.89 15.27 11.09
1/10/2022 1:15:00 AM 6.54 43.772 0.701 7.89 13.89 11.06
1/10/2022 1:30:00 AM 6.51 43.718 0.703 7.88 13.02 11.04
1/10/2022 1:45:00 AM 6.5 43.7 0.703 7.88 14.2 11.02
1/10/2022 2:00:00 AM 6.48 43.664 0.704 7.88 15.66 11
1/10/2022 2:15:00 AM 6.44 43.592 0.703 7.88 15.65 10.97
1/10/2022 2:30:00 AM 6.41 43.538 0.703 7.88 14.18 10.97
1/10/2022 2:45:00 AM 6.39 43.502 0.703 7.88 13.47 10.96
1/10/2022 3:00:00 AM 6.37 43.466 0.704 7.88 13.76 10.94
1/10/2022 3:15:00 AM 6.35 43.43 0.705 7.88 13.81 10.94
1/10/2022 3:30:00 AM 6.3 43.34 0.707 7.87 13.32 10.93
1/10/2022 3:45:00 AM 6.29 43.322 0.71 7.87 14.19 10.93
1/10/2022 4:00:00 AM 6.27 43.286 0.717 7.87 13.82 10.93
1/10/2022 4:15:00 AM 6.25 43.25 0.727 7.87 14.57 10.91
1/10/2022 4:30:00 AM 6.24 43.232 0.741 7.87 13.27 10.9
1/10/2022 4:45:00 AM 6.21 43.178 0.76 7.87 17.2 10.89
1/10/2022 5:00:00 AM 6.18 43.124 0.783 7.86 17.3 10.89
1/10/2022 5:15:00 AM 6.16 43.088 0.812 7.85 18.5 10.86
1/10/2022 5:30:00 AM 6.12 43.016 0.846 7.85 17.71 10.86
1/10/2022 5:45:00 AM 6.08 42.944 0.883 7.85 18.22 10.84
1/10/2022 6:00:00 AM 6.05 42.89 0.922 7.84 17.26 10.84
1/10/2022 6:15:00 AM 6.01 42.818 0.963 7.84 15.51 10.83
1/10/2022 6:30:00 AM 5.96 42.728 1.002 7.83 15.4 10.82
1/10/2022 6:45:00 AM 5.93 42.674 1.041 7.83 16.95 10.79
1/10/2022 7:00:00 AM 5.9 42.62 1.074 7.82 14.08 10.79
1/10/2022 7:15:00 AM 5.88 42.584 1.105 7.82 17.28 10.78
1/10/2022 7:30:00 AM 5.85 42.53 1.132 7.81 13.73 10.77
1/10/2022 7:45:00 AM 5.83 42.494 1.153 7.81 14.8 10.79
1/10/2022 8:00:00 AM 5.79 42.422 1.17 7.81 16.03 10.82
1/10/2022 8:15:00 AM 5.75 42.35 1.181 7.81 15.57 10.87
1/10/2022 8:30:00 AM 5.71 42.278 1.187 7.81 14.51 10.99
1/10/2022 8:45:00 AM 5.68 42.224 1.189 7.82 14.09 11.08
1/10/2022 9:00:00 AM 5.64 42.152 1.186 7.82 14.35 11.17
1/10/2022 9:15:00 AM 5.61 42.098 1.179 7.83 14.37 11.31
1/10/2022 9:30:00 AM 5.58 42.044 1.169 7.84 15.14 11.46
1/10/2022 9:45:00 AM 5.56 42.008 1.155 7.85 14.74 11.6
1/10/2022 10:00:00 AM 5.56 42.008 1.14 7.86 16.83 11.8
1/10/2022 10:15:00 AM 5.59 42.062 1.121 7.88 17.83 11.98
1/10/2022 10:30:00 AM 5.62 42.116 1.102 7.89 16.83 12.16
1/10/2022 10:45:00 AM 5.67 42.206 1.081 7.9 16.31 12.36
1/10/2022 11:00:00 AM 5.74 42.332 1.054 7.92 16.61 12.56
1/10/2022 11:15:00 AM 5.81 42.458 1.025 7.94 15.52 12.77
1/10/2022 11:30:00 AM 5.87 42.566 1.003 7.95 17.46 12.91
1/10/2022 11:45:00 AM 5.88 42.584 0.991 7.97 16.6 13.1
1/10/2022 12:00:00 PM 5.87 42.566 0.982 7.98 15.87 13.27
1/10/2022 12:15:00 PM 5.87 42.566 0.974 8 16.44 13.43
1/10/2022 12:30:00 PM 5.88 42.584 0.966 8.01 17.83 13.55
1/10/2022 12:45:00 PM 5.89 42.602 0.956 8.02 16.1 13.64
1/10/2022 1:00:00 PM 5.9 42.62 0.947 8.03 16.45 13.72
1/10/2022 1:15:00 PM 5.93 42.674 0.938 8.04 16.03 13.79
1/10/2022 1:30:00 PM 6.01 42.818 0.928 8.04 17.98 13.86
1/10/2022 1:45:00 PM 6.03 42.854 0.92 8.05 17.36 13.96
1/10/2022 2:00:00 PM 6.01 42.818 0.912 8.06 17.09 14
1/10/2022 2:15:00 PM 6.03 42.854 0.905 8.07 17.3 14.02
1/10/2022 2:30:00 PM 6.03 42.854 0.898 8.07 17.18 14.04
1/10/2022 2:45:00 PM 6.03 42.854 0.891 8.07 19.5 14.06
1/10/2022 3:00:00 PM 6 42.8 0.887 8.08 17.93 14.07
1/10/2022 3:15:00 PM 5.94 42.692 0.884 8.08 21.12 14.03
1/10/2022 3:30:00 PM 5.89 42.602 0.878 8.08 18.12 13.97
1/10/2022 3:45:00 PM 5.88 42.584 0.868 8.08 20.89 13.91
1/10/2022 4:00:00 PM 5.87 42.566 0.856 8.08 18.55 13.81
1/10/2022 4:15:00 PM 5.87 42.566 0.845 8.07 17.82 13.73
1/10/2022 4:30:00 PM 5.86 42.548 0.832 8.06 20.84 13.59
1/10/2022 4:45:00 PM 5.85 42.53 0.819 8.06 18.54 13.48
1/10/2022 5:00:00 PM 5.84 42.512 0.805 8.05 19.55 13.36
1/10/2022 5:15:00 PM 5.82 42.476 0.795 8.05 19.71 13.34
1/10/2022 5:30:00 PM 5.81 42.458 0.788 8.04 18.36 13.35
1/10/2022 5:45:00 PM 5.8 42.44 0.782 8.03 21.05 13.33
1/10/2022 6:00:00 PM 5.79 42.422 0.777 8.02 20.12 13.25
1/10/2022 6:15:00 PM 5.77 42.386 0.772 8.02 17.24 13.18
1/10/2022 6:30:00 PM 5.76 42.368 0.768 8.02 17.9 13.11
1/10/2022 6:45:00 PM 5.75 42.35 0.764 8.01 18.28 13.04
1/10/2022 7:00:00 PM 5.74 42.332 0.761 8.01 17.69 12.95
1/10/2022 7:15:00 PM 5.73 42.314 0.757 8.01 16.81 12.91
1/10/2022 7:30:00 PM 5.71 42.278 0.754 8 16.46 12.83
1/10/2022 7:45:00 PM 5.67 42.206 0.751 8 14.87 12.79
1/10/2022 8:00:00 PM 5.63 42.134 0.748 8 15 12.74
1/10/2022 8:15:00 PM 5.59 42.062 0.745 8 17.45 12.69
1/10/2022 8:30:00 PM 5.55 41.99 0.742 7.99 16.75 12.64
1/10/2022 8:45:00 PM 5.51 41.918 0.74 7.99 17.58 12.61
1/10/2022 9:00:00 PM 5.47 41.846 0.738 7.98 17.59 12.57
1/10/2022 9:15:00 PM 5.43 41.774 0.736 7.98 20.43 12.53
1/10/2022 9:30:00 PM 5.41 41.738 0.734 7.97 21.09 12.5
1/10/2022 9:45:00 PM 5.37 41.666 0.732 7.97 18.7 12.47
1/10/2022 10:00:00 PM 5.34 41.612 0.731 7.96 19.89 12.43
1/10/2022 10:15:00 PM 5.31 41.558 0.73 7.96 20.3 12.43
1/10/2022 10:30:00 PM 5.28 41.504 0.729 7.96 19.3 12.39
1/10/2022 10:45:00 PM 5.25 41.45 0.728 7.96 19.53 12.34
1/10/2022 11:00:00 PM 5.21 41.378 0.728 7.95 21.16 12.31
1/10/2022 11:15:00 PM 5.17 41.306 0.729 7.95 20.12 12.28
1/10/2022 11:30:00 PM 5.12 41.216 0.731 7.94 21.62 12.21
1/10/2022 11:45:00 PM 5.07 41.126 0.732 7.93 22.16 12.17
1/11/2022 12:00:00 AM 5.03 41.054 0.732 7.93 22.25 12.14
1/11/2022 12:15:00 AM 4.99 40.982 0.732 7.93 21.54 12.09
1/11/2022 12:30:00 AM 4.96 40.928 0.731 7.92 21.28 12.05
1/11/2022 12:45:00 AM 4.94 40.892 0.73 7.92 23.93 12.04
1/11/2022 1:00:00 AM 4.95 40.91 0.728 7.92 22.09 12.04
1/11/2022 1:15:00 AM 4.98 40.964 0.725 7.91 24.66 12.05
1/11/2022 1:30:00 AM 4.99 40.982 0.722 7.91 22.17 12.06
1/11/2022 1:45:00 AM 4.98 40.964 0.721 7.91 21.52 12.08
1/11/2022 2:00:00 AM 4.97 40.946 0.719 7.91 20.61 12.07
1/11/2022 2:15:00 AM 4.94 40.892 0.719 7.91 23.55 12.09
1/11/2022 2:30:00 AM 4.92 40.856 0.718 7.92 22.85 12.09
1/11/2022 2:45:00 AM 4.88 40.784 0.717 7.91 22.05 12.06
1/11/2022 3:00:00 AM 4.83 40.694 0.716 7.91 19.86 12.08
1/11/2022 3:15:00 AM 4.79 40.622 0.715 7.91 20.85 12.06
1/11/2022 3:30:00 AM 4.75 40.55 0.715 7.91 25.65 12.09
1/11/2022 3:45:00 AM 4.71 40.478 0.714 7.9 21.89 12.1
1/11/2022 4:00:00 AM 4.66 40.388 0.713 7.91 20.53 12.11
1/11/2022 4:15:00 AM 4.61 40.298 0.713 7.9 21.11 12.12
1/11/2022 4:30:00 AM 4.57 40.226 0.713 7.91 23.49 12.12
1/11/2022 4:45:00 AM 4.54 40.172 0.712 7.91 20.99 12.13
1/11/2022 5:00:00 AM 4.51 40.118 0.711 7.9 22.77 12.13
1/11/2022 5:15:00 AM 4.49 40.082 0.711 7.9 23.15 12.16
1/11/2022 5:30:00 AM 4.46 40.028 0.711 7.9 21.96 12.16
1/11/2022 5:45:00 AM 4.44 39.992 0.71 7.9 21.56 12.15
1/11/2022 6:00:00 AM 4.44 39.992 0.71 7.9 23.42 12.14
1/11/2022 6:15:00 AM 4.44 39.992 0.71 7.9 21.69 12.16
1/11/2022 6:30:00 AM 4.44 39.992 0.71 7.89 22.28 12.17
1/11/2022 6:45:00 AM 4.44 39.992 0.709 7.89 23.35 12.17
1/11/2022 7:00:00 AM 4.44 39.992 0.709 7.9 22.8 12.18
1/11/2022 7:15:00 AM 4.45 40.01 0.709 7.9 23.66 12.19
1/11/2022 7:30:00 AM 4.45 40.01 0.709 7.9 20.68 12.21
1/11/2022 7:45:00 AM 4.43 39.974 0.709 7.89 23.73 12.2
1/11/2022 8:00:00 AM 4.41 39.938 0.709 7.9 21.87 12.24
1/11/2022 8:15:00 AM 4.39 39.902 0.709 7.9 25.82 12.29
1/11/2022 8:30:00 AM 4.37 39.866 0.709 7.9 25.65 12.36
1/11/2022 8:45:00 AM 4.35 39.83 0.708 7.9 27.24 12.4
1/11/2022 9:00:00 AM 4.33 39.794 0.708 7.9 24.67 12.5
1/11/2022 9:15:00 AM 4.32 39.776 0.708 7.91 25.31 12.61
1/11/2022 9:30:00 AM 4.33 39.794 0.708 7.92 25.58 12.74
1/11/2022 9:45:00 AM 4.34 39.812 0.707 7.92 24.73 12.89
1/11/2022 10:00:00 AM 4.38 39.884 0.707 7.93 21.92 13.06
1/11/2022 10:15:00 AM 4.41 39.938 0.706 7.94 19.78 13.24
1/11/2022 10:30:00 AM 4.44 39.992 0.706 7.95 22.01 13.41
1/11/2022 10:45:00 AM 4.52 40.136 0.705 7.96 22.57 13.53
1/11/2022 11:00:00 AM 4.56 40.208 0.705 7.97 18.24 13.72
1/11/2022 11:15:00 AM 4.61 40.298 0.705 7.99 15.14 13.85
1/11/2022 11:30:00 AM 4.67 40.406 0.705 8 14.19 13.95
1/11/2022 11:45:00 AM 4.74 40.532 0.705 8 19.29 14.06
1/11/2022 12:00:00 PM 4.82 40.676 0.704 8.01 20.99 14.15
1/11/2022 12:15:00 PM 4.91 40.838 0.704 8.02 21.36 14.28
1/11/2022 12:30:00 PM 4.98 40.964 0.704 8.03 21.01 14.34
1/11/2022 12:45:00 PM 5.05 41.09 0.704 8.04 22.06 14.42
1/11/2022 1:00:00 PM 5.08 41.144 0.703 8.04 21.74 14.45
1/11/2022 1:15:00 PM 5.13 41.234 0.703 8.05 19.15 14.52
1/11/2022 1:30:00 PM 5.17 41.306 0.703 8.05 22.04 14.55
1/11/2022 1:45:00 PM 5.18 41.324 0.703 8.05 23.19 14.58
1/11/2022 2:00:00 PM 5.21 41.378 0.703 8.06 16.77 14.59
1/11/2022 2:15:00 PM 5.24 41.432 0.702 8.06 19.93 14.66
1/11/2022 2:30:00 PM 5.22 41.396 0.702 8.06 16.98 14.69
1/11/2022 2:45:00 PM 5.2 41.36 0.702 8.07 17.82 14.62
1/11/2022 3:00:00 PM 5.18 41.324 0.702 8.06 18.38 14.59
1/11/2022 3:15:00 PM 5.16 41.288 0.702 8.06 18.46 14.54
1/11/2022 3:30:00 PM 5.13 41.234 0.702 8.06 19.02 14.51
1/11/2022 3:45:00 PM 5.08 41.144 0.702 8.07 18.14 14.46
1/11/2022 4:00:00 PM 5.04 41.072 0.702 8.07 18.44 14.42
1/11/2022 4:15:00 PM 5.01 41.018 0.701 8.06 19.2 14.33
1/11/2022 4:30:00 PM 4.98 40.964 0.701 8.06 20.04 14.25
1/11/2022 4:45:00 PM 4.96 40.928 0.701 8.05 19.66 14.16
1/11/2022 5:00:00 PM 4.93 40.874 0.7 8.04 18.22 14.06
1/11/2022 5:15:00 PM 4.91 40.838 0.7 8.04 20.7 13.93
1/11/2022 5:30:00 PM 4.88 40.784 0.699 8.03 19.2 13.87
1/11/2022 5:45:00 PM 4.86 40.748 0.699 8.02 20.57 13.73
1/11/2022 6:00:00 PM 4.84 40.712 0.698 8.02 18.9 13.65
1/11/2022 6:15:00 PM 4.82 40.676 0.697 8.01 20.01 13.58
1/11/2022 6:30:00 PM 4.79 40.622 0.696 8.01 18.47 13.52
1/11/2022 6:45:00 PM 4.76 40.568 0.695 8 22.65 13.46
1/11/2022 7:00:00 PM 4.73 40.514 0.694 8 19.17 13.39
1/11/2022 7:15:00 PM 4.69 40.442 0.693 7.99 19.32 13.36
1/11/2022 7:30:00 PM 4.65 40.37 0.692 7.99 19.52 13.31
1/11/2022 7:45:00 PM 4.62 40.316 0.692 7.99 20.86 13.28
1/11/2022 8:00:00 PM 4.6 40.28 0.691 7.98 20.37 13.23
1/11/2022 8:15:00 PM 4.56 40.208 0.69 7.98 22.94 13.2
1/11/2022 8:30:00 PM 4.54 40.172 0.69 7.98 20.18 13.18
1/11/2022 8:45:00 PM 4.51 40.118 0.69 7.98 19.18 13.13
1/11/2022 9:00:00 PM 4.48 40.064 0.689 7.97 20.11 13.11
1/11/2022 9:15:00 PM 4.46 40.028 0.689 7.97 23.21 13.07
1/11/2022 9:30:00 PM 4.44 39.992 0.689 7.97 21.46 13.05
1/11/2022 9:45:00 PM 4.42 39.956 0.689 7.97 21.43 12.99
1/11/2022 10:00:00 PM 4.4 39.92 0.689 7.97 22.83 12.99
1/11/2022 10:15:00 PM 4.38 39.884 0.689 7.97 22.34 12.95
1/11/2022 10:30:00 PM 4.36 39.848 0.689 7.97 21.44 12.94
1/11/2022 10:45:00 PM 4.34 39.812 0.689 7.96 22.71 12.92
1/11/2022 11:00:00 PM 4.32 39.776 0.689 7.96 20.96 12.9
1/11/2022 11:15:00 PM 4.29 39.722 0.689 7.96 22.27 12.87
1/11/2022 11:30:00 PM 4.28 39.704 0.69 7.96 23.05 12.86
1/11/2022 11:45:00 PM 4.26 39.668 0.69 7.96 21.52 12.82
1/12/2022 12:00:00 AM 4.24 39.632 0.69 7.95 20.33 12.79
1/12/2022 12:15:00 AM 4.23 39.614 0.691 7.94 23.19 12.77
1/12/2022 12:30:00 AM 4.21 39.578 0.691 7.94 21.58 12.74
1/12/2022 12:45:00 AM 4.2 39.56 0.691 7.94 25.51 12.69
1/12/2022 1:00:00 AM 4.19 39.542 0.691 7.94 22.58 12.68
1/12/2022 1:15:00 AM 4.19 39.542 0.692 7.94 23.74 12.66
1/12/2022 1:30:00 AM 4.17 39.506 0.692 7.93 21.37 12.63
1/12/2022 1:45:00 AM 4.16 39.488 0.692 7.93 23.84 12.62
1/12/2022 2:00:00 AM 4.14 39.452 0.692 7.93 24.55 12.58
1/12/2022 2:15:00 AM 4.13 39.434 0.692 7.92 25.26 12.58
1/12/2022 2:30:00 AM 4.12 39.416 0.692 7.92 22.97 12.56
1/12/2022 2:45:00 AM 4.1 39.38 0.691 7.91 21.33 12.53
1/12/2022 3:00:00 AM 4.09 39.362 0.691 7.9 22.7 12.52
1/12/2022 3:15:00 AM 4.07 39.326 0.691 7.9 21.73 12.52
1/12/2022 3:30:00 AM 4.06 39.308 0.691 7.9 23.88 12.51
1/12/2022 3:45:00 AM 4.05 39.29 0.691 7.9 21.15 12.5
1/12/2022 4:00:00 AM 4.04 39.272 0.691 7.9 21.48 12.47
1/12/2022 4:15:00 AM 4.03 39.254 0.691 7.89 22.5 12.47
1/12/2022 4:30:00 AM 4.01 39.218 0.691 7.89 16.2 12.46
1/12/2022 4:45:00 AM 4 39.2 0.692 7.89 20.71 12.45
1/12/2022 5:00:00 AM 3.99 39.182 0.692 7.88 21 12.42
1/12/2022 5:15:00 AM 3.97 39.146 0.692 7.88 20.21 12.4
1/12/2022 5:30:00 AM 3.97 39.146 0.692 7.88 21.34 12.38
1/12/2022 5:45:00 AM 3.96 39.128 0.692 7.87 22.89 12.38
1/12/2022 6:00:00 AM 3.95 39.11 0.692 7.87 22.75 12.37
1/12/2022 6:15:00 AM 3.94 39.092 0.692 7.87 22.95 12.36
1/12/2022 6:30:00 AM 3.93 39.074 0.692 7.87 31.94 12.37
1/12/2022 6:45:00 AM 3.92 39.056 0.692 7.86 30.07 12.36
1/12/2022 7:00:00 AM 3.9 39.02 0.691 7.86 26.26 12.35
1/12/2022 7:15:00 AM 3.88 38.984 0.691 7.87 27.45 12.35
1/12/2022 7:30:00 AM 3.85 38.93 0.691 7.87 26.51 12.36
1/12/2022 7:45:00 AM 3.82 38.876 0.691 7.88 28.97 12.37
1/12/2022 8:00:00 AM 3.77 38.786 0.692 7.87 26.93 12.37
1/12/2022 8:15:00 AM 3.71 38.678 0.692 7.88 28.73 12.36
1/12/2022 8:30:00 AM 3.67 38.606 0.693 7.88 26.01 12.42
1/12/2022 8:45:00 AM 3.63 38.534 0.693 7.89 32.1 12.48
1/12/2022 9:00:00 AM 3.61 38.498 0.693 7.89 28.84 12.52
1/12/2022 9:15:00 AM 3.57 38.426 0.695 7.89 29.37 12.58
1/12/2022 9:30:00 AM 3.52 38.336 0.696 7.89 32.19 12.62
1/12/2022 9:45:00 AM 3.49 38.282 0.698 7.89 24.06 12.68
1/12/2022 10:00:00 AM 3.52 38.336 0.698 7.9 29.12 12.79
1/12/2022 10:15:00 AM 3.6 38.48 0.696 7.9 28.65 12.93
1/12/2022 10:30:00 AM 3.69 38.642 0.695 7.9 29.59 13.06
1/12/2022 10:45:00 AM 3.78 38.804 0.694 7.92 28.86 13.16
1/12/2022 11:00:00 AM 3.89 39.002 0.693 7.93 26.04 13.29
1/12/2022 11:15:00 AM 3.99 39.182 0.692 7.94 24.48 13.43
1/12/2022 11:30:00 AM 4.07 39.326 0.692 7.96 24.94 13.56
1/12/2022 11:45:00 AM 4.14 39.452 0.691 7.97 23.59 13.66
1/12/2022 12:00:00 PM 4.21 39.578 0.69 7.98 24.48 13.79
1/12/2022 12:15:00 PM 4.28 39.704 0.69 7.98 18.94 13.87
1/12/2022 12:30:00 PM 4.35 39.83 0.69 7.99 24.05 14
1/12/2022 12:45:00 PM 4.42 39.956 0.689 8 18.16 14.1
1/12/2022 1:00:00 PM 4.48 40.064 0.689 8.02 17.92 14.19
1/12/2022 1:15:00 PM 4.54 40.172 0.688 8.03 19.28 14.3
1/12/2022 1:30:00 PM 4.61 40.298 0.688 8.04 20.7 14.37
1/12/2022 1:45:00 PM 4.67 40.406 0.688 8.05 19.24 14.45
1/12/2022 2:00:00 PM 4.73 40.514 0.688 8.05 21.28 14.5
1/12/2022 2:15:00 PM 4.78 40.604 0.688 8.05 21.97 14.53
1/12/2022 2:30:00 PM 4.84 40.712 0.688 8.06 20.5 14.59
1/12/2022 2:45:00 PM 4.89 40.802 0.688 8.06 24.92 14.62
1/12/2022 3:00:00 PM 4.93 40.874 0.688 8.07 23.53 14.63
1/12/2022 3:15:00 PM 4.97 40.946 0.688 8.07 21.41 14.63
1/12/2022 3:30:00 PM 5.01 41.018 0.688 8.07 23.32 14.6
1/12/2022 3:45:00 PM 5.04 41.072 0.688 8.08 20.81 14.56
1/12/2022 4:00:00 PM 5.06 41.108 0.688 8.08 26.86 14.5
1/12/2022 4:15:00 PM 5.07 41.126 0.688 8.08 27.57 14.41
1/12/2022 4:30:00 PM 5.07 41.126 0.688 8.07 28.74 14.29
1/12/2022 4:45:00 PM 5.07 41.126 0.688 8.07 27.19 14.16
1/12/2022 5:00:00 PM 5.07 41.126 0.688 8.06 24.19 14
1/12/2022 5:15:00 PM 5.07 41.126 0.688 8.05 23.61 13.87
1/12/2022 5:30:00 PM 5.07 41.126 0.688 8.05 25.26 13.71
1/12/2022 5:45:00 PM 5.07 41.126 0.688 8.03 24.54 13.58
1/12/2022 6:00:00 PM 5.07 41.126 0.687 8.03 23.01 13.44
1/12/2022 6:15:00 PM 5.08 41.144 0.687 8.02 21.65 13.36
1/12/2022 6:30:00 PM 5.09 41.162 0.687 8.01 28.33 13.24
1/12/2022 6:45:00 PM 5.09 41.162 0.687 8.01 26.53 13.16
1/12/2022 7:00:00 PM 5.09 41.162 0.686 8 20.61 13.07
1/12/2022 7:15:00 PM 5.09 41.162 0.686 8 19.87 12.98
1/12/2022 7:30:00 PM 5.1 41.18 0.685 8 18.3 12.91
1/12/2022 7:45:00 PM 5.1 41.18 0.685 8 18.83 12.87
1/12/2022 8:00:00 PM 5.11 41.198 0.685 7.99 18.62 12.78
1/12/2022 8:15:00 PM 5.12 41.216 0.685 7.99 23.37 12.74
1/12/2022 8:30:00 PM 5.12 41.216 0.685 7.99 18.41 12.68
1/12/2022 8:45:00 PM 5.13 41.234 0.685 7.99 17.14 12.63
1/12/2022 9:00:00 PM 5.15 41.27 0.685 7.99 14.04 12.56
1/12/2022 9:15:00 PM 5.16 41.288 0.685 7.98 15.4 12.51
1/12/2022 9:30:00 PM 5.18 41.324 0.685 7.97 10.88 12.45
1/12/2022 9:45:00 PM 5.2 41.36 0.685 7.98 21.06 12.39
1/12/2022 10:00:00 PM 5.21 41.378 0.686 7.97 16.67 12.34
1/12/2022 10:15:00 PM 5.23 41.414 0.686 7.97 12.87 12.29
1/12/2022 10:30:00 PM 5.24 41.432 0.686 7.97 16.19 12.24
1/12/2022 10:45:00 PM 5.26 41.468 0.686 7.96 15.37 12.18
1/12/2022 11:00:00 PM 5.27 41.486 0.686 7.96 13.65 12.11
1/12/2022 11:15:00 PM 5.28 41.504 0.686 7.96 13.18 12.11
1/12/2022 11:30:00 PM 5.3 41.54 0.686 7.96 13.76 12.04
1/12/2022 11:45:00 PM 5.32 41.576 0.686 7.95 15.34 11.99
1/13/2022 12:00:00 AM 5.34 41.612 0.687 7.95 14.06 11.95
1/13/2022 12:15:00 AM 5.35 41.63 0.687 7.94 13.33 11.91
1/13/2022 12:30:00 AM 5.37 41.666 0.688 7.94 14.96 11.84
1/13/2022 12:45:00 AM 5.38 41.684 0.688 7.93 12.37 11.79
1/13/2022 1:00:00 AM 5.4 41.72 0.688 7.93 14.59 11.77
1/13/2022 1:15:00 AM 5.42 41.756 0.688 7.92 13.12 11.72
1/13/2022 1:30:00 AM 5.43 41.774 0.688 7.92 12.84 11.67
1/13/2022 1:45:00 AM 5.45 41.81 0.688 7.91 12.17 11.63
1/13/2022 2:00:00 AM 5.46 41.828 0.688 7.91 12.53 11.58
1/13/2022 2:15:00 AM 5.48 41.864 0.688 7.91 13.59 11.58
1/13/2022 2:30:00 AM 5.49 41.882 0.688 7.9 14.24 11.54
1/13/2022 2:45:00 AM 5.51 41.918 0.688 7.9 13.29 11.48
1/13/2022 3:00:00 AM 5.53 41.954 0.688 7.89 13.72 11.47
1/13/2022 3:15:00 AM 5.54 41.972 0.688 7.89 12.03 11.46
1/13/2022 3:30:00 AM 5.56 42.008 0.688 7.89 12.49 11.44
1/13/2022 3:45:00 AM 5.58 42.044 0.689 7.89 12.33 11.42
1/13/2022 4:00:00 AM 5.59 42.062 0.689 7.88 13.82 11.35
1/13/2022 4:15:00 AM 5.6 42.08 0.689 7.88 13.31 11.36
1/13/2022 4:30:00 AM 5.6 42.08 0.69 7.88 13.06 11.34
1/13/2022 4:45:00 AM 5.61 42.098 0.69 7.88 13.31 11.31
1/13/2022 5:00:00 AM 5.61 42.098 0.69 7.87 14.88 11.3
1/13/2022 5:15:00 AM 5.61 42.098 0.69 7.87 13.79 11.29
1/13/2022 5:30:00 AM 5.62 42.116 0.691 7.87 14.11 11.27
1/13/2022 5:45:00 AM 5.63 42.134 0.691 7.87 15.04 11.27
1/13/2022 6:00:00 AM 5.63 42.134 0.691 7.87 14.85 11.25
1/13/2022 6:15:00 AM 5.64 42.152 0.691 7.86 15.29 11.25
1/13/2022 6:30:00 AM 5.63 42.134 0.691 7.87 14.68 11.23
1/13/2022 6:45:00 AM 5.62 42.116 0.691 7.86 14.26 11.22
1/13/2022 7:00:00 AM 5.6 42.08 0.69 7.86 13.69 11.21
1/13/2022 7:15:00 AM 5.58 42.044 0.69 7.87 14.06 11.22
1/13/2022 7:30:00 AM 5.56 42.008 0.69 7.86 15.6 11.22
1/13/2022 7:45:00 AM 5.53 41.954 0.69 7.86 14.86 11.24
1/13/2022 8:00:00 AM 5.52 41.936 0.69 7.86 14.03 11.27
1/13/2022 8:15:00 AM 5.51 41.918 0.69 7.87 13.58 11.28
1/13/2022 8:30:00 AM 5.5 41.9 0.69 7.87 13.87 11.35
1/13/2022 8:45:00 AM 5.5 41.9 0.69 7.87 14.37 11.42
1/13/2022 9:00:00 AM 5.51 41.918 0.69 7.87 15.25 11.51
1/13/2022 9:15:00 AM 5.54 41.972 0.689 7.88 15.34 11.63
1/13/2022 9:30:00 AM 5.58 42.044 0.689 7.89 15.75 11.78
1/13/2022 9:45:00 AM 5.63 42.134 0.689 7.9 15.56 11.94
1/13/2022 10:00:00 AM 5.71 42.278 0.688 7.91 17.9 12.16
1/13/2022 10:15:00 AM 5.8 42.44 0.688 7.93 19.69 12.36
1/13/2022 10:30:00 AM 5.87 42.566 0.687 7.94 19.66 12.55
1/13/2022 10:45:00 AM 5.96 42.728 0.687 7.95 19.02 12.73
1/13/2022 11:00:00 AM 6.05 42.89 0.686 7.97 14.48 12.91
1/13/2022 11:15:00 AM 6.14 43.052 0.685 7.97 26.56 13.1
1/13/2022 11:30:00 AM 6.25 43.25 0.685 7.99 21.56 13.26
1/13/2022 11:45:00 AM 6.35 43.43 0.684 8 22.64 13.4
1/13/2022 12:00:00 PM 6.43 43.574 0.684 8.02 23.94 13.57
1/13/2022 12:15:00 PM 6.52 43.736 0.683 8.03 22.34 13.68
1/13/2022 12:30:00 PM 6.6 43.88 0.683 8.04 22.12 13.79
1/13/2022 12:45:00 PM 6.68 44.024 0.682 8.05 22.96 13.94
1/13/2022 1:00:00 PM 6.77 44.186 0.682 8.06 22.68 14.02
1/13/2022 1:15:00 PM 6.83 44.294 0.682 8.08 21.87 14.13
1/13/2022 1:30:00 PM 6.89 44.402 0.682 8.09 26.43 14.2
1/13/2022 1:45:00 PM 6.93 44.474 0.682 8.1 26.43 14.24
1/13/2022 2:00:00 PM 6.99 44.582 0.682 8.1 25.78 14.3
1/13/2022 2:15:00 PM 7.04 44.672 0.682 8.1 16.7 14.37
1/13/2022 2:30:00 PM 7.07 44.726 0.681 8.11 27.14 14.41
1/13/2022 2:45:00 PM 7.11 44.798 0.681 8.12 18.52 14.43
1/13/2022 3:00:00 PM 7.14 44.852 0.681 8.12 20.02 14.41
1/13/2022 3:15:00 PM 7.16 44.888 0.681 8.12 29.91 14.4
1/13/2022 3:30:00 PM 7.17 44.906 0.681 8.13 33.78 14.37
1/13/2022 3:45:00 PM 7.18 44.924 0.682 8.12 40.69 14.26
1/13/2022 4:00:00 PM 7.17 44.906 0.682 8.12 36.13 14.16
1/13/2022 4:15:00 PM 7.17 44.906 0.682 8.12 42.65 14.05
1/13/2022 4:30:00 PM 7.15 44.87 0.682 8.11 38.11 13.89
1/13/2022 4:45:00 PM 7.13 44.834 0.682 8.1 45.28 13.73
1/13/2022 5:00:00 PM 7.11 44.798 0.682 8.1 50.56 13.57
1/13/2022 5:15:00 PM 7.1 44.78 0.682 8.09 37.77 13.41
1/13/2022 5:30:00 PM 7.08 44.744 0.682 8.07 33.41 13.26
1/13/2022 5:45:00 PM 7.07 44.726 0.682 8.07 37.51 13.08
1/13/2022 6:00:00 PM 7.06 44.708 0.682 8.06 36.29 12.93
1/13/2022 6:15:00 PM 7.06 44.708 0.683 8.05 42.28 12.83
1/13/2022 6:30:00 PM 7.05 44.69 0.682 8.04 55.32 12.71
1/13/2022 6:45:00 PM 7.05 44.69 0.681 8.04 45.01 12.61
1/13/2022 7:00:00 PM 7.04 44.672 0.681 8.03 46.96 12.56
1/13/2022 7:15:00 PM 7.04 44.672 0.68 8.02 30.05 12.54
1/13/2022 7:30:00 PM 7.04 44.672 0.68 8.02 33.29 12.51
1/13/2022 7:45:00 PM 7.04 44.672 0.679 8.01 36.58 12.45
1/13/2022 8:00:00 PM 7.03 44.654 0.678 8.01 39.4 12.42
1/13/2022 8:15:00 PM 7.02 44.636 0.677 8.01 31.88 12.37
1/13/2022 8:30:00 PM 7.01 44.618 0.677 8.01 28.08 12.34
1/13/2022 8:45:00 PM 7.01 44.618 0.677 8 37.33 12.28
1/13/2022 9:00:00 PM 7.01 44.618 0.677 7.99 33.53 12.24
1/13/2022 9:15:00 PM 7.01 44.618 0.677 7.99 32.44 12.15
1/13/2022 9:30:00 PM 7.01 44.618 0.677 7.99 33.63 12.1
1/13/2022 9:45:00 PM 7.01 44.618 0.677 7.99 34.32 12.05
1/13/2022 10:00:00 PM 7.01 44.618 0.677 7.99 36.88 12.01
1/13/2022 10:15:00 PM 7.02 44.636 0.677 7.98 39.71 11.96
1/13/2022 10:30:00 PM 7.02 44.636 0.677 7.98 33.81 11.91
1/13/2022 10:45:00 PM 7.02 44.636 0.677 7.97 40.9 11.85
1/13/2022 11:00:00 PM 7.03 44.654 0.677 7.97 34.81 11.83
1/13/2022 11:15:00 PM 7.04 44.672 0.677 7.97 34.03 11.79
1/13/2022 11:30:00 PM 7.04 44.672 0.677 7.96 42.93 11.74
1/13/2022 11:45:00 PM 7.04 44.672 0.677 7.96 35.22 11.7
1/14/2022 12:00:00 AM 7.03 44.654 0.677 7.95 34.21 11.64
1/14/2022 12:15:00 AM 7.03 44.654 0.677 7.94 37.53 11.6
1/14/2022 12:30:00 AM 7.02 44.636 0.677 7.94 41.93 11.57
1/14/2022 12:45:00 AM 7.02 44.636 0.678 7.94 40.36 11.53
1/14/2022 1:00:00 AM 7.02 44.636 0.678 7.94 40.9 11.51
1/14/2022 1:15:00 AM 7.02 44.636 0.678 7.94 28.98 11.46
1/14/2022 1:30:00 AM 7.02 44.636 0.678 7.93 29.35 11.45
1/14/2022 1:45:00 AM 7.01 44.618 0.678 7.93 34.44 11.42
1/14/2022 2:00:00 AM 7.02 44.636 0.678 7.92 36.44 11.41
1/14/2022 2:15:00 AM 7.02 44.636 0.678 7.92 41.35 11.39
1/14/2022 2:30:00 AM 7.02 44.636 0.678 7.91 49 11.36
1/14/2022 2:45:00 AM 7.02 44.636 0.679 7.92 45.15 11.34
1/14/2022 3:00:00 AM 7.03 44.654 0.679 7.91 62.42 11.33
1/14/2022 3:15:00 AM 7.04 44.672 0.679 7.91 48.37 11.29
1/14/2022 3:30:00 AM 7.04 44.672 0.679 7.9 40.87 11.28
1/14/2022 3:45:00 AM 7.05 44.69 0.679 7.9 41.97 11.26
1/14/2022 4:00:00 AM 7.05 44.69 0.679 7.9 42.62 11.23
1/14/2022 4:15:00 AM 7.06 44.708 0.68 7.9 36.9 11.22
1/14/2022 4:30:00 AM 7.06 44.708 0.679 7.89 38.27 11.2
1/14/2022 4:45:00 AM 7.06 44.708 0.68 7.89 61.07 11.18
1/14/2022 5:00:00 AM 7.06 44.708 0.68 7.89 51.27 11.17
1/14/2022 5:15:00 AM 7.07 44.726 0.679 7.89 40.87 11.15
1/14/2022 5:30:00 AM 7.07 44.726 0.679 7.89 55.77 11.14
1/14/2022 5:45:00 AM 7.07 44.726 0.679 7.88 79.45 11.13
1/14/2022 6:00:00 AM 7.08 44.744 0.68 7.88 47.83 11.12
1/14/2022 6:15:00 AM 7.07 44.726 0.68 7.89 49.13 11.1
1/14/2022 6:30:00 AM 7.07 44.726 0.68 7.88 47.79 11.1
1/14/2022 6:45:00 AM 7.07 44.726 0.679 7.88 41.59 11.09
1/14/2022 7:00:00 AM 7.07 44.726 0.68 7.88 54.52 11.09
1/14/2022 7:15:00 AM 7.06 44.708 0.68 7.88 49.29 11.07
1/14/2022 7:30:00 AM 7.04 44.672 0.68 7.88 45.65 11.08
1/14/2022 7:45:00 AM 7.03 44.654 0.68 7.88 41.08 11.06
1/14/2022 8:00:00 AM 7.03 44.654 0.68 7.88 47.07 11.07
1/14/2022 8:15:00 AM 7.04 44.672 0.681 7.88 52.97 11.05
1/14/2022 8:30:00 AM 7.06 44.708 0.682 7.88 65.12 11.02
1/14/2022 8:45:00 AM 7.08 44.744 0.683 7.87 38.29 10.98
1/14/2022 9:00:00 AM 7.11 44.798 0.683 7.87 47.42 10.99
1/14/2022 9:15:00 AM 7.13 44.834 0.683 7.87 43.76 10.98
1/14/2022 9:30:00 AM 7.16 44.888 0.684 7.87 53.81 11.02
1/14/2022 9:45:00 AM 7.18 44.924 0.683 7.88 85.91 11.07
1/14/2022 10:00:00 AM 7.2 44.96 0.683 7.89 81.25 11.17
1/14/2022 10:15:00 AM 7.22 44.996 0.682 7.9 50.25 11.29
1/14/2022 10:30:00 AM 7.23 45.014 0.682 7.91 53.89 11.42
1/14/2022 10:45:00 AM 7.27 45.086 0.682 7.92 65.23 11.62
1/14/2022 11:00:00 AM 7.31 45.158 0.681 7.94 71.7 11.86
1/14/2022 11:15:00 AM 7.34 45.212 0.681 7.96 66.54 12.08
1/14/2022 11:30:00 AM 7.35 45.23 0.68 7.98 69.77 12.31
1/14/2022 11:45:00 AM 7.4 45.32 0.68 7.99 67.32 12.52
1/14/2022 12:00:00 PM 7.49 45.482 0.679 8.01 72.19 12.74
1/14/2022 12:15:00 PM 7.57 45.626 0.679 8.03 75.59 12.95
1/14/2022 12:30:00 PM 7.62 45.716 0.679 8.04 52.06 13.12
1/14/2022 12:45:00 PM 7.66 45.788 0.679 8.05 40.45 13.25
1/14/2022 1:00:00 PM 7.74 45.932 0.678 8.07 46.85 13.39
1/14/2022 1:15:00 PM 7.79 46.022 0.678 8.07 52.98 13.49
1/14/2022 1:30:00 PM 7.81 46.058 0.678 8.08 41.41 13.57
1/14/2022 1:45:00 PM 7.83 46.094 0.678 8.09 80.75 13.65
1/14/2022 2:00:00 PM 7.82 46.076 0.678 8.1 45.93 13.69
1/14/2022 2:15:00 PM 7.8 46.04 0.678 8.11 122.7 13.73
1/14/2022 2:30:00 PM 7.79 46.022 0.678 8.11 78.5 13.76
1/14/2022 2:45:00 PM 7.78 46.004 0.677 8.11 64.45 13.77
1/14/2022 3:00:00 PM 7.75 45.95 0.678 8.11 54.81 13.77
1/14/2022 3:15:00 PM 7.73 45.914 0.678 8.12 86.12 13.76
1/14/2022 3:30:00 PM 7.73 45.914 0.678 8.12 86.6 13.75
1/14/2022 3:45:00 PM 7.69 45.842 0.678 8.12 81.19 13.7
1/14/2022 4:00:00 PM 7.64 45.752 0.678 8.12 66.03 13.64
1/14/2022 4:15:00 PM 7.59 45.662 0.678 8.11 59.18 13.54
1/14/2022 4:30:00 PM 7.55 45.59 0.678 8.11 57.47 13.46
1/14/2022 4:45:00 PM 7.5 45.5 0.678 8.1 68.06 13.35
1/14/2022 5:00:00 PM 7.42 45.356 0.678 8.09 64.88 13.2
1/14/2022 5:15:00 PM 7.36 45.248 0.678 8.09 52.31 13.04
1/14/2022 5:30:00 PM 7.31 45.158 0.678 8.08 51.68 12.87
1/14/2022 5:45:00 PM 7.26 45.068 0.678 8.07 38.07 12.7
1/14/2022 6:00:00 PM 7.22 44.996 0.678 8.06 32.52 12.55
1/14/2022 6:15:00 PM 7.17 44.906 0.677 8.05 36.73 12.45
1/14/2022 6:30:00 PM 7.12 44.816 0.677 8.04 32.1 12.39
1/14/2022 6:45:00 PM 7.05 44.69 0.676 8.04 37.84 12.4
1/14/2022 7:00:00 PM 6.97 44.546 0.679 8.03 30.74 12.46
1/14/2022 7:15:00 PM 6.87 44.366 0.689 8.02 33.28 12.47
1/14/2022 7:30:00 PM 6.74 44.132 0.698 8.02 45.5 12.46
1/14/2022 7:45:00 PM 6.65 43.97 0.705 8.02 44.37 12.42
1/14/2022 8:00:00 PM 6.57 43.826 0.706 8.02 44.55 12.36
1/14/2022 8:15:00 PM 6.52 43.736 0.702 8.02 34.59 12.32
1/14/2022 8:30:00 PM 6.49 43.682 0.693 8.01 45.37 12.32
1/14/2022 8:45:00 PM 6.45 43.61 0.686 8.01 44.12 12.28
1/14/2022 9:00:00 PM 6.4 43.52 0.681 8.01 34.31 12.26
1/14/2022 9:15:00 PM 6.36 43.448 0.679 8 43.99 12.25
1/14/2022 9:30:00 PM 6.33 43.394 0.677 8.01 27.5 12.2
1/14/2022 9:45:00 PM 6.29 43.322 0.676 8 45.44 12.19
1/14/2022 10:00:00 PM 6.24 43.232 0.676 8 41.76 12.17
1/14/2022 10:15:00 PM 6.19 43.142 0.675 8 42.01 12.13
1/14/2022 10:30:00 PM 6.16 43.088 0.675 7.99 39.24 12.12
1/14/2022 10:45:00 PM 6.13 43.034 0.675 7.99 43.13 12.06
1/14/2022 11:00:00 PM 6.08 42.944 0.675 7.99 54.35 12.05
1/14/2022 11:15:00 PM 6.04 42.872 0.675 7.98 45.15 12.04
1/14/2022 11:30:00 PM 5.99 42.782 0.676 7.98 56.27 12.01
1/14/2022 11:45:00 PM 5.95 42.71 0.676 7.97 50.45 11.97
1/15/2022 12:00:00 AM 5.9 42.62 0.676 7.98 68.84 11.97
1/15/2022 12:15:00 AM 5.83 42.494 0.676 7.97 50.21 11.93
1/15/2022 12:30:00 AM 5.75 42.35 0.676 7.97 57.26 11.91
1/15/2022 12:45:00 AM 5.7 42.26 0.677 7.96 53.89 11.92
1/15/2022 1:00:00 AM 5.65 42.17 0.677 7.96 46.02 11.89
1/15/2022 1:15:00 AM 5.62 42.116 0.677 7.96 55.87 11.87
1/15/2022 1:30:00 AM 5.57 42.026 0.677 7.95 52.41 11.87
1/15/2022 1:45:00 AM 5.53 41.954 0.678 7.95 58.82 11.86
1/15/2022 2:00:00 AM 5.5 41.9 0.678 7.95 58.54 11.85
1/15/2022 2:15:00 AM 5.46 41.828 0.679 7.94 79.52 11.85
1/15/2022 2:30:00 AM 5.41 41.738 0.679 7.94 88.19 11.81
1/15/2022 2:45:00 AM 5.34 41.612 0.68 7.94 125.2 11.82
1/15/2022 3:00:00 AM 5.27 41.486 0.68 7.94 104.4 11.82
1/15/2022 3:15:00 AM 5.24 41.432 0.681 7.93 73.28 11.82
1/15/2022 3:30:00 AM 5.21 41.378 0.681 7.92 102.8 11.82
1/15/2022 3:45:00 AM 5.18 41.324 0.681 7.85 111.1 11.81
1/15/2022 4:00:00 AM 5.18 41.324 0.681 7.87 101.4 11.84
1/15/2022 4:15:00 AM 5.17 41.306 0.681 7.88 94.3 11.82
1/15/2022 4:30:00 AM 5.16 41.288 0.681 7.89 111 11.83
1/15/2022 4:45:00 AM 5.13 41.234 0.681 7.9 65.68 11.83
1/15/2022 5:00:00 AM 5.11 41.198 0.681 7.9 47.58 11.82
1/15/2022 5:15:00 AM 5.08 41.144 0.681 7.9 63.98 11.84
1/15/2022 5:30:00 AM 5.04 41.072 0.68 7.9 66.43 11.83
1/15/2022 5:45:00 AM 4.98 40.964 0.681 7.9 77.61 11.85
1/15/2022 6:00:00 AM 4.94 40.892 0.681 7.9 60.73 11.84
1/15/2022 6:15:00 AM 4.91 40.838 0.681 7.9 78.8 11.85
1/15/2022 6:30:00 AM 4.87 40.766 0.681 7.9 65.26 11.87
1/15/2022 6:45:00 AM 4.84 40.712 0.681 7.89 54.53 11.87
1/15/2022 7:00:00 AM 4.79 40.622 0.681 7.89 73.31 11.88
1/15/2022 7:15:00 AM 4.75 40.55 0.681 7.9 76.93 11.9
1/15/2022 7:30:00 AM 4.71 40.478 0.681 7.9 76.02 11.92
1/15/2022 7:45:00 AM 4.68 40.424 0.682 7.89 60.09 11.96
1/15/2022 8:00:00 AM 4.64 40.352 0.682 7.89 67.03 12
1/15/2022 8:15:00 AM 4.6 40.28 0.682 7.9 62.65 12.09
1/15/2022 8:30:00 AM 4.56 40.208 0.682 7.9 90.8 12.15
1/15/2022 8:45:00 AM 4.52 40.136 0.682 7.9 69.55 12.24
1/15/2022 9:00:00 AM 4.47 40.046 0.682 7.91 102.8 12.38
1/15/2022 9:15:00 AM 4.46 40.028 0.682 7.91 66.89 12.5
1/15/2022 9:30:00 AM 4.46 40.028 0.681 7.92 141.7 12.69
1/15/2022 9:45:00 AM 4.47 40.046 0.681 7.93 127.6 12.87
1/15/2022 10:00:00 AM 4.5 40.1 0.68 7.94 115.2 13.09
1/15/2022 10:15:00 AM 4.56 40.208 0.68 7.95 134.5 13.29
1/15/2022 10:30:00 AM 4.61 40.298 0.679 7.97 142.4 13.5
1/15/2022 10:45:00 AM 4.7 40.46 0.679 7.98 115.8 13.73
1/15/2022 11:00:00 AM 4.77 40.586 0.679 7.99 84.48 13.94
1/15/2022 11:15:00 AM 4.85 40.73 0.678 8 98.68 14.14
1/15/2022 11:30:00 AM 4.93 40.874 0.678 8.02 139.6 14.3
1/15/2022 11:45:00 AM 4.98 40.964 0.677 8.04 58.22 14.44
1/15/2022 12:00:00 PM 5.03 41.054 0.677 8.05 64.13 14.56
1/15/2022 12:15:00 PM 5.08 41.144 0.677 8.06 120.3 14.7
1/15/2022 12:30:00 PM 5.12 41.216 0.677 8.08 64.85 14.82
1/15/2022 12:45:00 PM 5.15 41.27 0.677 8.09 73.53 14.94
1/15/2022 1:00:00 PM 5.18 41.324 0.676 8.1 30.85 15.03
1/15/2022 1:15:00 PM 5.21 41.378 0.676 8.11 32.08 15.17
1/15/2022 1:30:00 PM 5.23 41.414 0.676 8.12 33.24 15.22
1/15/2022 1:45:00 PM 5.23 41.414 0.676 8.13 32.2 15.27
1/15/2022 2:00:00 PM 5.23 41.414 0.675 8.14 32.46 15.35
1/15/2022 2:15:00 PM 5.23 41.414 0.675 8.14 32.11 15.37
1/15/2022 2:30:00 PM 5.22 41.396 0.676 8.15 32.63 15.44
1/15/2022 2:45:00 PM 5.19 41.342 0.676 8.15 32.69 15.44
1/15/2022 3:00:00 PM 5.19 41.342 0.676 8.15 32.4 15.45
1/15/2022 3:15:00 PM 5.19 41.342 0.676 8.16 32.93 15.48
1/15/2022 3:30:00 PM 5.17 41.306 0.677 8.16 32.28 15.45
1/15/2022 3:45:00 PM 5.13 41.234 0.677 8.15 34.08 15.37
1/15/2022 4:00:00 PM 5.09 41.162 0.677 8.15 33.05 15.28
1/15/2022 4:15:00 PM 5.06 41.108 0.678 8.14 32.71 15.17
1/15/2022 4:30:00 PM 5.01 41.018 0.678 8.14 32.64 15.03
1/15/2022 4:45:00 PM 4.97 40.946 0.678 8.13 31.9 14.92
1/15/2022 5:00:00 PM 4.93 40.874 0.678 8.13 31.86 14.75
1/15/2022 5:15:00 PM 4.9 40.82 0.679 8.11 31.2 14.61
1/15/2022 5:30:00 PM 4.86 40.748 0.679 8.1 31.33 14.48
1/15/2022 5:45:00 PM 4.82 40.676 0.679 8.09 32.79 14.33
1/15/2022 6:00:00 PM 4.78 40.604 0.679 8.08 33.88 14.23
1/15/2022 6:15:00 PM 4.74 40.532 0.679 8.08 33.7 14.07
1/15/2022 6:30:00 PM 4.71 40.478 0.679 8.07 33.73 14
1/15/2022 6:45:00 PM 4.67 40.406 0.679 8.06 34.14 13.92
1/15/2022 7:00:00 PM 4.63 40.334 0.679 8.05 37.04 13.82
1/15/2022 7:15:00 PM 4.59 40.262 0.679 8.05 36.15 13.78
1/15/2022 7:30:00 PM 4.55 40.19 0.678 8.05 35.61 13.72
1/15/2022 7:45:00 PM 4.51 40.118 0.678 8.04 36.86 13.63
1/15/2022 8:00:00 PM 4.45 40.01 0.679 8.04 36.39 13.59
1/15/2022 8:15:00 PM 4.38 39.884 0.68 8.04 37.41 13.55
1/15/2022 8:30:00 PM 4.33 39.794 0.681 8.04 35.74 13.52
1/15/2022 8:45:00 PM 4.28 39.704 0.682 8.04 34.58 13.47
1/15/2022 9:00:00 PM 4.24 39.632 0.682 8.03 33.47 13.39
1/15/2022 9:15:00 PM 4.22 39.596 0.683 8.02 33.26 13.31
1/15/2022 9:30:00 PM 4.2 39.56 0.684 8.01 32.48 13.27
1/15/2022 9:45:00 PM 4.2 39.56 0.684 8.01 35.41 13.25
1/15/2022 10:00:00 PM 4.22 39.596 0.683 8 34.1 13.18
1/15/2022 10:15:00 PM 4.22 39.596 0.682 7.99 35.37 13.18
1/15/2022 10:30:00 PM 4.22 39.596 0.682 7.99 34.36 13.16
1/15/2022 10:45:00 PM 4.2 39.56 0.682 7.99 32.1 13.13
1/15/2022 11:00:00 PM 4.19 39.542 0.682 7.99 29.83 13.09
1/15/2022 11:15:00 PM 4.17 39.506 0.682 7.99 30.84 13.05
1/15/2022 11:30:00 PM 4.16 39.488 0.682 7.98 29.13 13.04
1/15/2022 11:45:00 PM 4.14 39.452 0.683 7.98 29.54 12.99
1/16/2022 12:00:00 AM 4.12 39.416 0.683 7.97 29.64 12.94
1/16/2022 12:15:00 AM 4.1 39.38 0.683 7.97 28.46 12.91
1/16/2022 12:30:00 AM 4.08 39.344 0.684 7.97 28.78 12.88
1/16/2022 12:45:00 AM 4.05 39.29 0.684 7.96 28.26 12.84
1/16/2022 1:00:00 AM 4.02 39.236 0.684 7.96 29.48 12.81
1/16/2022 1:15:00 AM 3.99 39.182 0.684 7.96 29.75 12.8
1/16/2022 1:30:00 AM 3.96 39.128 0.684 7.95 28.94 12.76
1/16/2022 1:45:00 AM 3.94 39.092 0.685 7.95 29.23 12.74
1/16/2022 2:00:00 AM 3.91 39.038 0.685 7.94 31.2 12.73
1/16/2022 2:15:00 AM 3.88 38.984 0.685 7.94 29.62 12.71
1/16/2022 2:30:00 AM 3.85 38.93 0.686 7.94 29.17 12.68
1/16/2022 2:45:00 AM 3.83 38.894 0.687 7.93 30.1 12.67
1/16/2022 3:00:00 AM 3.81 38.858 0.688 7.93 31.54 12.64
1/16/2022 3:15:00 AM 3.78 38.804 0.688 7.93 30.12 12.64
1/16/2022 3:30:00 AM 3.76 38.768 0.689 7.92 30.55 12.6
1/16/2022 4:00:00 AM 3.72 38.696 0.69 7.92 30.44 12.59
1/16/2022 4:15:00 AM 3.7 38.66 0.69 7.91 31.63 12.59
1/16/2022 4:30:00 AM 3.68 38.624 0.69 7.91 32.23 12.57
1/16/2022 4:45:00 AM 3.65 38.57 0.691 7.9 31.42 12.58
1/16/2022 5:00:00 AM 3.61 38.498 0.691 7.91 30.94 12.55
1/16/2022 5:15:00 AM 3.58 38.444 0.691 7.91 31.36 12.56
1/16/2022 5:30:00 AM 3.56 38.408 0.692 7.9 30.93 12.57
1/16/2022 5:45:00 AM 3.53 38.354 0.692 7.9 30.71 12.55
1/16/2022 6:00:00 AM 3.52 38.336 0.693 7.9 34.13 12.55
1/16/2022 6:15:00 AM 3.5 38.3 0.693 7.9 30.13 12.53
1/16/2022 6:30:00 AM 3.48 38.264 0.694 7.9 31.01 12.53
1/16/2022 6:45:00 AM 3.46 38.228 0.694 7.89 31.3 12.55
1/16/2022 7:00:00 AM 3.45 38.21 0.694 7.91 30.9 12.54
1/16/2022 7:15:00 AM 3.43 38.174 0.694 7.9 31.15 12.53
1/16/2022 7:30:00 AM 3.41 38.138 0.695 7.89 32.83 12.54
1/16/2022 7:45:00 AM 3.4 38.12 0.695 7.88 32.4 12.55
1/16/2022 8:00:00 AM 3.39 38.102 0.695 7.88 31.21 12.59
1/16/2022 8:15:00 AM 3.38 38.084 0.694 7.89 32.1 12.62
1/16/2022 8:30:00 AM 3.38 38.084 0.694 7.89 30.97 12.68
1/16/2022 8:45:00 AM 3.38 38.084 0.694 7.9 31.85 12.77
1/16/2022 9:00:00 AM 3.39 38.102 0.694 7.9 31.96 12.87
1/16/2022 9:15:00 AM 3.42 38.156 0.693 7.91 31.57 12.99
1/16/2022 9:30:00 AM 3.45 38.21 0.693 7.92 31.94 13.14
1/16/2022 9:45:00 AM 3.5 38.3 0.692 7.93 31.84 13.3
1/16/2022 10:00:00 AM 3.56 38.408 0.692 7.93 32.33 13.52
1/16/2022 10:15:00 AM